<?xml version="1.0" encoding="UTF-8" standalone="no" ?>
<gpx xmlns="http://www.topografix.com/GPX/1/1" xmlns:xsi="http://www.w3.org/2001/XMLSchema-instance" xsi:schemaLocation="http://www.topografix.com/GPX/1/1 http://www.topografix.com/GPX/1/1/gpx.xsd" version="1.1" creator="VisuGPX - https://www.visugpx.com">
  <metadata>
    <name>83-DA-Cotignac</name>
    <desc><![CDATA[83-DA-Cotignac : Le Petit Poucet
2025-06-08-GG-AV]]></desc>
  </metadata>
  <trk>
    <name><![CDATA[2025-06-08-DA-GG AV-Cotignac-cor]]></name>
    <extensions>
      <line xmlns="http://www.topografix.com/GPX/gpx_style/0/2">
        <width>4</width>
      </line>
    </extensions>
    <trkseg>
      <trkpt lat="43.53015" lon="6.14867">
        <ele>316.2</ele>
        <time>2025-06-08T08:30:57.000Z</time>
      </trkpt>
      <trkpt lat="43.53015" lon="6.14867">
        <ele>316.2</ele>
        <time>2025-06-08T08:30:58.000Z</time>
      </trkpt>
      <trkpt lat="43.53015" lon="6.14867">
        <ele>316.2</ele>
        <time>2025-06-08T08:30:59.000Z</time>
      </trkpt>
      <trkpt lat="43.53015" lon="6.14867">
        <ele>316.2</ele>
        <time>2025-06-08T08:31:00.000Z</time>
      </trkpt>
      <trkpt lat="43.53014" lon="6.14867">
        <ele>316.2</ele>
        <time>2025-06-08T08:31:01.000Z</time>
      </trkpt>
      <trkpt lat="43.53014" lon="6.14868">
        <ele>316.2</ele>
        <time>2025-06-08T08:31:02.000Z</time>
      </trkpt>
      <trkpt lat="43.53015" lon="6.14867">
        <ele>316.2</ele>
        <time>2025-06-08T08:31:03.000Z</time>
      </trkpt>
      <trkpt lat="43.53013" lon="6.14866">
        <ele>315.9</ele>
        <time>2025-06-08T08:31:11.000Z</time>
      </trkpt>
      <trkpt lat="43.53014" lon="6.14867">
        <ele>315.8</ele>
        <time>2025-06-08T08:31:12.000Z</time>
      </trkpt>
      <trkpt lat="43.53014" lon="6.14867">
        <ele>315.7</ele>
        <time>2025-06-08T08:31:13.000Z</time>
      </trkpt>
      <trkpt lat="43.53015" lon="6.14868">
        <ele>315.7</ele>
        <time>2025-06-08T08:31:14.000Z</time>
      </trkpt>
      <trkpt lat="43.53016" lon="6.14869">
        <ele>315.6</ele>
        <time>2025-06-08T08:31:15.000Z</time>
      </trkpt>
      <trkpt lat="43.53017" lon="6.1487">
        <ele>315.5</ele>
        <time>2025-06-08T08:31:16.000Z</time>
      </trkpt>
      <trkpt lat="43.53016" lon="6.14867">
        <ele>315.5</ele>
        <time>2025-06-08T08:31:36.000Z</time>
      </trkpt>
      <trkpt lat="43.53016" lon="6.14867">
        <ele>315.5</ele>
        <time>2025-06-08T08:31:36.000Z</time>
      </trkpt>
      <trkpt lat="43.53016" lon="6.14867">
        <ele>315.4</ele>
        <time>2025-06-08T08:31:37.000Z</time>
      </trkpt>
      <trkpt lat="43.53016" lon="6.14867">
        <ele>315.4</ele>
        <time>2025-06-08T08:31:38.000Z</time>
      </trkpt>
      <trkpt lat="43.53016" lon="6.14867">
        <ele>315.4</ele>
        <time>2025-06-08T08:31:42.000Z</time>
      </trkpt>
      <trkpt lat="43.53016" lon="6.14867">
        <ele>315.4</ele>
        <time>2025-06-08T08:31:43.000Z</time>
      </trkpt>
      <trkpt lat="43.53016" lon="6.14867">
        <ele>315.4</ele>
        <time>2025-06-08T08:31:49.000Z</time>
      </trkpt>
      <trkpt lat="43.53016" lon="6.14867">
        <ele>315.5</ele>
        <time>2025-06-08T08:31:50.000Z</time>
      </trkpt>
      <trkpt lat="43.53016" lon="6.14867">
        <ele>315.5</ele>
        <time>2025-06-08T08:31:51.000Z</time>
      </trkpt>
      <trkpt lat="43.53016" lon="6.14867">
        <ele>315.6</ele>
        <time>2025-06-08T08:31:56.000Z</time>
      </trkpt>
      <trkpt lat="43.53016" lon="6.14867">
        <ele>315.6</ele>
        <time>2025-06-08T08:31:57.000Z</time>
      </trkpt>
      <trkpt lat="43.53016" lon="6.14867">
        <ele>315.6</ele>
        <time>2025-06-08T08:32:01.000Z</time>
      </trkpt>
      <trkpt lat="43.53016" lon="6.14867">
        <ele>315.7</ele>
        <time>2025-06-08T08:32:02.000Z</time>
      </trkpt>
      <trkpt lat="43.53016" lon="6.14867">
        <ele>315.7</ele>
        <time>2025-06-08T08:32:03.000Z</time>
      </trkpt>
      <trkpt lat="43.53016" lon="6.14866">
        <ele>315.8</ele>
        <time>2025-06-08T08:32:09.000Z</time>
      </trkpt>
      <trkpt lat="43.53016" lon="6.14866">
        <ele>315.8</ele>
        <time>2025-06-08T08:32:10.000Z</time>
      </trkpt>
      <trkpt lat="43.53016" lon="6.14866">
        <ele>315.8</ele>
        <time>2025-06-08T08:32:11.000Z</time>
      </trkpt>
      <trkpt lat="43.53016" lon="6.14866">
        <ele>315.8</ele>
        <time>2025-06-08T08:32:12.000Z</time>
      </trkpt>
      <trkpt lat="43.53016" lon="6.14866">
        <ele>315.8</ele>
        <time>2025-06-08T08:32:13.000Z</time>
      </trkpt>
      <trkpt lat="43.53016" lon="6.14866">
        <ele>315.8</ele>
        <time>2025-06-08T08:32:14.000Z</time>
      </trkpt>
      <trkpt lat="43.53016" lon="6.14866">
        <ele>315.8</ele>
        <time>2025-06-08T08:32:15.000Z</time>
      </trkpt>
      <trkpt lat="43.53016" lon="6.14866">
        <ele>315.8</ele>
        <time>2025-06-08T08:32:16.000Z</time>
      </trkpt>
      <trkpt lat="43.53016" lon="6.14866">
        <ele>315.8</ele>
        <time>2025-06-08T08:32:17.000Z</time>
      </trkpt>
      <trkpt lat="43.53016" lon="6.14866">
        <ele>315.8</ele>
        <time>2025-06-08T08:32:29.000Z</time>
      </trkpt>
      <trkpt lat="43.53016" lon="6.14866">
        <ele>315.8</ele>
        <time>2025-06-08T08:32:30.000Z</time>
      </trkpt>
      <trkpt lat="43.53016" lon="6.14866">
        <ele>315.8</ele>
        <time>2025-06-08T08:32:31.000Z</time>
      </trkpt>
      <trkpt lat="43.53016" lon="6.14866">
        <ele>315.8</ele>
        <time>2025-06-08T08:32:32.000Z</time>
      </trkpt>
      <trkpt lat="43.53016" lon="6.14866">
        <ele>315.8</ele>
        <time>2025-06-08T08:32:33.000Z</time>
      </trkpt>
      <trkpt lat="43.53015" lon="6.14866">
        <ele>315.9</ele>
        <time>2025-06-08T08:32:56.000Z</time>
      </trkpt>
      <trkpt lat="43.53015" lon="6.14866">
        <ele>315.9</ele>
        <time>2025-06-08T08:32:57.000Z</time>
      </trkpt>
      <trkpt lat="43.53015" lon="6.14866">
        <ele>315.9</ele>
        <time>2025-06-08T08:33:01.000Z</time>
      </trkpt>
      <trkpt lat="43.53015" lon="6.14866">
        <ele>315.9</ele>
        <time>2025-06-08T08:33:02.000Z</time>
      </trkpt>
      <trkpt lat="43.53015" lon="6.14866">
        <ele>315.9</ele>
        <time>2025-06-08T08:33:03.000Z</time>
      </trkpt>
      <trkpt lat="43.53015" lon="6.14866">
        <ele>315.7</ele>
        <time>2025-06-08T08:34:16.000Z</time>
      </trkpt>
      <trkpt lat="43.53015" lon="6.14866">
        <ele>315.7</ele>
        <time>2025-06-08T08:34:17.000Z</time>
      </trkpt>
      <trkpt lat="43.53015" lon="6.14866">
        <ele>315.7</ele>
        <time>2025-06-08T08:34:18.000Z</time>
      </trkpt>
      <trkpt lat="43.53015" lon="6.14866">
        <ele>315.7</ele>
        <time>2025-06-08T08:34:19.000Z</time>
      </trkpt>
      <trkpt lat="43.53015" lon="6.14866">
        <ele>315.8</ele>
        <time>2025-06-08T08:34:20.000Z</time>
      </trkpt>
      <trkpt lat="43.53015" lon="6.14865">
        <ele>315.8</ele>
        <time>2025-06-08T08:34:51.000Z</time>
      </trkpt>
      <trkpt lat="43.53015" lon="6.14865">
        <ele>315.8</ele>
        <time>2025-06-08T08:34:52.000Z</time>
      </trkpt>
      <trkpt lat="43.53015" lon="6.14864">
        <ele>315.8</ele>
        <time>2025-06-08T08:34:53.000Z</time>
      </trkpt>
      <trkpt lat="43.53011" lon="6.14852">
        <ele>315.9</ele>
        <time>2025-06-08T08:35:07.000Z</time>
      </trkpt>
      <trkpt lat="43.53006" lon="6.14841">
        <ele>316.1</ele>
        <time>2025-06-08T08:35:19.000Z</time>
      </trkpt>
      <trkpt lat="43.53" lon="6.1483">
        <ele>316.4</ele>
        <time>2025-06-08T08:35:29.000Z</time>
      </trkpt>
      <trkpt lat="43.52998" lon="6.14818">
        <ele>316.8</ele>
        <time>2025-06-08T08:35:44.000Z</time>
      </trkpt>
      <trkpt lat="43.52996" lon="6.14805">
        <ele>316.7</ele>
        <time>2025-06-08T08:35:55.000Z</time>
      </trkpt>
      <trkpt lat="43.5299" lon="6.14795">
        <ele>316.6</ele>
        <time>2025-06-08T08:36:03.000Z</time>
      </trkpt>
      <trkpt lat="43.52992" lon="6.14783">
        <ele>316.6</ele>
        <time>2025-06-08T08:36:15.000Z</time>
      </trkpt>
      <trkpt lat="43.52999" lon="6.14774">
        <ele>316.7</ele>
        <time>2025-06-08T08:36:23.000Z</time>
      </trkpt>
      <trkpt lat="43.53005" lon="6.14763">
        <ele>316.9</ele>
        <time>2025-06-08T08:36:32.000Z</time>
      </trkpt>
      <trkpt lat="43.53007" lon="6.1475">
        <ele>317</ele>
        <time>2025-06-08T08:36:43.000Z</time>
      </trkpt>
      <trkpt lat="43.53005" lon="6.14737">
        <ele>317.1</ele>
        <time>2025-06-08T08:36:54.000Z</time>
      </trkpt>
      <trkpt lat="43.53004" lon="6.14724">
        <ele>317.3</ele>
        <time>2025-06-08T08:37:04.000Z</time>
      </trkpt>
      <trkpt lat="43.53004" lon="6.14711">
        <ele>317.2</ele>
        <time>2025-06-08T08:37:15.000Z</time>
      </trkpt>
      <trkpt lat="43.53004" lon="6.14697">
        <ele>317.4</ele>
        <time>2025-06-08T08:37:27.000Z</time>
      </trkpt>
      <trkpt lat="43.53003" lon="6.14684">
        <ele>317.5</ele>
        <time>2025-06-08T08:37:37.000Z</time>
      </trkpt>
      <trkpt lat="43.53002" lon="6.14672">
        <ele>317.8</ele>
        <time>2025-06-08T08:37:46.000Z</time>
      </trkpt>
      <trkpt lat="43.53001" lon="6.14659">
        <ele>318.1</ele>
        <time>2025-06-08T08:37:55.000Z</time>
      </trkpt>
      <trkpt lat="43.52996" lon="6.14648">
        <ele>318.3</ele>
        <time>2025-06-08T08:38:04.000Z</time>
      </trkpt>
      <trkpt lat="43.52997" lon="6.14636">
        <ele>318.2</ele>
        <time>2025-06-08T08:38:13.000Z</time>
      </trkpt>
      <trkpt lat="43.52997" lon="6.14623">
        <ele>317.9</ele>
        <time>2025-06-08T08:38:22.000Z</time>
      </trkpt>
      <trkpt lat="43.52998" lon="6.1461">
        <ele>317.6</ele>
        <time>2025-06-08T08:38:32.000Z</time>
      </trkpt>
      <trkpt lat="43.52996" lon="6.14598">
        <ele>317.5</ele>
        <time>2025-06-08T08:38:44.000Z</time>
      </trkpt>
      <trkpt lat="43.52996" lon="6.14597">
        <ele>317.5</ele>
        <time>2025-06-08T08:38:48.000Z</time>
      </trkpt>
      <trkpt lat="43.52995" lon="6.14597">
        <ele>317.5</ele>
        <time>2025-06-08T08:38:49.000Z</time>
      </trkpt>
      <trkpt lat="43.52995" lon="6.14597">
        <ele>317.5</ele>
        <time>2025-06-08T08:38:50.000Z</time>
      </trkpt>
      <trkpt lat="43.52995" lon="6.14596">
        <ele>317.5</ele>
        <time>2025-06-08T08:38:54.000Z</time>
      </trkpt>
      <trkpt lat="43.52995" lon="6.14596">
        <ele>317.5</ele>
        <time>2025-06-08T08:38:55.000Z</time>
      </trkpt>
      <trkpt lat="43.52995" lon="6.14595">
        <ele>317.5</ele>
        <time>2025-06-08T08:38:56.000Z</time>
      </trkpt>
      <trkpt lat="43.52992" lon="6.14594">
        <ele>317.7</ele>
        <time>2025-06-08T08:39:06.000Z</time>
      </trkpt>
      <trkpt lat="43.52992" lon="6.14594">
        <ele>317.7</ele>
        <time>2025-06-08T08:39:07.000Z</time>
      </trkpt>
      <trkpt lat="43.52992" lon="6.14595">
        <ele>317.6</ele>
        <time>2025-06-08T08:39:11.000Z</time>
      </trkpt>
      <trkpt lat="43.52992" lon="6.14595">
        <ele>317.6</ele>
        <time>2025-06-08T08:39:12.000Z</time>
      </trkpt>
      <trkpt lat="43.52992" lon="6.14595">
        <ele>317.6</ele>
        <time>2025-06-08T08:39:13.000Z</time>
      </trkpt>
      <trkpt lat="43.52992" lon="6.14595">
        <ele>317.6</ele>
        <time>2025-06-08T08:39:14.000Z</time>
      </trkpt>
      <trkpt lat="43.52992" lon="6.14595">
        <ele>317.6</ele>
        <time>2025-06-08T08:39:15.000Z</time>
      </trkpt>
      <trkpt lat="43.52992" lon="6.14596">
        <ele>317.6</ele>
        <time>2025-06-08T08:39:21.000Z</time>
      </trkpt>
      <trkpt lat="43.52992" lon="6.14596">
        <ele>317.6</ele>
        <time>2025-06-08T08:39:22.000Z</time>
      </trkpt>
      <trkpt lat="43.52992" lon="6.14596">
        <ele>317.6</ele>
        <time>2025-06-08T08:39:23.000Z</time>
      </trkpt>
      <trkpt lat="43.52992" lon="6.14596">
        <ele>317.6</ele>
        <time>2025-06-08T08:39:24.000Z</time>
      </trkpt>
      <trkpt lat="43.52992" lon="6.14596">
        <ele>317.6</ele>
        <time>2025-06-08T08:39:25.000Z</time>
      </trkpt>
      <trkpt lat="43.52992" lon="6.14597">
        <ele>317.4</ele>
        <time>2025-06-08T08:39:42.000Z</time>
      </trkpt>
      <trkpt lat="43.52992" lon="6.14597">
        <ele>317.4</ele>
        <time>2025-06-08T08:39:43.000Z</time>
      </trkpt>
      <trkpt lat="43.52992" lon="6.14597">
        <ele>317.4</ele>
        <time>2025-06-08T08:39:46.000Z</time>
      </trkpt>
      <trkpt lat="43.52992" lon="6.14597">
        <ele>317.4</ele>
        <time>2025-06-08T08:39:47.000Z</time>
      </trkpt>
      <trkpt lat="43.52992" lon="6.14597">
        <ele>317.4</ele>
        <time>2025-06-08T08:39:54.000Z</time>
      </trkpt>
      <trkpt lat="43.52993" lon="6.14596">
        <ele>317.4</ele>
        <time>2025-06-08T08:39:55.000Z</time>
      </trkpt>
      <trkpt lat="43.53002" lon="6.14592">
        <ele>317.5</ele>
        <time>2025-06-08T08:40:04.000Z</time>
      </trkpt>
      <trkpt lat="43.53011" lon="6.14588">
        <ele>317.5</ele>
        <time>2025-06-08T08:40:13.000Z</time>
      </trkpt>
      <trkpt lat="43.5302" lon="6.14585">
        <ele>317.6</ele>
        <time>2025-06-08T08:40:23.000Z</time>
      </trkpt>
      <trkpt lat="43.53029" lon="6.14581">
        <ele>317.7</ele>
        <time>2025-06-08T08:40:35.000Z</time>
      </trkpt>
      <trkpt lat="43.53038" lon="6.14577">
        <ele>317.9</ele>
        <time>2025-06-08T08:40:47.000Z</time>
      </trkpt>
      <trkpt lat="43.5304" lon="6.14575">
        <ele>318</ele>
        <time>2025-06-08T08:40:57.000Z</time>
      </trkpt>
      <trkpt lat="43.5304" lon="6.14575">
        <ele>318</ele>
        <time>2025-06-08T08:40:58.000Z</time>
      </trkpt>
      <trkpt lat="43.53044" lon="6.14573">
        <ele>318.2</ele>
        <time>2025-06-08T08:41:07.000Z</time>
      </trkpt>
      <trkpt lat="43.53045" lon="6.14572">
        <ele>318.2</ele>
        <time>2025-06-08T08:41:08.000Z</time>
      </trkpt>
      <trkpt lat="43.5305" lon="6.1457">
        <ele>318.4</ele>
        <time>2025-06-08T08:41:19.000Z</time>
      </trkpt>
      <trkpt lat="43.5305" lon="6.1457">
        <ele>318.4</ele>
        <time>2025-06-08T08:41:20.000Z</time>
      </trkpt>
      <trkpt lat="43.5305" lon="6.1457">
        <ele>318.4</ele>
        <time>2025-06-08T08:41:21.000Z</time>
      </trkpt>
      <trkpt lat="43.53052" lon="6.14569">
        <ele>318.4</ele>
        <time>2025-06-08T08:41:28.000Z</time>
      </trkpt>
      <trkpt lat="43.53053" lon="6.14569">
        <ele>318.4</ele>
        <time>2025-06-08T08:41:29.000Z</time>
      </trkpt>
      <trkpt lat="43.53054" lon="6.14569">
        <ele>318.4</ele>
        <time>2025-06-08T08:41:30.000Z</time>
      </trkpt>
      <trkpt lat="43.53063" lon="6.14566">
        <ele>318.4</ele>
        <time>2025-06-08T08:41:37.000Z</time>
      </trkpt>
      <trkpt lat="43.53072" lon="6.14562">
        <ele>318.5</ele>
        <time>2025-06-08T08:41:44.000Z</time>
      </trkpt>
      <trkpt lat="43.53082" lon="6.14557">
        <ele>318.6</ele>
        <time>2025-06-08T08:41:52.000Z</time>
      </trkpt>
      <trkpt lat="43.53091" lon="6.14553">
        <ele>318.7</ele>
        <time>2025-06-08T08:42:00.000Z</time>
      </trkpt>
      <trkpt lat="43.53092" lon="6.14552">
        <ele>318.7</ele>
        <time>2025-06-08T08:42:06.000Z</time>
      </trkpt>
      <trkpt lat="43.53092" lon="6.14552">
        <ele>318.7</ele>
        <time>2025-06-08T08:42:07.000Z</time>
      </trkpt>
      <trkpt lat="43.53092" lon="6.14552">
        <ele>318.8</ele>
        <time>2025-06-08T08:42:08.000Z</time>
      </trkpt>
      <trkpt lat="43.53094" lon="6.14551">
        <ele>318.9</ele>
        <time>2025-06-08T08:42:13.000Z</time>
      </trkpt>
      <trkpt lat="43.53095" lon="6.14551">
        <ele>318.9</ele>
        <time>2025-06-08T08:42:14.000Z</time>
      </trkpt>
      <trkpt lat="43.53096" lon="6.14551">
        <ele>318.9</ele>
        <time>2025-06-08T08:42:15.000Z</time>
      </trkpt>
      <trkpt lat="43.53106" lon="6.14549">
        <ele>319.2</ele>
        <time>2025-06-08T08:42:23.000Z</time>
      </trkpt>
      <trkpt lat="43.53116" lon="6.14544">
        <ele>319.3</ele>
        <time>2025-06-08T08:42:30.000Z</time>
      </trkpt>
      <trkpt lat="43.53126" lon="6.14543">
        <ele>319.5</ele>
        <time>2025-06-08T08:42:37.000Z</time>
      </trkpt>
      <trkpt lat="43.53136" lon="6.14539">
        <ele>319.5</ele>
        <time>2025-06-08T08:42:44.000Z</time>
      </trkpt>
      <trkpt lat="43.53145" lon="6.14533">
        <ele>319.5</ele>
        <time>2025-06-08T08:42:51.000Z</time>
      </trkpt>
      <trkpt lat="43.53154" lon="6.14528">
        <ele>319.5</ele>
        <time>2025-06-08T08:42:59.000Z</time>
      </trkpt>
      <trkpt lat="43.53162" lon="6.14533">
        <ele>319.5</ele>
        <time>2025-06-08T08:43:08.000Z</time>
      </trkpt>
      <trkpt lat="43.5317" lon="6.14526">
        <ele>319.5</ele>
        <time>2025-06-08T08:43:18.000Z</time>
      </trkpt>
      <trkpt lat="43.53178" lon="6.1452">
        <ele>319.7</ele>
        <time>2025-06-08T08:43:28.000Z</time>
      </trkpt>
      <trkpt lat="43.53187" lon="6.14516">
        <ele>319.7</ele>
        <time>2025-06-08T08:43:37.000Z</time>
      </trkpt>
      <trkpt lat="43.53196" lon="6.14513">
        <ele>319.7</ele>
        <time>2025-06-08T08:43:46.000Z</time>
      </trkpt>
      <trkpt lat="43.53204" lon="6.14517">
        <ele>319.8</ele>
        <time>2025-06-08T08:43:56.000Z</time>
      </trkpt>
      <trkpt lat="43.53213" lon="6.14517">
        <ele>319.8</ele>
        <time>2025-06-08T08:44:08.000Z</time>
      </trkpt>
      <trkpt lat="43.53214" lon="6.14516">
        <ele>319.6</ele>
        <time>2025-06-08T08:44:14.000Z</time>
      </trkpt>
      <trkpt lat="43.53214" lon="6.14516">
        <ele>319.8</ele>
        <time>2025-06-08T08:44:15.000Z</time>
      </trkpt>
      <trkpt lat="43.53214" lon="6.14516">
        <ele>320</ele>
        <time>2025-06-08T08:44:16.000Z</time>
      </trkpt>
      <trkpt lat="43.53215" lon="6.14516">
        <ele>320.1</ele>
        <time>2025-06-08T08:44:17.000Z</time>
      </trkpt>
      <trkpt lat="43.53223" lon="6.14519">
        <ele>320.1</ele>
        <time>2025-06-08T08:44:26.000Z</time>
      </trkpt>
      <trkpt lat="43.5323" lon="6.14528">
        <ele>320</ele>
        <time>2025-06-08T08:44:33.000Z</time>
      </trkpt>
      <trkpt lat="43.53238" lon="6.14536">
        <ele>320.2</ele>
        <time>2025-06-08T08:44:44.000Z</time>
      </trkpt>
      <trkpt lat="43.53238" lon="6.14537">
        <ele>320.2</ele>
        <time>2025-06-08T08:44:46.000Z</time>
      </trkpt>
      <trkpt lat="43.53238" lon="6.14537">
        <ele>320.2</ele>
        <time>2025-06-08T08:44:47.000Z</time>
      </trkpt>
      <trkpt lat="43.53238" lon="6.14536">
        <ele>320.2</ele>
        <time>2025-06-08T08:44:48.000Z</time>
      </trkpt>
      <trkpt lat="43.53238" lon="6.14536">
        <ele>320.2</ele>
        <time>2025-06-08T08:44:49.000Z</time>
      </trkpt>
      <trkpt lat="43.53238" lon="6.14536">
        <ele>320.3</ele>
        <time>2025-06-08T08:44:50.000Z</time>
      </trkpt>
      <trkpt lat="43.53238" lon="6.14536">
        <ele>320.3</ele>
        <time>2025-06-08T08:44:51.000Z</time>
      </trkpt>
      <trkpt lat="43.53238" lon="6.14536">
        <ele>320.3</ele>
        <time>2025-06-08T08:44:52.000Z</time>
      </trkpt>
      <trkpt lat="43.53235" lon="6.14539">
        <ele>320.4</ele>
        <time>2025-06-08T08:44:56.000Z</time>
      </trkpt>
      <trkpt lat="43.53234" lon="6.14541">
        <ele>320.4</ele>
        <time>2025-06-08T08:44:57.000Z</time>
      </trkpt>
      <trkpt lat="43.53228" lon="6.14551">
        <ele>320.6</ele>
        <time>2025-06-08T08:45:05.000Z</time>
      </trkpt>
      <trkpt lat="43.53223" lon="6.14562">
        <ele>321.1</ele>
        <time>2025-06-08T08:45:13.000Z</time>
      </trkpt>
      <trkpt lat="43.53217" lon="6.14572">
        <ele>321.9</ele>
        <time>2025-06-08T08:45:21.000Z</time>
      </trkpt>
      <trkpt lat="43.53211" lon="6.14582">
        <ele>322.9</ele>
        <time>2025-06-08T08:45:33.000Z</time>
      </trkpt>
      <trkpt lat="43.53213" lon="6.14595">
        <ele>323.9</ele>
        <time>2025-06-08T08:45:52.000Z</time>
      </trkpt>
      <trkpt lat="43.53222" lon="6.146">
        <ele>324.2</ele>
        <time>2025-06-08T08:46:03.000Z</time>
      </trkpt>
      <trkpt lat="43.53223" lon="6.14605">
        <ele>325</ele>
        <time>2025-06-08T08:46:17.000Z</time>
      </trkpt>
      <trkpt lat="43.53223" lon="6.14605">
        <ele>325</ele>
        <time>2025-06-08T08:46:18.000Z</time>
      </trkpt>
      <trkpt lat="43.53223" lon="6.14605">
        <ele>325.1</ele>
        <time>2025-06-08T08:46:21.000Z</time>
      </trkpt>
      <trkpt lat="43.53223" lon="6.14605">
        <ele>325.1</ele>
        <time>2025-06-08T08:46:22.000Z</time>
      </trkpt>
      <trkpt lat="43.53223" lon="6.14605">
        <ele>325.1</ele>
        <time>2025-06-08T08:46:23.000Z</time>
      </trkpt>
      <trkpt lat="43.53223" lon="6.14605">
        <ele>325.2</ele>
        <time>2025-06-08T08:46:24.000Z</time>
      </trkpt>
      <trkpt lat="43.53223" lon="6.14605">
        <ele>325.2</ele>
        <time>2025-06-08T08:46:25.000Z</time>
      </trkpt>
      <trkpt lat="43.53223" lon="6.14605">
        <ele>325.1</ele>
        <time>2025-06-08T08:46:28.000Z</time>
      </trkpt>
      <trkpt lat="43.53223" lon="6.14605">
        <ele>325</ele>
        <time>2025-06-08T08:46:29.000Z</time>
      </trkpt>
      <trkpt lat="43.53223" lon="6.14605">
        <ele>325</ele>
        <time>2025-06-08T08:46:30.000Z</time>
      </trkpt>
      <trkpt lat="43.53223" lon="6.14605">
        <ele>325</ele>
        <time>2025-06-08T08:46:31.000Z</time>
      </trkpt>
      <trkpt lat="43.53223" lon="6.14605">
        <ele>325.1</ele>
        <time>2025-06-08T08:46:32.000Z</time>
      </trkpt>
      <trkpt lat="43.53223" lon="6.14605">
        <ele>325.4</ele>
        <time>2025-06-08T08:46:47.000Z</time>
      </trkpt>
      <trkpt lat="43.53223" lon="6.14605">
        <ele>325.4</ele>
        <time>2025-06-08T08:46:48.000Z</time>
      </trkpt>
      <trkpt lat="43.53222" lon="6.14605">
        <ele>325.4</ele>
        <time>2025-06-08T08:46:52.000Z</time>
      </trkpt>
      <trkpt lat="43.53222" lon="6.14605">
        <ele>325.4</ele>
        <time>2025-06-08T08:46:53.000Z</time>
      </trkpt>
      <trkpt lat="43.53222" lon="6.14605">
        <ele>325.4</ele>
        <time>2025-06-08T08:46:54.000Z</time>
      </trkpt>
      <trkpt lat="43.53222" lon="6.14605">
        <ele>325.4</ele>
        <time>2025-06-08T08:46:55.000Z</time>
      </trkpt>
      <trkpt lat="43.53222" lon="6.14606">
        <ele>325.5</ele>
        <time>2025-06-08T08:46:56.000Z</time>
      </trkpt>
      <trkpt lat="43.53223" lon="6.14619">
        <ele>326.3</ele>
        <time>2025-06-08T08:47:11.000Z</time>
      </trkpt>
      <trkpt lat="43.53232" lon="6.14625">
        <ele>328.7</ele>
        <time>2025-06-08T08:47:22.000Z</time>
      </trkpt>
      <trkpt lat="43.53239" lon="6.14631">
        <ele>330.4</ele>
        <time>2025-06-08T08:47:32.000Z</time>
      </trkpt>
      <trkpt lat="43.53248" lon="6.14636">
        <ele>332.3</ele>
        <time>2025-06-08T08:47:44.000Z</time>
      </trkpt>
      <trkpt lat="43.53257" lon="6.14642">
        <ele>333.8</ele>
        <time>2025-06-08T08:47:55.000Z</time>
      </trkpt>
      <trkpt lat="43.53265" lon="6.14649">
        <ele>334.8</ele>
        <time>2025-06-08T08:48:06.000Z</time>
      </trkpt>
      <trkpt lat="43.53273" lon="6.14655">
        <ele>336.8</ele>
        <time>2025-06-08T08:48:19.000Z</time>
      </trkpt>
      <trkpt lat="43.53281" lon="6.14663">
        <ele>338.8</ele>
        <time>2025-06-08T08:48:33.000Z</time>
      </trkpt>
      <trkpt lat="43.53281" lon="6.14666">
        <ele>339.9</ele>
        <time>2025-06-08T08:48:42.000Z</time>
      </trkpt>
      <trkpt lat="43.53281" lon="6.14666">
        <ele>340</ele>
        <time>2025-06-08T08:48:43.000Z</time>
      </trkpt>
      <trkpt lat="43.53282" lon="6.14665">
        <ele>340.6</ele>
        <time>2025-06-08T08:49:04.000Z</time>
      </trkpt>
      <trkpt lat="43.53282" lon="6.14666">
        <ele>340.6</ele>
        <time>2025-06-08T08:49:05.000Z</time>
      </trkpt>
      <trkpt lat="43.53288" lon="6.14676">
        <ele>341.8</ele>
        <time>2025-06-08T08:49:18.000Z</time>
      </trkpt>
      <trkpt lat="43.53294" lon="6.14686">
        <ele>344.1</ele>
        <time>2025-06-08T08:49:32.000Z</time>
      </trkpt>
      <trkpt lat="43.53299" lon="6.14696">
        <ele>345.5</ele>
        <time>2025-06-08T08:49:46.000Z</time>
      </trkpt>
      <trkpt lat="43.53307" lon="6.14705">
        <ele>347.1</ele>
        <time>2025-06-08T08:50:01.000Z</time>
      </trkpt>
      <trkpt lat="43.53314" lon="6.14713">
        <ele>348.1</ele>
        <time>2025-06-08T08:50:15.000Z</time>
      </trkpt>
      <trkpt lat="43.53322" lon="6.1472">
        <ele>349.8</ele>
        <time>2025-06-08T08:50:29.000Z</time>
      </trkpt>
      <trkpt lat="43.53327" lon="6.14731">
        <ele>351.1</ele>
        <time>2025-06-08T08:50:43.000Z</time>
      </trkpt>
      <trkpt lat="43.53332" lon="6.14742">
        <ele>352.6</ele>
        <time>2025-06-08T08:50:53.000Z</time>
      </trkpt>
      <trkpt lat="43.53338" lon="6.14752">
        <ele>353.2</ele>
        <time>2025-06-08T08:51:04.000Z</time>
      </trkpt>
      <trkpt lat="43.53341" lon="6.14764">
        <ele>353.8</ele>
        <time>2025-06-08T08:51:15.000Z</time>
      </trkpt>
      <trkpt lat="43.53348" lon="6.14773">
        <ele>354.5</ele>
        <time>2025-06-08T08:51:26.000Z</time>
      </trkpt>
      <trkpt lat="43.53352" lon="6.14777">
        <ele>354.6</ele>
        <time>2025-06-08T08:51:38.000Z</time>
      </trkpt>
      <trkpt lat="43.53352" lon="6.14777">
        <ele>354.6</ele>
        <time>2025-06-08T08:51:39.000Z</time>
      </trkpt>
      <trkpt lat="43.53352" lon="6.14777">
        <ele>354.7</ele>
        <time>2025-06-08T08:51:40.000Z</time>
      </trkpt>
      <trkpt lat="43.53352" lon="6.14776">
        <ele>355.3</ele>
        <time>2025-06-08T08:52:06.000Z</time>
      </trkpt>
      <trkpt lat="43.53352" lon="6.14776">
        <ele>355.3</ele>
        <time>2025-06-08T08:52:07.000Z</time>
      </trkpt>
      <trkpt lat="43.53352" lon="6.14776">
        <ele>355.3</ele>
        <time>2025-06-08T08:52:08.000Z</time>
      </trkpt>
      <trkpt lat="43.53352" lon="6.14776">
        <ele>355.2</ele>
        <time>2025-06-08T08:52:09.000Z</time>
      </trkpt>
      <trkpt lat="43.53352" lon="6.14776">
        <ele>355.2</ele>
        <time>2025-06-08T08:52:10.000Z</time>
      </trkpt>
      <trkpt lat="43.53352" lon="6.14776">
        <ele>355.3</ele>
        <time>2025-06-08T08:52:29.000Z</time>
      </trkpt>
      <trkpt lat="43.53352" lon="6.14776">
        <ele>355.3</ele>
        <time>2025-06-08T08:52:30.000Z</time>
      </trkpt>
      <trkpt lat="43.53352" lon="6.14776">
        <ele>355.3</ele>
        <time>2025-06-08T08:52:31.000Z</time>
      </trkpt>
      <trkpt lat="43.53352" lon="6.14776">
        <ele>355.2</ele>
        <time>2025-06-08T08:52:34.000Z</time>
      </trkpt>
      <trkpt lat="43.53352" lon="6.14776">
        <ele>355.2</ele>
        <time>2025-06-08T08:52:35.000Z</time>
      </trkpt>
      <trkpt lat="43.53352" lon="6.14776">
        <ele>355.2</ele>
        <time>2025-06-08T08:52:36.000Z</time>
      </trkpt>
      <trkpt lat="43.53353" lon="6.14776">
        <ele>355.2</ele>
        <time>2025-06-08T08:52:37.000Z</time>
      </trkpt>
      <trkpt lat="43.53362" lon="6.14775">
        <ele>355</ele>
        <time>2025-06-08T08:52:49.000Z</time>
      </trkpt>
      <trkpt lat="43.53372" lon="6.14773">
        <ele>355.4</ele>
        <time>2025-06-08T08:53:02.000Z</time>
      </trkpt>
      <trkpt lat="43.53381" lon="6.14774">
        <ele>357</ele>
        <time>2025-06-08T08:53:14.000Z</time>
      </trkpt>
      <trkpt lat="43.53389" lon="6.14781">
        <ele>358.9</ele>
        <time>2025-06-08T08:53:27.000Z</time>
      </trkpt>
      <trkpt lat="43.53396" lon="6.1479">
        <ele>360.3</ele>
        <time>2025-06-08T08:53:40.000Z</time>
      </trkpt>
      <trkpt lat="43.53402" lon="6.14801">
        <ele>361.1</ele>
        <time>2025-06-08T08:53:53.000Z</time>
      </trkpt>
      <trkpt lat="43.53408" lon="6.14811">
        <ele>362</ele>
        <time>2025-06-08T08:54:10.000Z</time>
      </trkpt>
      <trkpt lat="43.53415" lon="6.14819">
        <ele>363</ele>
        <time>2025-06-08T08:54:20.000Z</time>
      </trkpt>
      <trkpt lat="43.53423" lon="6.14828">
        <ele>363.6</ele>
        <time>2025-06-08T08:54:30.000Z</time>
      </trkpt>
      <trkpt lat="43.53428" lon="6.14838">
        <ele>364</ele>
        <time>2025-06-08T08:54:40.000Z</time>
      </trkpt>
      <trkpt lat="43.53437" lon="6.14843">
        <ele>364.4</ele>
        <time>2025-06-08T08:54:49.000Z</time>
      </trkpt>
      <trkpt lat="43.53445" lon="6.14837">
        <ele>364.4</ele>
        <time>2025-06-08T08:54:57.000Z</time>
      </trkpt>
      <trkpt lat="43.53453" lon="6.14828">
        <ele>364.5</ele>
        <time>2025-06-08T08:55:05.000Z</time>
      </trkpt>
      <trkpt lat="43.53461" lon="6.14821">
        <ele>364.5</ele>
        <time>2025-06-08T08:55:16.000Z</time>
      </trkpt>
      <trkpt lat="43.53469" lon="6.14814">
        <ele>364.9</ele>
        <time>2025-06-08T08:55:26.000Z</time>
      </trkpt>
      <trkpt lat="43.53474" lon="6.14802">
        <ele>365.9</ele>
        <time>2025-06-08T08:55:37.000Z</time>
      </trkpt>
      <trkpt lat="43.53482" lon="6.14793">
        <ele>365.8</ele>
        <time>2025-06-08T08:55:47.000Z</time>
      </trkpt>
      <trkpt lat="43.53491" lon="6.14791">
        <ele>366.9</ele>
        <time>2025-06-08T08:56:05.000Z</time>
      </trkpt>
      <trkpt lat="43.535" lon="6.14796">
        <ele>367.3</ele>
        <time>2025-06-08T08:56:16.000Z</time>
      </trkpt>
      <trkpt lat="43.53507" lon="6.14802">
        <ele>367.5</ele>
        <time>2025-06-08T08:56:26.000Z</time>
      </trkpt>
      <trkpt lat="43.53508" lon="6.14802">
        <ele>367.6</ele>
        <time>2025-06-08T08:56:29.000Z</time>
      </trkpt>
      <trkpt lat="43.53508" lon="6.14802">
        <ele>367.6</ele>
        <time>2025-06-08T08:56:30.000Z</time>
      </trkpt>
      <trkpt lat="43.53508" lon="6.14803">
        <ele>367.6</ele>
        <time>2025-06-08T08:56:33.000Z</time>
      </trkpt>
      <trkpt lat="43.53508" lon="6.14804">
        <ele>367.6</ele>
        <time>2025-06-08T08:56:34.000Z</time>
      </trkpt>
      <trkpt lat="43.53509" lon="6.14804">
        <ele>367.6</ele>
        <time>2025-06-08T08:56:35.000Z</time>
      </trkpt>
      <trkpt lat="43.5351" lon="6.14804">
        <ele>367.5</ele>
        <time>2025-06-08T08:56:46.000Z</time>
      </trkpt>
      <trkpt lat="43.5351" lon="6.14803">
        <ele>367.5</ele>
        <time>2025-06-08T08:56:47.000Z</time>
      </trkpt>
      <trkpt lat="43.5351" lon="6.14802">
        <ele>367.1</ele>
        <time>2025-06-08T08:57:23.000Z</time>
      </trkpt>
      <trkpt lat="43.53511" lon="6.14802">
        <ele>367.1</ele>
        <time>2025-06-08T08:57:24.000Z</time>
      </trkpt>
      <trkpt lat="43.53511" lon="6.14802">
        <ele>367.1</ele>
        <time>2025-06-08T08:57:25.000Z</time>
      </trkpt>
      <trkpt lat="43.5352" lon="6.14799">
        <ele>366.3</ele>
        <time>2025-06-08T08:57:42.000Z</time>
      </trkpt>
      <trkpt lat="43.53529" lon="6.14797">
        <ele>365.2</ele>
        <time>2025-06-08T08:57:54.000Z</time>
      </trkpt>
      <trkpt lat="43.53538" lon="6.14794">
        <ele>363.9</ele>
        <time>2025-06-08T08:58:05.000Z</time>
      </trkpt>
      <trkpt lat="43.53546" lon="6.14788">
        <ele>362.8</ele>
        <time>2025-06-08T08:58:18.000Z</time>
      </trkpt>
      <trkpt lat="43.53555" lon="6.14785">
        <ele>361.7</ele>
        <time>2025-06-08T08:58:31.000Z</time>
      </trkpt>
      <trkpt lat="43.53564" lon="6.14782">
        <ele>360.5</ele>
        <time>2025-06-08T08:58:43.000Z</time>
      </trkpt>
      <trkpt lat="43.5357" lon="6.14779">
        <ele>359.5</ele>
        <time>2025-06-08T08:58:56.000Z</time>
      </trkpt>
      <trkpt lat="43.5357" lon="6.14779">
        <ele>359.4</ele>
        <time>2025-06-08T08:58:57.000Z</time>
      </trkpt>
      <trkpt lat="43.5357" lon="6.14779">
        <ele>359.4</ele>
        <time>2025-06-08T08:58:58.000Z</time>
      </trkpt>
      <trkpt lat="43.53571" lon="6.14779">
        <ele>359.3</ele>
        <time>2025-06-08T08:58:59.000Z</time>
      </trkpt>
      <trkpt lat="43.53571" lon="6.14778">
        <ele>359.2</ele>
        <time>2025-06-08T08:59:00.000Z</time>
      </trkpt>
      <trkpt lat="43.5358" lon="6.14774">
        <ele>358</ele>
        <time>2025-06-08T08:59:15.000Z</time>
      </trkpt>
      <trkpt lat="43.53588" lon="6.14768">
        <ele>356</ele>
        <time>2025-06-08T08:59:32.000Z</time>
      </trkpt>
      <trkpt lat="43.53595" lon="6.14759">
        <ele>354.7</ele>
        <time>2025-06-08T08:59:54.000Z</time>
      </trkpt>
      <trkpt lat="43.53603" lon="6.14752">
        <ele>352.6</ele>
        <time>2025-06-08T09:00:10.000Z</time>
      </trkpt>
      <trkpt lat="43.53609" lon="6.14743">
        <ele>351.3</ele>
        <time>2025-06-08T09:00:25.000Z</time>
      </trkpt>
      <trkpt lat="43.53617" lon="6.14736">
        <ele>350.6</ele>
        <time>2025-06-08T09:00:37.000Z</time>
      </trkpt>
      <trkpt lat="43.53624" lon="6.14727">
        <ele>348.6</ele>
        <time>2025-06-08T09:00:50.000Z</time>
      </trkpt>
      <trkpt lat="43.53631" lon="6.14719">
        <ele>347.5</ele>
        <time>2025-06-08T09:01:01.000Z</time>
      </trkpt>
      <trkpt lat="43.53638" lon="6.1471">
        <ele>345.5</ele>
        <time>2025-06-08T09:01:14.000Z</time>
      </trkpt>
      <trkpt lat="43.53645" lon="6.14702">
        <ele>344.8</ele>
        <time>2025-06-08T09:01:25.000Z</time>
      </trkpt>
      <trkpt lat="43.53653" lon="6.14696">
        <ele>342.8</ele>
        <time>2025-06-08T09:01:41.000Z</time>
      </trkpt>
      <trkpt lat="43.53663" lon="6.14694">
        <ele>341.2</ele>
        <time>2025-06-08T09:01:56.000Z</time>
      </trkpt>
      <trkpt lat="43.53672" lon="6.14698">
        <ele>339</ele>
        <time>2025-06-08T09:02:16.000Z</time>
      </trkpt>
      <trkpt lat="43.5368" lon="6.14703">
        <ele>337.8</ele>
        <time>2025-06-08T09:02:27.000Z</time>
      </trkpt>
      <trkpt lat="43.53687" lon="6.14711">
        <ele>337.6</ele>
        <time>2025-06-08T09:02:37.000Z</time>
      </trkpt>
      <trkpt lat="43.5369" lon="6.14723">
        <ele>337</ele>
        <time>2025-06-08T09:02:49.000Z</time>
      </trkpt>
      <trkpt lat="43.53699" lon="6.14726">
        <ele>335.4</ele>
        <time>2025-06-08T09:03:06.000Z</time>
      </trkpt>
      <trkpt lat="43.53705" lon="6.14715">
        <ele>334.7</ele>
        <time>2025-06-08T09:03:15.000Z</time>
      </trkpt>
      <trkpt lat="43.53711" lon="6.14707">
        <ele>333.9</ele>
        <time>2025-06-08T09:03:29.000Z</time>
      </trkpt>
      <trkpt lat="43.53711" lon="6.14706">
        <ele>333.9</ele>
        <time>2025-06-08T09:03:30.000Z</time>
      </trkpt>
      <trkpt lat="43.53711" lon="6.14706">
        <ele>333.9</ele>
        <time>2025-06-08T09:03:31.000Z</time>
      </trkpt>
      <trkpt lat="43.53711" lon="6.14706">
        <ele>333.9</ele>
        <time>2025-06-08T09:03:32.000Z</time>
      </trkpt>
      <trkpt lat="43.53711" lon="6.14706">
        <ele>333.8</ele>
        <time>2025-06-08T09:03:33.000Z</time>
      </trkpt>
      <trkpt lat="43.53711" lon="6.14706">
        <ele>333.8</ele>
        <time>2025-06-08T09:03:34.000Z</time>
      </trkpt>
      <trkpt lat="43.53711" lon="6.14706">
        <ele>333.8</ele>
        <time>2025-06-08T09:03:35.000Z</time>
      </trkpt>
      <trkpt lat="43.53711" lon="6.14706">
        <ele>333.7</ele>
        <time>2025-06-08T09:03:36.000Z</time>
      </trkpt>
      <trkpt lat="43.53711" lon="6.14706">
        <ele>333.6</ele>
        <time>2025-06-08T09:03:39.000Z</time>
      </trkpt>
      <trkpt lat="43.53712" lon="6.14706">
        <ele>333.6</ele>
        <time>2025-06-08T09:03:40.000Z</time>
      </trkpt>
      <trkpt lat="43.5372" lon="6.14713">
        <ele>332.9</ele>
        <time>2025-06-08T09:04:07.000Z</time>
      </trkpt>
      <trkpt lat="43.53724" lon="6.14725">
        <ele>332.7</ele>
        <time>2025-06-08T09:04:16.000Z</time>
      </trkpt>
      <trkpt lat="43.53732" lon="6.14734">
        <ele>332.3</ele>
        <time>2025-06-08T09:04:28.000Z</time>
      </trkpt>
      <trkpt lat="43.53739" lon="6.14742">
        <ele>332.1</ele>
        <time>2025-06-08T09:04:37.000Z</time>
      </trkpt>
      <trkpt lat="43.53747" lon="6.14749">
        <ele>331.7</ele>
        <time>2025-06-08T09:04:47.000Z</time>
      </trkpt>
      <trkpt lat="43.53756" lon="6.14752">
        <ele>331</ele>
        <time>2025-06-08T09:05:01.000Z</time>
      </trkpt>
      <trkpt lat="43.53766" lon="6.14752">
        <ele>330.8</ele>
        <time>2025-06-08T09:05:12.000Z</time>
      </trkpt>
      <trkpt lat="43.53775" lon="6.14748">
        <ele>330.7</ele>
        <time>2025-06-08T09:05:21.000Z</time>
      </trkpt>
      <trkpt lat="43.53784" lon="6.14747">
        <ele>330.5</ele>
        <time>2025-06-08T09:05:29.000Z</time>
      </trkpt>
      <trkpt lat="43.53793" lon="6.14742">
        <ele>330.5</ele>
        <time>2025-06-08T09:05:39.000Z</time>
      </trkpt>
      <trkpt lat="43.53801" lon="6.14739">
        <ele>330.5</ele>
        <time>2025-06-08T09:05:48.000Z</time>
      </trkpt>
      <trkpt lat="43.53809" lon="6.14732">
        <ele>330.5</ele>
        <time>2025-06-08T09:05:57.000Z</time>
      </trkpt>
      <trkpt lat="43.53818" lon="6.14728">
        <ele>330.4</ele>
        <time>2025-06-08T09:06:08.000Z</time>
      </trkpt>
      <trkpt lat="43.5382" lon="6.14727">
        <ele>330.4</ele>
        <time>2025-06-08T09:06:13.000Z</time>
      </trkpt>
      <trkpt lat="43.5382" lon="6.14727">
        <ele>330.3</ele>
        <time>2025-06-08T09:06:14.000Z</time>
      </trkpt>
      <trkpt lat="43.5382" lon="6.14727">
        <ele>330.3</ele>
        <time>2025-06-08T09:06:15.000Z</time>
      </trkpt>
      <trkpt lat="43.5382" lon="6.14726">
        <ele>330.1</ele>
        <time>2025-06-08T09:06:23.000Z</time>
      </trkpt>
      <trkpt lat="43.5382" lon="6.14726">
        <ele>330.1</ele>
        <time>2025-06-08T09:06:24.000Z</time>
      </trkpt>
      <trkpt lat="43.5382" lon="6.14726">
        <ele>330</ele>
        <time>2025-06-08T09:06:25.000Z</time>
      </trkpt>
      <trkpt lat="43.5382" lon="6.14726">
        <ele>330</ele>
        <time>2025-06-08T09:06:26.000Z</time>
      </trkpt>
      <trkpt lat="43.5382" lon="6.14726">
        <ele>330</ele>
        <time>2025-06-08T09:06:27.000Z</time>
      </trkpt>
      <trkpt lat="43.5382" lon="6.14726">
        <ele>329.9</ele>
        <time>2025-06-08T09:06:28.000Z</time>
      </trkpt>
      <trkpt lat="43.5382" lon="6.14726">
        <ele>330</ele>
        <time>2025-06-08T09:06:29.000Z</time>
      </trkpt>
      <trkpt lat="43.5382" lon="6.14726">
        <ele>330</ele>
        <time>2025-06-08T09:06:30.000Z</time>
      </trkpt>
      <trkpt lat="43.5382" lon="6.14726">
        <ele>330</ele>
        <time>2025-06-08T09:06:31.000Z</time>
      </trkpt>
      <trkpt lat="43.5382" lon="6.14726">
        <ele>330</ele>
        <time>2025-06-08T09:06:34.000Z</time>
      </trkpt>
      <trkpt lat="43.5382" lon="6.14726">
        <ele>330</ele>
        <time>2025-06-08T09:06:35.000Z</time>
      </trkpt>
      <trkpt lat="43.5382" lon="6.14726">
        <ele>330.1</ele>
        <time>2025-06-08T09:06:57.000Z</time>
      </trkpt>
      <trkpt lat="43.53821" lon="6.14726">
        <ele>330.1</ele>
        <time>2025-06-08T09:06:58.000Z</time>
      </trkpt>
      <trkpt lat="43.5383" lon="6.14722">
        <ele>330.3</ele>
        <time>2025-06-08T09:07:07.000Z</time>
      </trkpt>
      <trkpt lat="43.5384" lon="6.1472">
        <ele>330.5</ele>
        <time>2025-06-08T09:07:16.000Z</time>
      </trkpt>
      <trkpt lat="43.53849" lon="6.14718">
        <ele>330.8</ele>
        <time>2025-06-08T09:07:25.000Z</time>
      </trkpt>
      <trkpt lat="43.53859" lon="6.14717">
        <ele>331.2</ele>
        <time>2025-06-08T09:07:34.000Z</time>
      </trkpt>
      <trkpt lat="43.53868" lon="6.14713">
        <ele>331.5</ele>
        <time>2025-06-08T09:07:42.000Z</time>
      </trkpt>
      <trkpt lat="43.53877" lon="6.14719">
        <ele>331.6</ele>
        <time>2025-06-08T09:07:53.000Z</time>
      </trkpt>
      <trkpt lat="43.53887" lon="6.14723">
        <ele>331.9</ele>
        <time>2025-06-08T09:08:02.000Z</time>
      </trkpt>
      <trkpt lat="43.53895" lon="6.14728">
        <ele>332.3</ele>
        <time>2025-06-08T09:08:11.000Z</time>
      </trkpt>
      <trkpt lat="43.53904" lon="6.14734">
        <ele>332.6</ele>
        <time>2025-06-08T09:08:20.000Z</time>
      </trkpt>
      <trkpt lat="43.53912" lon="6.14742">
        <ele>333</ele>
        <time>2025-06-08T09:08:29.000Z</time>
      </trkpt>
      <trkpt lat="43.53917" lon="6.14752">
        <ele>333.4</ele>
        <time>2025-06-08T09:08:37.000Z</time>
      </trkpt>
      <trkpt lat="43.53924" lon="6.1476">
        <ele>333.9</ele>
        <time>2025-06-08T09:08:46.000Z</time>
      </trkpt>
      <trkpt lat="43.53931" lon="6.14767">
        <ele>333.7</ele>
        <time>2025-06-08T09:08:54.000Z</time>
      </trkpt>
      <trkpt lat="43.53939" lon="6.14775">
        <ele>332.9</ele>
        <time>2025-06-08T09:09:02.000Z</time>
      </trkpt>
      <trkpt lat="43.53947" lon="6.14782">
        <ele>331.7</ele>
        <time>2025-06-08T09:09:10.000Z</time>
      </trkpt>
      <trkpt lat="43.53953" lon="6.14791">
        <ele>331.3</ele>
        <time>2025-06-08T09:09:18.000Z</time>
      </trkpt>
      <trkpt lat="43.53959" lon="6.14796">
        <ele>331.9</ele>
        <time>2025-06-08T09:09:28.000Z</time>
      </trkpt>
      <trkpt lat="43.53959" lon="6.14796">
        <ele>332</ele>
        <time>2025-06-08T09:09:29.000Z</time>
      </trkpt>
      <trkpt lat="43.5396" lon="6.14795">
        <ele>332</ele>
        <time>2025-06-08T09:09:30.000Z</time>
      </trkpt>
      <trkpt lat="43.53961" lon="6.14795">
        <ele>332.1</ele>
        <time>2025-06-08T09:09:31.000Z</time>
      </trkpt>
      <trkpt lat="43.53961" lon="6.14795">
        <ele>332.1</ele>
        <time>2025-06-08T09:09:32.000Z</time>
      </trkpt>
      <trkpt lat="43.53962" lon="6.14795">
        <ele>332.2</ele>
        <time>2025-06-08T09:09:33.000Z</time>
      </trkpt>
      <trkpt lat="43.53962" lon="6.14795">
        <ele>332.3</ele>
        <time>2025-06-08T09:09:34.000Z</time>
      </trkpt>
      <trkpt lat="43.53962" lon="6.14795">
        <ele>332.4</ele>
        <time>2025-06-08T09:09:35.000Z</time>
      </trkpt>
      <trkpt lat="43.53962" lon="6.14795">
        <ele>332.4</ele>
        <time>2025-06-08T09:09:36.000Z</time>
      </trkpt>
      <trkpt lat="43.53962" lon="6.14794">
        <ele>332.4</ele>
        <time>2025-06-08T09:09:37.000Z</time>
      </trkpt>
      <trkpt lat="43.53962" lon="6.14793">
        <ele>332.4</ele>
        <time>2025-06-08T09:09:38.000Z</time>
      </trkpt>
      <trkpt lat="43.53963" lon="6.14792">
        <ele>332.2</ele>
        <time>2025-06-08T09:09:43.000Z</time>
      </trkpt>
      <trkpt lat="43.53963" lon="6.14791">
        <ele>332.2</ele>
        <time>2025-06-08T09:09:44.000Z</time>
      </trkpt>
      <trkpt lat="43.53963" lon="6.14791">
        <ele>332.2</ele>
        <time>2025-06-08T09:09:45.000Z</time>
      </trkpt>
      <trkpt lat="43.53963" lon="6.14791">
        <ele>332.1</ele>
        <time>2025-06-08T09:09:56.000Z</time>
      </trkpt>
      <trkpt lat="43.53963" lon="6.14791">
        <ele>332</ele>
        <time>2025-06-08T09:09:57.000Z</time>
      </trkpt>
      <trkpt lat="43.53963" lon="6.14791">
        <ele>331.9</ele>
        <time>2025-06-08T09:09:58.000Z</time>
      </trkpt>
      <trkpt lat="43.53963" lon="6.14791">
        <ele>331.8</ele>
        <time>2025-06-08T09:09:59.000Z</time>
      </trkpt>
      <trkpt lat="43.53963" lon="6.14791">
        <ele>331.8</ele>
        <time>2025-06-08T09:10:00.000Z</time>
      </trkpt>
      <trkpt lat="43.53963" lon="6.14792">
        <ele>332</ele>
        <time>2025-06-08T09:10:04.000Z</time>
      </trkpt>
      <trkpt lat="43.53963" lon="6.14793">
        <ele>331.9</ele>
        <time>2025-06-08T09:10:05.000Z</time>
      </trkpt>
      <trkpt lat="43.5397" lon="6.14803">
        <ele>331.8</ele>
        <time>2025-06-08T09:10:14.000Z</time>
      </trkpt>
      <trkpt lat="43.53972" lon="6.14803">
        <ele>331.7</ele>
        <time>2025-06-08T09:10:21.000Z</time>
      </trkpt>
      <trkpt lat="43.53972" lon="6.14803">
        <ele>331.7</ele>
        <time>2025-06-08T09:10:22.000Z</time>
      </trkpt>
      <trkpt lat="43.53973" lon="6.14804">
        <ele>331.8</ele>
        <time>2025-06-08T09:10:51.000Z</time>
      </trkpt>
      <trkpt lat="43.53973" lon="6.14804">
        <ele>331.8</ele>
        <time>2025-06-08T09:10:52.000Z</time>
      </trkpt>
      <trkpt lat="43.53983" lon="6.14798">
        <ele>331.4</ele>
        <time>2025-06-08T09:11:01.000Z</time>
      </trkpt>
      <trkpt lat="43.53992" lon="6.14794">
        <ele>330.5</ele>
        <time>2025-06-08T09:11:10.000Z</time>
      </trkpt>
      <trkpt lat="43.54" lon="6.14787">
        <ele>329.6</ele>
        <time>2025-06-08T09:11:18.000Z</time>
      </trkpt>
      <trkpt lat="43.54009" lon="6.14782">
        <ele>329.3</ele>
        <time>2025-06-08T09:11:27.000Z</time>
      </trkpt>
      <trkpt lat="43.54019" lon="6.14778">
        <ele>329.5</ele>
        <time>2025-06-08T09:11:35.000Z</time>
      </trkpt>
      <trkpt lat="43.54024" lon="6.14777">
        <ele>329.7</ele>
        <time>2025-06-08T09:11:47.000Z</time>
      </trkpt>
      <trkpt lat="43.54025" lon="6.14777">
        <ele>329.7</ele>
        <time>2025-06-08T09:11:48.000Z</time>
      </trkpt>
      <trkpt lat="43.54026" lon="6.14777">
        <ele>329.7</ele>
        <time>2025-06-08T09:11:49.000Z</time>
      </trkpt>
      <trkpt lat="43.54026" lon="6.14777">
        <ele>329.7</ele>
        <time>2025-06-08T09:11:50.000Z</time>
      </trkpt>
      <trkpt lat="43.54035" lon="6.14776">
        <ele>329.7</ele>
        <time>2025-06-08T09:12:01.000Z</time>
      </trkpt>
      <trkpt lat="43.54045" lon="6.14777">
        <ele>329.7</ele>
        <time>2025-06-08T09:12:12.000Z</time>
      </trkpt>
      <trkpt lat="43.54054" lon="6.14779">
        <ele>329.7</ele>
        <time>2025-06-08T09:12:22.000Z</time>
      </trkpt>
      <trkpt lat="43.54062" lon="6.14785">
        <ele>329.9</ele>
        <time>2025-06-08T09:12:34.000Z</time>
      </trkpt>
      <trkpt lat="43.54071" lon="6.1479">
        <ele>330</ele>
        <time>2025-06-08T09:12:44.000Z</time>
      </trkpt>
      <trkpt lat="43.54078" lon="6.14789">
        <ele>330.1</ele>
        <time>2025-06-08T09:12:54.000Z</time>
      </trkpt>
      <trkpt lat="43.54078" lon="6.14789">
        <ele>330.1</ele>
        <time>2025-06-08T09:12:55.000Z</time>
      </trkpt>
      <trkpt lat="43.54079" lon="6.14791">
        <ele>330.1</ele>
        <time>2025-06-08T09:12:59.000Z</time>
      </trkpt>
      <trkpt lat="43.5408" lon="6.14791">
        <ele>330.1</ele>
        <time>2025-06-08T09:13:00.000Z</time>
      </trkpt>
      <trkpt lat="43.54081" lon="6.14791">
        <ele>330.1</ele>
        <time>2025-06-08T09:13:01.000Z</time>
      </trkpt>
      <trkpt lat="43.5409" lon="6.14785">
        <ele>330.4</ele>
        <time>2025-06-08T09:13:10.000Z</time>
      </trkpt>
      <trkpt lat="43.541" lon="6.14787">
        <ele>330.7</ele>
        <time>2025-06-08T09:13:19.000Z</time>
      </trkpt>
      <trkpt lat="43.54107" lon="6.14795">
        <ele>330.7</ele>
        <time>2025-06-08T09:13:27.000Z</time>
      </trkpt>
      <trkpt lat="43.54116" lon="6.14798">
        <ele>330.7</ele>
        <time>2025-06-08T09:13:36.000Z</time>
      </trkpt>
      <trkpt lat="43.54126" lon="6.14801">
        <ele>330.6</ele>
        <time>2025-06-08T09:13:46.000Z</time>
      </trkpt>
      <trkpt lat="43.54135" lon="6.14804">
        <ele>330.5</ele>
        <time>2025-06-08T09:13:56.000Z</time>
      </trkpt>
      <trkpt lat="43.54145" lon="6.14809">
        <ele>330.5</ele>
        <time>2025-06-08T09:14:06.000Z</time>
      </trkpt>
      <trkpt lat="43.54153" lon="6.14812">
        <ele>330.5</ele>
        <time>2025-06-08T09:14:15.000Z</time>
      </trkpt>
      <trkpt lat="43.54163" lon="6.14815">
        <ele>330.5</ele>
        <time>2025-06-08T09:14:24.000Z</time>
      </trkpt>
      <trkpt lat="43.54172" lon="6.14817">
        <ele>330.7</ele>
        <time>2025-06-08T09:14:34.000Z</time>
      </trkpt>
      <trkpt lat="43.5418" lon="6.14822">
        <ele>330.7</ele>
        <time>2025-06-08T09:14:43.000Z</time>
      </trkpt>
      <trkpt lat="43.54183" lon="6.14821">
        <ele>330.7</ele>
        <time>2025-06-08T09:14:52.000Z</time>
      </trkpt>
      <trkpt lat="43.54182" lon="6.1482">
        <ele>330.7</ele>
        <time>2025-06-08T09:14:53.000Z</time>
      </trkpt>
      <trkpt lat="43.54182" lon="6.1482">
        <ele>330.7</ele>
        <time>2025-06-08T09:14:54.000Z</time>
      </trkpt>
      <trkpt lat="43.54182" lon="6.14819">
        <ele>330.7</ele>
        <time>2025-06-08T09:14:55.000Z</time>
      </trkpt>
      <trkpt lat="43.54172" lon="6.14814">
        <ele>330.6</ele>
        <time>2025-06-08T09:15:07.000Z</time>
      </trkpt>
      <trkpt lat="43.54171" lon="6.14812">
        <ele>330.6</ele>
        <time>2025-06-08T09:15:14.000Z</time>
      </trkpt>
      <trkpt lat="43.54171" lon="6.14812">
        <ele>330.6</ele>
        <time>2025-06-08T09:15:15.000Z</time>
      </trkpt>
      <trkpt lat="43.54171" lon="6.14812">
        <ele>330.6</ele>
        <time>2025-06-08T09:15:16.000Z</time>
      </trkpt>
      <trkpt lat="43.54171" lon="6.14813">
        <ele>330.6</ele>
        <time>2025-06-08T09:15:19.000Z</time>
      </trkpt>
      <trkpt lat="43.54172" lon="6.14814">
        <ele>330.6</ele>
        <time>2025-06-08T09:15:20.000Z</time>
      </trkpt>
      <trkpt lat="43.5418" lon="6.1482">
        <ele>330.9</ele>
        <time>2025-06-08T09:15:28.000Z</time>
      </trkpt>
      <trkpt lat="43.54189" lon="6.14825">
        <ele>331</ele>
        <time>2025-06-08T09:15:36.000Z</time>
      </trkpt>
      <trkpt lat="43.54199" lon="6.14829">
        <ele>331</ele>
        <time>2025-06-08T09:15:44.000Z</time>
      </trkpt>
      <trkpt lat="43.54208" lon="6.14834">
        <ele>330.8</ele>
        <time>2025-06-08T09:15:52.000Z</time>
      </trkpt>
      <trkpt lat="43.54217" lon="6.14839">
        <ele>330.9</ele>
        <time>2025-06-08T09:16:01.000Z</time>
      </trkpt>
      <trkpt lat="43.54226" lon="6.14842">
        <ele>331.1</ele>
        <time>2025-06-08T09:16:10.000Z</time>
      </trkpt>
      <trkpt lat="43.54234" lon="6.14845">
        <ele>331.2</ele>
        <time>2025-06-08T09:16:21.000Z</time>
      </trkpt>
      <trkpt lat="43.54234" lon="6.14845">
        <ele>331.2</ele>
        <time>2025-06-08T09:16:22.000Z</time>
      </trkpt>
      <trkpt lat="43.54233" lon="6.14846">
        <ele>331.5</ele>
        <time>2025-06-08T09:16:47.000Z</time>
      </trkpt>
      <trkpt lat="43.54232" lon="6.14847">
        <ele>331.5</ele>
        <time>2025-06-08T09:16:48.000Z</time>
      </trkpt>
      <trkpt lat="43.54232" lon="6.14847">
        <ele>331.5</ele>
        <time>2025-06-08T09:16:49.000Z</time>
      </trkpt>
      <trkpt lat="43.54232" lon="6.14847">
        <ele>331.4</ele>
        <time>2025-06-08T09:16:50.000Z</time>
      </trkpt>
      <trkpt lat="43.54232" lon="6.14848">
        <ele>331.4</ele>
        <time>2025-06-08T09:17:28.000Z</time>
      </trkpt>
      <trkpt lat="43.54233" lon="6.14848">
        <ele>331.4</ele>
        <time>2025-06-08T09:17:29.000Z</time>
      </trkpt>
      <trkpt lat="43.54233" lon="6.14848">
        <ele>331.4</ele>
        <time>2025-06-08T09:17:30.000Z</time>
      </trkpt>
      <trkpt lat="43.54233" lon="6.14848">
        <ele>331.4</ele>
        <time>2025-06-08T09:17:31.000Z</time>
      </trkpt>
      <trkpt lat="43.54233" lon="6.14848">
        <ele>331.4</ele>
        <time>2025-06-08T09:17:32.000Z</time>
      </trkpt>
      <trkpt lat="43.54233" lon="6.14848">
        <ele>331.3</ele>
        <time>2025-06-08T09:17:51.000Z</time>
      </trkpt>
      <trkpt lat="43.54234" lon="6.14847">
        <ele>331.3</ele>
        <time>2025-06-08T09:17:52.000Z</time>
      </trkpt>
      <trkpt lat="43.54243" lon="6.14845">
        <ele>331.3</ele>
        <time>2025-06-08T09:18:01.000Z</time>
      </trkpt>
      <trkpt lat="43.54252" lon="6.14843">
        <ele>331.4</ele>
        <time>2025-06-08T09:18:09.000Z</time>
      </trkpt>
      <trkpt lat="43.5426" lon="6.14837">
        <ele>331.4</ele>
        <time>2025-06-08T09:18:19.000Z</time>
      </trkpt>
      <trkpt lat="43.54269" lon="6.1483">
        <ele>331.8</ele>
        <time>2025-06-08T09:18:27.000Z</time>
      </trkpt>
      <trkpt lat="43.54276" lon="6.14823">
        <ele>332.6</ele>
        <time>2025-06-08T09:18:35.000Z</time>
      </trkpt>
      <trkpt lat="43.54283" lon="6.14813">
        <ele>333.5</ele>
        <time>2025-06-08T09:18:45.000Z</time>
      </trkpt>
      <trkpt lat="43.5429" lon="6.14805">
        <ele>334</ele>
        <time>2025-06-08T09:18:53.000Z</time>
      </trkpt>
      <trkpt lat="43.54297" lon="6.14796">
        <ele>334.3</ele>
        <time>2025-06-08T09:19:02.000Z</time>
      </trkpt>
      <trkpt lat="43.54303" lon="6.14786">
        <ele>334.4</ele>
        <time>2025-06-08T09:19:11.000Z</time>
      </trkpt>
      <trkpt lat="43.5431" lon="6.14777">
        <ele>334.8</ele>
        <time>2025-06-08T09:19:20.000Z</time>
      </trkpt>
      <trkpt lat="43.54313" lon="6.1477">
        <ele>335.4</ele>
        <time>2025-06-08T09:19:29.000Z</time>
      </trkpt>
      <trkpt lat="43.54313" lon="6.1477">
        <ele>335.5</ele>
        <time>2025-06-08T09:19:30.000Z</time>
      </trkpt>
      <trkpt lat="43.54313" lon="6.1477">
        <ele>335.5</ele>
        <time>2025-06-08T09:19:31.000Z</time>
      </trkpt>
      <trkpt lat="43.54313" lon="6.1477">
        <ele>336.1</ele>
        <time>2025-06-08T09:20:01.000Z</time>
      </trkpt>
      <trkpt lat="43.54313" lon="6.14769">
        <ele>336.1</ele>
        <time>2025-06-08T09:20:02.000Z</time>
      </trkpt>
      <trkpt lat="43.54318" lon="6.14758">
        <ele>336.3</ele>
        <time>2025-06-08T09:20:11.000Z</time>
      </trkpt>
      <trkpt lat="43.54326" lon="6.14749">
        <ele>336.5</ele>
        <time>2025-06-08T09:20:19.000Z</time>
      </trkpt>
      <trkpt lat="43.54318" lon="6.14758">
        <ele>336.6</ele>
        <time>2025-06-08T09:20:36.000Z</time>
      </trkpt>
      <trkpt lat="43.54312" lon="6.14767">
        <ele>336.6</ele>
        <time>2025-06-08T09:20:42.000Z</time>
      </trkpt>
      <trkpt lat="43.54311" lon="6.14769">
        <ele>336.3</ele>
        <time>2025-06-08T09:20:49.000Z</time>
      </trkpt>
      <trkpt lat="43.54311" lon="6.14769">
        <ele>336.3</ele>
        <time>2025-06-08T09:20:50.000Z</time>
      </trkpt>
      <trkpt lat="43.54314" lon="6.14766">
        <ele>336.3</ele>
        <time>2025-06-08T09:20:56.000Z</time>
      </trkpt>
      <trkpt lat="43.54315" lon="6.14765">
        <ele>336.3</ele>
        <time>2025-06-08T09:20:57.000Z</time>
      </trkpt>
      <trkpt lat="43.54322" lon="6.14755">
        <ele>336.3</ele>
        <time>2025-06-08T09:21:04.000Z</time>
      </trkpt>
      <trkpt lat="43.54328" lon="6.14744">
        <ele>336.3</ele>
        <time>2025-06-08T09:21:11.000Z</time>
      </trkpt>
      <trkpt lat="43.54333" lon="6.14733">
        <ele>336.4</ele>
        <time>2025-06-08T09:21:18.000Z</time>
      </trkpt>
      <trkpt lat="43.54338" lon="6.14721">
        <ele>336.6</ele>
        <time>2025-06-08T09:21:25.000Z</time>
      </trkpt>
      <trkpt lat="43.54343" lon="6.1471">
        <ele>337</ele>
        <time>2025-06-08T09:21:30.000Z</time>
      </trkpt>
      <trkpt lat="43.54349" lon="6.14699">
        <ele>337.5</ele>
        <time>2025-06-08T09:21:35.000Z</time>
      </trkpt>
      <trkpt lat="43.54355" lon="6.14689">
        <ele>337.9</ele>
        <time>2025-06-08T09:21:40.000Z</time>
      </trkpt>
      <trkpt lat="43.54355" lon="6.14688">
        <ele>338</ele>
        <time>2025-06-08T09:21:48.000Z</time>
      </trkpt>
      <trkpt lat="43.54355" lon="6.14688">
        <ele>338</ele>
        <time>2025-06-08T09:21:49.000Z</time>
      </trkpt>
      <trkpt lat="43.54355" lon="6.14688">
        <ele>338</ele>
        <time>2025-06-08T09:21:50.000Z</time>
      </trkpt>
      <trkpt lat="43.54356" lon="6.14688">
        <ele>338</ele>
        <time>2025-06-08T09:21:53.000Z</time>
      </trkpt>
      <trkpt lat="43.54356" lon="6.14687">
        <ele>338</ele>
        <time>2025-06-08T09:21:54.000Z</time>
      </trkpt>
      <trkpt lat="43.54357" lon="6.14686">
        <ele>338</ele>
        <time>2025-06-08T09:21:55.000Z</time>
      </trkpt>
      <trkpt lat="43.54356" lon="6.14686">
        <ele>338.1</ele>
        <time>2025-06-08T09:22:07.000Z</time>
      </trkpt>
      <trkpt lat="43.54356" lon="6.14686">
        <ele>338.1</ele>
        <time>2025-06-08T09:22:08.000Z</time>
      </trkpt>
      <trkpt lat="43.54356" lon="6.14686">
        <ele>338.3</ele>
        <time>2025-06-08T09:22:18.000Z</time>
      </trkpt>
      <trkpt lat="43.54356" lon="6.14686">
        <ele>338.4</ele>
        <time>2025-06-08T09:22:19.000Z</time>
      </trkpt>
      <trkpt lat="43.54356" lon="6.14686">
        <ele>338.4</ele>
        <time>2025-06-08T09:22:20.000Z</time>
      </trkpt>
      <trkpt lat="43.54356" lon="6.14686">
        <ele>338.4</ele>
        <time>2025-06-08T09:22:21.000Z</time>
      </trkpt>
      <trkpt lat="43.54356" lon="6.14686">
        <ele>338.4</ele>
        <time>2025-06-08T09:22:22.000Z</time>
      </trkpt>
      <trkpt lat="43.54356" lon="6.14686">
        <ele>338.4</ele>
        <time>2025-06-08T09:22:23.000Z</time>
      </trkpt>
      <trkpt lat="43.54358" lon="6.14684">
        <ele>338.6</ele>
        <time>2025-06-08T09:22:41.000Z</time>
      </trkpt>
      <trkpt lat="43.54358" lon="6.14684">
        <ele>338.6</ele>
        <time>2025-06-08T09:22:42.000Z</time>
      </trkpt>
      <trkpt lat="43.54358" lon="6.14684">
        <ele>338.6</ele>
        <time>2025-06-08T09:22:43.000Z</time>
      </trkpt>
      <trkpt lat="43.54358" lon="6.14684">
        <ele>338.6</ele>
        <time>2025-06-08T09:22:44.000Z</time>
      </trkpt>
      <trkpt lat="43.54358" lon="6.14684">
        <ele>338.7</ele>
        <time>2025-06-08T09:22:45.000Z</time>
      </trkpt>
      <trkpt lat="43.54358" lon="6.14683">
        <ele>338.8</ele>
        <time>2025-06-08T09:24:02.000Z</time>
      </trkpt>
      <trkpt lat="43.54358" lon="6.14683">
        <ele>338.8</ele>
        <time>2025-06-08T09:24:03.000Z</time>
      </trkpt>
      <trkpt lat="43.54358" lon="6.14683">
        <ele>338.8</ele>
        <time>2025-06-08T09:24:04.000Z</time>
      </trkpt>
      <trkpt lat="43.54358" lon="6.14683">
        <ele>338.8</ele>
        <time>2025-06-08T09:24:05.000Z</time>
      </trkpt>
      <trkpt lat="43.54358" lon="6.14681">
        <ele>338.8</ele>
        <time>2025-06-08T09:24:23.000Z</time>
      </trkpt>
      <trkpt lat="43.54358" lon="6.1468">
        <ele>338.8</ele>
        <time>2025-06-08T09:24:24.000Z</time>
      </trkpt>
      <trkpt lat="43.54359" lon="6.14679">
        <ele>338.8</ele>
        <time>2025-06-08T09:24:25.000Z</time>
      </trkpt>
      <trkpt lat="43.5436" lon="6.14675">
        <ele>338.9</ele>
        <time>2025-06-08T09:24:37.000Z</time>
      </trkpt>
      <trkpt lat="43.5436" lon="6.14675">
        <ele>338.9</ele>
        <time>2025-06-08T09:24:38.000Z</time>
      </trkpt>
      <trkpt lat="43.5436" lon="6.14675">
        <ele>338.9</ele>
        <time>2025-06-08T09:24:39.000Z</time>
      </trkpt>
      <trkpt lat="43.54361" lon="6.14674">
        <ele>338.9</ele>
        <time>2025-06-08T09:24:40.000Z</time>
      </trkpt>
      <trkpt lat="43.54368" lon="6.14666">
        <ele>338.9</ele>
        <time>2025-06-08T09:24:50.000Z</time>
      </trkpt>
      <trkpt lat="43.54376" lon="6.14656">
        <ele>338.9</ele>
        <time>2025-06-08T09:25:00.000Z</time>
      </trkpt>
      <trkpt lat="43.54381" lon="6.14645">
        <ele>338.9</ele>
        <time>2025-06-08T09:25:10.000Z</time>
      </trkpt>
      <trkpt lat="43.54388" lon="6.14636">
        <ele>338.9</ele>
        <time>2025-06-08T09:25:20.000Z</time>
      </trkpt>
      <trkpt lat="43.54395" lon="6.14627">
        <ele>338.9</ele>
        <time>2025-06-08T09:25:29.000Z</time>
      </trkpt>
      <trkpt lat="43.54398" lon="6.14614">
        <ele>338.8</ele>
        <time>2025-06-08T09:25:40.000Z</time>
      </trkpt>
      <trkpt lat="43.54401" lon="6.14602">
        <ele>338.9</ele>
        <time>2025-06-08T09:25:51.000Z</time>
      </trkpt>
      <trkpt lat="43.54405" lon="6.1459">
        <ele>338.9</ele>
        <time>2025-06-08T09:26:05.000Z</time>
      </trkpt>
      <trkpt lat="43.54406" lon="6.14583">
        <ele>338.9</ele>
        <time>2025-06-08T09:26:14.000Z</time>
      </trkpt>
      <trkpt lat="43.54406" lon="6.14583">
        <ele>338.9</ele>
        <time>2025-06-08T09:26:15.000Z</time>
      </trkpt>
      <trkpt lat="43.54407" lon="6.14581">
        <ele>338.8</ele>
        <time>2025-06-08T09:26:18.000Z</time>
      </trkpt>
      <trkpt lat="43.54407" lon="6.14579">
        <ele>338.8</ele>
        <time>2025-06-08T09:26:19.000Z</time>
      </trkpt>
      <trkpt lat="43.54408" lon="6.14578">
        <ele>338.8</ele>
        <time>2025-06-08T09:26:20.000Z</time>
      </trkpt>
      <trkpt lat="43.5441" lon="6.14566">
        <ele>338.8</ele>
        <time>2025-06-08T09:26:28.000Z</time>
      </trkpt>
      <trkpt lat="43.54413" lon="6.14553">
        <ele>338.8</ele>
        <time>2025-06-08T09:26:36.000Z</time>
      </trkpt>
      <trkpt lat="43.54415" lon="6.1454">
        <ele>338.7</ele>
        <time>2025-06-08T09:26:45.000Z</time>
      </trkpt>
      <trkpt lat="43.54419" lon="6.14529">
        <ele>338.7</ele>
        <time>2025-06-08T09:26:56.000Z</time>
      </trkpt>
      <trkpt lat="43.54423" lon="6.14517">
        <ele>338.6</ele>
        <time>2025-06-08T09:27:06.000Z</time>
      </trkpt>
      <trkpt lat="43.54427" lon="6.14505">
        <ele>338.6</ele>
        <time>2025-06-08T09:27:15.000Z</time>
      </trkpt>
      <trkpt lat="43.54431" lon="6.14493">
        <ele>338.5</ele>
        <time>2025-06-08T09:27:28.000Z</time>
      </trkpt>
      <trkpt lat="43.54436" lon="6.14481">
        <ele>338.6</ele>
        <time>2025-06-08T09:27:37.000Z</time>
      </trkpt>
      <trkpt lat="43.54442" lon="6.14471">
        <ele>338.7</ele>
        <time>2025-06-08T09:27:45.000Z</time>
      </trkpt>
      <trkpt lat="43.54446" lon="6.14459">
        <ele>338.8</ele>
        <time>2025-06-08T09:27:56.000Z</time>
      </trkpt>
      <trkpt lat="43.54449" lon="6.14447">
        <ele>338.9</ele>
        <time>2025-06-08T09:28:09.000Z</time>
      </trkpt>
      <trkpt lat="43.54455" lon="6.14436">
        <ele>339.2</ele>
        <time>2025-06-08T09:28:18.000Z</time>
      </trkpt>
      <trkpt lat="43.5446" lon="6.14426">
        <ele>339.2</ele>
        <time>2025-06-08T09:28:28.000Z</time>
      </trkpt>
      <trkpt lat="43.54466" lon="6.14417">
        <ele>339.2</ele>
        <time>2025-06-08T09:28:38.000Z</time>
      </trkpt>
      <trkpt lat="43.54473" lon="6.14408">
        <ele>339.2</ele>
        <time>2025-06-08T09:28:47.000Z</time>
      </trkpt>
      <trkpt lat="43.54479" lon="6.14399">
        <ele>339.2</ele>
        <time>2025-06-08T09:28:56.000Z</time>
      </trkpt>
      <trkpt lat="43.54486" lon="6.14389">
        <ele>339.5</ele>
        <time>2025-06-08T09:29:07.000Z</time>
      </trkpt>
      <trkpt lat="43.54493" lon="6.1438">
        <ele>339.7</ele>
        <time>2025-06-08T09:29:16.000Z</time>
      </trkpt>
      <trkpt lat="43.54499" lon="6.14369">
        <ele>339.8</ele>
        <time>2025-06-08T09:29:26.000Z</time>
      </trkpt>
      <trkpt lat="43.54505" lon="6.14358">
        <ele>339.9</ele>
        <time>2025-06-08T09:29:38.000Z</time>
      </trkpt>
      <trkpt lat="43.54512" lon="6.14351">
        <ele>339.9</ele>
        <time>2025-06-08T09:29:50.000Z</time>
      </trkpt>
      <trkpt lat="43.54519" lon="6.14345">
        <ele>339.9</ele>
        <time>2025-06-08T09:30:06.000Z</time>
      </trkpt>
      <trkpt lat="43.54519" lon="6.14345">
        <ele>339.9</ele>
        <time>2025-06-08T09:30:07.000Z</time>
      </trkpt>
      <trkpt lat="43.54519" lon="6.14344">
        <ele>339.9</ele>
        <time>2025-06-08T09:30:08.000Z</time>
      </trkpt>
      <trkpt lat="43.54519" lon="6.14343">
        <ele>340.1</ele>
        <time>2025-06-08T09:30:12.000Z</time>
      </trkpt>
      <trkpt lat="43.54519" lon="6.14344">
        <ele>340.1</ele>
        <time>2025-06-08T09:30:13.000Z</time>
      </trkpt>
      <trkpt lat="43.54528" lon="6.1434">
        <ele>340.2</ele>
        <time>2025-06-08T09:30:20.000Z</time>
      </trkpt>
      <trkpt lat="43.54537" lon="6.14338">
        <ele>340.2</ele>
        <time>2025-06-08T09:30:27.000Z</time>
      </trkpt>
      <trkpt lat="43.54546" lon="6.14334">
        <ele>340.3</ele>
        <time>2025-06-08T09:30:34.000Z</time>
      </trkpt>
      <trkpt lat="43.54556" lon="6.14333">
        <ele>340.6</ele>
        <time>2025-06-08T09:30:42.000Z</time>
      </trkpt>
      <trkpt lat="43.54565" lon="6.14332">
        <ele>341</ele>
        <time>2025-06-08T09:30:54.000Z</time>
      </trkpt>
      <trkpt lat="43.54575" lon="6.14331">
        <ele>341</ele>
        <time>2025-06-08T09:31:03.000Z</time>
      </trkpt>
      <trkpt lat="43.54584" lon="6.14328">
        <ele>340.9</ele>
        <time>2025-06-08T09:31:11.000Z</time>
      </trkpt>
      <trkpt lat="43.54593" lon="6.14324">
        <ele>340.8</ele>
        <time>2025-06-08T09:31:20.000Z</time>
      </trkpt>
      <trkpt lat="43.54603" lon="6.14323">
        <ele>340.7</ele>
        <time>2025-06-08T09:31:29.000Z</time>
      </trkpt>
      <trkpt lat="43.54612" lon="6.1432">
        <ele>340.5</ele>
        <time>2025-06-08T09:31:41.000Z</time>
      </trkpt>
      <trkpt lat="43.54621" lon="6.1432">
        <ele>340.6</ele>
        <time>2025-06-08T09:31:50.000Z</time>
      </trkpt>
      <trkpt lat="43.54631" lon="6.14318">
        <ele>340.6</ele>
        <time>2025-06-08T09:32:00.000Z</time>
      </trkpt>
      <trkpt lat="43.54639" lon="6.14313">
        <ele>340.6</ele>
        <time>2025-06-08T09:32:09.000Z</time>
      </trkpt>
      <trkpt lat="43.54643" lon="6.14312">
        <ele>340.6</ele>
        <time>2025-06-08T09:32:16.000Z</time>
      </trkpt>
      <trkpt lat="43.54644" lon="6.14312">
        <ele>340.6</ele>
        <time>2025-06-08T09:32:17.000Z</time>
      </trkpt>
      <trkpt lat="43.54645" lon="6.14312">
        <ele>340.6</ele>
        <time>2025-06-08T09:32:18.000Z</time>
      </trkpt>
      <trkpt lat="43.54646" lon="6.14312">
        <ele>340.6</ele>
        <time>2025-06-08T09:32:19.000Z</time>
      </trkpt>
      <trkpt lat="43.54647" lon="6.14312">
        <ele>340.6</ele>
        <time>2025-06-08T09:32:20.000Z</time>
      </trkpt>
      <trkpt lat="43.54648" lon="6.1431">
        <ele>340.8</ele>
        <time>2025-06-08T09:32:31.000Z</time>
      </trkpt>
      <trkpt lat="43.54648" lon="6.14311">
        <ele>340.8</ele>
        <time>2025-06-08T09:32:32.000Z</time>
      </trkpt>
      <trkpt lat="43.54648" lon="6.1431">
        <ele>340.7</ele>
        <time>2025-06-08T09:32:33.000Z</time>
      </trkpt>
      <trkpt lat="43.54648" lon="6.1431">
        <ele>340.7</ele>
        <time>2025-06-08T09:32:34.000Z</time>
      </trkpt>
      <trkpt lat="43.54648" lon="6.1431">
        <ele>340.7</ele>
        <time>2025-06-08T09:32:35.000Z</time>
      </trkpt>
      <trkpt lat="43.54648" lon="6.1431">
        <ele>340.7</ele>
        <time>2025-06-08T09:32:36.000Z</time>
      </trkpt>
      <trkpt lat="43.54648" lon="6.1431">
        <ele>340.7</ele>
        <time>2025-06-08T09:32:37.000Z</time>
      </trkpt>
      <trkpt lat="43.54648" lon="6.1431">
        <ele>341.1</ele>
        <time>2025-06-08T09:32:48.000Z</time>
      </trkpt>
      <trkpt lat="43.54648" lon="6.1431">
        <ele>341.2</ele>
        <time>2025-06-08T09:32:49.000Z</time>
      </trkpt>
      <trkpt lat="43.54649" lon="6.1431">
        <ele>341.2</ele>
        <time>2025-06-08T09:32:50.000Z</time>
      </trkpt>
      <trkpt lat="43.54657" lon="6.14304">
        <ele>341.1</ele>
        <time>2025-06-08T09:33:04.000Z</time>
      </trkpt>
      <trkpt lat="43.54666" lon="6.14304">
        <ele>341.1</ele>
        <time>2025-06-08T09:33:15.000Z</time>
      </trkpt>
      <trkpt lat="43.54675" lon="6.14299">
        <ele>341.3</ele>
        <time>2025-06-08T09:33:24.000Z</time>
      </trkpt>
      <trkpt lat="43.54682" lon="6.14292">
        <ele>341.7</ele>
        <time>2025-06-08T09:33:44.000Z</time>
      </trkpt>
      <trkpt lat="43.54682" lon="6.14292">
        <ele>342.4</ele>
        <time>2025-06-08T09:33:45.000Z</time>
      </trkpt>
      <trkpt lat="43.54682" lon="6.14292">
        <ele>343.2</ele>
        <time>2025-06-08T09:33:46.000Z</time>
      </trkpt>
      <trkpt lat="43.54683" lon="6.14292">
        <ele>343.2</ele>
        <time>2025-06-08T09:33:47.000Z</time>
      </trkpt>
      <trkpt lat="43.54693" lon="6.14288">
        <ele>343.3</ele>
        <time>2025-06-08T09:33:55.000Z</time>
      </trkpt>
      <trkpt lat="43.547" lon="6.14281">
        <ele>343.7</ele>
        <time>2025-06-08T09:34:02.000Z</time>
      </trkpt>
      <trkpt lat="43.54708" lon="6.14273">
        <ele>344.2</ele>
        <time>2025-06-08T09:34:09.000Z</time>
      </trkpt>
      <trkpt lat="43.54715" lon="6.14264">
        <ele>344.8</ele>
        <time>2025-06-08T09:34:16.000Z</time>
      </trkpt>
      <trkpt lat="43.54723" lon="6.14258">
        <ele>345.6</ele>
        <time>2025-06-08T09:34:23.000Z</time>
      </trkpt>
      <trkpt lat="43.5473" lon="6.14249">
        <ele>346.6</ele>
        <time>2025-06-08T09:34:32.000Z</time>
      </trkpt>
      <trkpt lat="43.54739" lon="6.14243">
        <ele>347.3</ele>
        <time>2025-06-08T09:34:52.000Z</time>
      </trkpt>
      <trkpt lat="43.54743" lon="6.14243">
        <ele>347.5</ele>
        <time>2025-06-08T09:35:01.000Z</time>
      </trkpt>
      <trkpt lat="43.54743" lon="6.14243">
        <ele>347.6</ele>
        <time>2025-06-08T09:35:02.000Z</time>
      </trkpt>
      <trkpt lat="43.54744" lon="6.14242">
        <ele>347.6</ele>
        <time>2025-06-08T09:35:03.000Z</time>
      </trkpt>
      <trkpt lat="43.54744" lon="6.14242">
        <ele>347.6</ele>
        <time>2025-06-08T09:35:06.000Z</time>
      </trkpt>
      <trkpt lat="43.54745" lon="6.14242">
        <ele>347.6</ele>
        <time>2025-06-08T09:35:07.000Z</time>
      </trkpt>
      <trkpt lat="43.54746" lon="6.14242">
        <ele>347.6</ele>
        <time>2025-06-08T09:35:08.000Z</time>
      </trkpt>
      <trkpt lat="43.54751" lon="6.14236">
        <ele>348</ele>
        <time>2025-06-08T09:35:28.000Z</time>
      </trkpt>
      <trkpt lat="43.54751" lon="6.14236">
        <ele>348</ele>
        <time>2025-06-08T09:35:29.000Z</time>
      </trkpt>
      <trkpt lat="43.54751" lon="6.14236">
        <ele>348.1</ele>
        <time>2025-06-08T09:35:30.000Z</time>
      </trkpt>
      <trkpt lat="43.54752" lon="6.14237">
        <ele>348.4</ele>
        <time>2025-06-08T09:35:41.000Z</time>
      </trkpt>
      <trkpt lat="43.54752" lon="6.14238">
        <ele>348.4</ele>
        <time>2025-06-08T09:35:42.000Z</time>
      </trkpt>
      <trkpt lat="43.54753" lon="6.14239">
        <ele>348.6</ele>
        <time>2025-06-08T09:35:51.000Z</time>
      </trkpt>
      <trkpt lat="43.54753" lon="6.14239">
        <ele>348.6</ele>
        <time>2025-06-08T09:35:52.000Z</time>
      </trkpt>
      <trkpt lat="43.54754" lon="6.14235">
        <ele>348.6</ele>
        <time>2025-06-08T09:36:01.000Z</time>
      </trkpt>
      <trkpt lat="43.54755" lon="6.14234">
        <ele>348.7</ele>
        <time>2025-06-08T09:36:02.000Z</time>
      </trkpt>
      <trkpt lat="43.54755" lon="6.14234">
        <ele>348.7</ele>
        <time>2025-06-08T09:36:03.000Z</time>
      </trkpt>
      <trkpt lat="43.54755" lon="6.14234">
        <ele>348.8</ele>
        <time>2025-06-08T09:36:06.000Z</time>
      </trkpt>
      <trkpt lat="43.54755" lon="6.14234">
        <ele>348.8</ele>
        <time>2025-06-08T09:36:07.000Z</time>
      </trkpt>
      <trkpt lat="43.54755" lon="6.14234">
        <ele>348.8</ele>
        <time>2025-06-08T09:36:08.000Z</time>
      </trkpt>
      <trkpt lat="43.54755" lon="6.14235">
        <ele>348.8</ele>
        <time>2025-06-08T09:36:09.000Z</time>
      </trkpt>
      <trkpt lat="43.54756" lon="6.14234">
        <ele>348.8</ele>
        <time>2025-06-08T09:36:10.000Z</time>
      </trkpt>
      <trkpt lat="43.54765" lon="6.14233">
        <ele>348.9</ele>
        <time>2025-06-08T09:36:24.000Z</time>
      </trkpt>
      <trkpt lat="43.54765" lon="6.14232">
        <ele>348.9</ele>
        <time>2025-06-08T09:36:29.000Z</time>
      </trkpt>
      <trkpt lat="43.54765" lon="6.14232">
        <ele>348.9</ele>
        <time>2025-06-08T09:36:30.000Z</time>
      </trkpt>
      <trkpt lat="43.54765" lon="6.14233">
        <ele>348.9</ele>
        <time>2025-06-08T09:36:42.000Z</time>
      </trkpt>
      <trkpt lat="43.54765" lon="6.14233">
        <ele>348.9</ele>
        <time>2025-06-08T09:36:43.000Z</time>
      </trkpt>
      <trkpt lat="43.54765" lon="6.14233">
        <ele>348.9</ele>
        <time>2025-06-08T09:36:44.000Z</time>
      </trkpt>
      <trkpt lat="43.54765" lon="6.14233">
        <ele>348.9</ele>
        <time>2025-06-08T09:36:45.000Z</time>
      </trkpt>
      <trkpt lat="43.54765" lon="6.14233">
        <ele>348.9</ele>
        <time>2025-06-08T09:36:46.000Z</time>
      </trkpt>
      <trkpt lat="43.54765" lon="6.14233">
        <ele>348.9</ele>
        <time>2025-06-08T09:36:49.000Z</time>
      </trkpt>
      <trkpt lat="43.54765" lon="6.14233">
        <ele>348.9</ele>
        <time>2025-06-08T09:36:50.000Z</time>
      </trkpt>
      <trkpt lat="43.54765" lon="6.14233">
        <ele>349</ele>
        <time>2025-06-08T09:36:51.000Z</time>
      </trkpt>
      <trkpt lat="43.54765" lon="6.14233">
        <ele>349</ele>
        <time>2025-06-08T09:36:52.000Z</time>
      </trkpt>
      <trkpt lat="43.54766" lon="6.14233">
        <ele>349</ele>
        <time>2025-06-08T09:36:53.000Z</time>
      </trkpt>
      <trkpt lat="43.54766" lon="6.14233">
        <ele>349</ele>
        <time>2025-06-08T09:37:02.000Z</time>
      </trkpt>
      <trkpt lat="43.54767" lon="6.14232">
        <ele>349</ele>
        <time>2025-06-08T09:37:03.000Z</time>
      </trkpt>
      <trkpt lat="43.54775" lon="6.14226">
        <ele>349.1</ele>
        <time>2025-06-08T09:37:16.000Z</time>
      </trkpt>
      <trkpt lat="43.54784" lon="6.14223">
        <ele>349.3</ele>
        <time>2025-06-08T09:37:25.000Z</time>
      </trkpt>
      <trkpt lat="43.54792" lon="6.14218">
        <ele>349.6</ele>
        <time>2025-06-08T09:37:37.000Z</time>
      </trkpt>
      <trkpt lat="43.548" lon="6.14213">
        <ele>350.1</ele>
        <time>2025-06-08T09:37:47.000Z</time>
      </trkpt>
      <trkpt lat="43.54809" lon="6.14206">
        <ele>350.6</ele>
        <time>2025-06-08T09:37:58.000Z</time>
      </trkpt>
      <trkpt lat="43.54816" lon="6.14198">
        <ele>351.7</ele>
        <time>2025-06-08T09:38:10.000Z</time>
      </trkpt>
      <trkpt lat="43.54823" lon="6.14191">
        <ele>352.5</ele>
        <time>2025-06-08T09:38:22.000Z</time>
      </trkpt>
      <trkpt lat="43.54831" lon="6.14184">
        <ele>354</ele>
        <time>2025-06-08T09:38:35.000Z</time>
      </trkpt>
      <trkpt lat="43.54839" lon="6.14176">
        <ele>355.3</ele>
        <time>2025-06-08T09:38:45.000Z</time>
      </trkpt>
      <trkpt lat="43.54845" lon="6.14165">
        <ele>355.6</ele>
        <time>2025-06-08T09:38:55.000Z</time>
      </trkpt>
      <trkpt lat="43.54851" lon="6.14155">
        <ele>356.1</ele>
        <time>2025-06-08T09:39:06.000Z</time>
      </trkpt>
      <trkpt lat="43.54858" lon="6.14147">
        <ele>356.6</ele>
        <time>2025-06-08T09:39:17.000Z</time>
      </trkpt>
      <trkpt lat="43.54866" lon="6.14139">
        <ele>357.1</ele>
        <time>2025-06-08T09:39:28.000Z</time>
      </trkpt>
      <trkpt lat="43.54875" lon="6.14136">
        <ele>357.6</ele>
        <time>2025-06-08T09:39:40.000Z</time>
      </trkpt>
      <trkpt lat="43.54884" lon="6.14132">
        <ele>358.2</ele>
        <time>2025-06-08T09:39:52.000Z</time>
      </trkpt>
      <trkpt lat="43.54888" lon="6.1413">
        <ele>358.3</ele>
        <time>2025-06-08T09:40:01.000Z</time>
      </trkpt>
      <trkpt lat="43.54888" lon="6.1413">
        <ele>358.3</ele>
        <time>2025-06-08T09:40:02.000Z</time>
      </trkpt>
      <trkpt lat="43.54887" lon="6.14129">
        <ele>358.3</ele>
        <time>2025-06-08T09:40:03.000Z</time>
      </trkpt>
      <trkpt lat="43.54886" lon="6.1413">
        <ele>358.4</ele>
        <time>2025-06-08T09:40:07.000Z</time>
      </trkpt>
      <trkpt lat="43.54886" lon="6.1413">
        <ele>358.4</ele>
        <time>2025-06-08T09:40:08.000Z</time>
      </trkpt>
      <trkpt lat="43.54896" lon="6.14127">
        <ele>358.4</ele>
        <time>2025-06-08T09:40:18.000Z</time>
      </trkpt>
      <trkpt lat="43.54905" lon="6.14124">
        <ele>358.6</ele>
        <time>2025-06-08T09:40:27.000Z</time>
      </trkpt>
      <trkpt lat="43.54914" lon="6.14121">
        <ele>358.6</ele>
        <time>2025-06-08T09:40:36.000Z</time>
      </trkpt>
      <trkpt lat="43.54922" lon="6.14117">
        <ele>358.9</ele>
        <time>2025-06-08T09:40:47.000Z</time>
      </trkpt>
      <trkpt lat="43.54931" lon="6.14112">
        <ele>359.2</ele>
        <time>2025-06-08T09:40:57.000Z</time>
      </trkpt>
      <trkpt lat="43.54939" lon="6.14107">
        <ele>359.8</ele>
        <time>2025-06-08T09:41:09.000Z</time>
      </trkpt>
      <trkpt lat="43.54949" lon="6.14101">
        <ele>360.4</ele>
        <time>2025-06-08T09:41:22.000Z</time>
      </trkpt>
      <trkpt lat="43.54958" lon="6.14099">
        <ele>360.7</ele>
        <time>2025-06-08T09:41:33.000Z</time>
      </trkpt>
      <trkpt lat="43.54968" lon="6.14101">
        <ele>361</ele>
        <time>2025-06-08T09:41:46.000Z</time>
      </trkpt>
      <trkpt lat="43.54978" lon="6.14103">
        <ele>361.1</ele>
        <time>2025-06-08T09:41:57.000Z</time>
      </trkpt>
      <trkpt lat="43.54986" lon="6.14109">
        <ele>361.2</ele>
        <time>2025-06-08T09:42:10.000Z</time>
      </trkpt>
      <trkpt lat="43.54988" lon="6.1411">
        <ele>361.3</ele>
        <time>2025-06-08T09:42:19.000Z</time>
      </trkpt>
      <trkpt lat="43.54988" lon="6.1411">
        <ele>361.3</ele>
        <time>2025-06-08T09:42:20.000Z</time>
      </trkpt>
      <trkpt lat="43.54988" lon="6.1411">
        <ele>361.3</ele>
        <time>2025-06-08T09:42:21.000Z</time>
      </trkpt>
      <trkpt lat="43.54987" lon="6.14107">
        <ele>361.5</ele>
        <time>2025-06-08T09:43:43.000Z</time>
      </trkpt>
      <trkpt lat="43.54988" lon="6.14108">
        <ele>361.5</ele>
        <time>2025-06-08T09:43:44.000Z</time>
      </trkpt>
      <trkpt lat="43.54988" lon="6.14108">
        <ele>361.5</ele>
        <time>2025-06-08T09:43:45.000Z</time>
      </trkpt>
      <trkpt lat="43.54997" lon="6.1411">
        <ele>361.5</ele>
        <time>2025-06-08T09:43:58.000Z</time>
      </trkpt>
      <trkpt lat="43.55007" lon="6.14112">
        <ele>361.5</ele>
        <time>2025-06-08T09:44:14.000Z</time>
      </trkpt>
      <trkpt lat="43.55016" lon="6.14115">
        <ele>361.2</ele>
        <time>2025-06-08T09:44:25.000Z</time>
      </trkpt>
      <trkpt lat="43.55025" lon="6.14113">
        <ele>359.2</ele>
        <time>2025-06-08T09:44:42.000Z</time>
      </trkpt>
      <trkpt lat="43.55035" lon="6.14111">
        <ele>357.5</ele>
        <time>2025-06-08T09:44:54.000Z</time>
      </trkpt>
      <trkpt lat="43.55043" lon="6.14104">
        <ele>356.6</ele>
        <time>2025-06-08T09:45:08.000Z</time>
      </trkpt>
      <trkpt lat="43.55049" lon="6.14094">
        <ele>355.6</ele>
        <time>2025-06-08T09:45:19.000Z</time>
      </trkpt>
      <trkpt lat="43.55056" lon="6.14084">
        <ele>354.7</ele>
        <time>2025-06-08T09:45:29.000Z</time>
      </trkpt>
      <trkpt lat="43.55063" lon="6.14076">
        <ele>354</ele>
        <time>2025-06-08T09:45:38.000Z</time>
      </trkpt>
      <trkpt lat="43.55068" lon="6.14066">
        <ele>352.7</ele>
        <time>2025-06-08T09:45:51.000Z</time>
      </trkpt>
      <trkpt lat="43.55072" lon="6.14054">
        <ele>351.8</ele>
        <time>2025-06-08T09:46:03.000Z</time>
      </trkpt>
      <trkpt lat="43.55079" lon="6.14044">
        <ele>351.3</ele>
        <time>2025-06-08T09:46:15.000Z</time>
      </trkpt>
      <trkpt lat="43.55085" lon="6.14034">
        <ele>350.6</ele>
        <time>2025-06-08T09:46:25.000Z</time>
      </trkpt>
      <trkpt lat="43.55091" lon="6.14024">
        <ele>349</ele>
        <time>2025-06-08T09:46:37.000Z</time>
      </trkpt>
      <trkpt lat="43.55097" lon="6.14014">
        <ele>347.3</ele>
        <time>2025-06-08T09:46:51.000Z</time>
      </trkpt>
      <trkpt lat="43.55106" lon="6.14009">
        <ele>347.1</ele>
        <time>2025-06-08T09:47:01.000Z</time>
      </trkpt>
      <trkpt lat="43.55115" lon="6.14009">
        <ele>346.7</ele>
        <time>2025-06-08T09:47:11.000Z</time>
      </trkpt>
      <trkpt lat="43.55121" lon="6.14">
        <ele>346.6</ele>
        <time>2025-06-08T09:47:25.000Z</time>
      </trkpt>
      <trkpt lat="43.55129" lon="6.13991">
        <ele>346.6</ele>
        <time>2025-06-08T09:47:36.000Z</time>
      </trkpt>
      <trkpt lat="43.55135" lon="6.1398">
        <ele>346.6</ele>
        <time>2025-06-08T09:47:46.000Z</time>
      </trkpt>
      <trkpt lat="43.55143" lon="6.13973">
        <ele>346.6</ele>
        <time>2025-06-08T09:47:55.000Z</time>
      </trkpt>
      <trkpt lat="43.5515" lon="6.13964">
        <ele>346.7</ele>
        <time>2025-06-08T09:48:08.000Z</time>
      </trkpt>
      <trkpt lat="43.55159" lon="6.13957">
        <ele>346.7</ele>
        <time>2025-06-08T09:48:17.000Z</time>
      </trkpt>
      <trkpt lat="43.55166" lon="6.13951">
        <ele>346.7</ele>
        <time>2025-06-08T09:48:27.000Z</time>
      </trkpt>
      <trkpt lat="43.55174" lon="6.13944">
        <ele>346.7</ele>
        <time>2025-06-08T09:48:36.000Z</time>
      </trkpt>
      <trkpt lat="43.55182" lon="6.13937">
        <ele>346.8</ele>
        <time>2025-06-08T09:48:46.000Z</time>
      </trkpt>
      <trkpt lat="43.5519" lon="6.13931">
        <ele>346.9</ele>
        <time>2025-06-08T09:48:56.000Z</time>
      </trkpt>
      <trkpt lat="43.55199" lon="6.13924">
        <ele>347.1</ele>
        <time>2025-06-08T09:49:07.000Z</time>
      </trkpt>
      <trkpt lat="43.55201" lon="6.13921">
        <ele>347.3</ele>
        <time>2025-06-08T09:49:16.000Z</time>
      </trkpt>
      <trkpt lat="43.55201" lon="6.13921">
        <ele>347.3</ele>
        <time>2025-06-08T09:49:17.000Z</time>
      </trkpt>
      <trkpt lat="43.55201" lon="6.13921">
        <ele>347.3</ele>
        <time>2025-06-08T09:49:18.000Z</time>
      </trkpt>
      <trkpt lat="43.55201" lon="6.13921">
        <ele>347.3</ele>
        <time>2025-06-08T09:49:19.000Z</time>
      </trkpt>
      <trkpt lat="43.55202" lon="6.13921">
        <ele>347.4</ele>
        <time>2025-06-08T09:49:20.000Z</time>
      </trkpt>
      <trkpt lat="43.5521" lon="6.13915">
        <ele>347.8</ele>
        <time>2025-06-08T09:49:29.000Z</time>
      </trkpt>
      <trkpt lat="43.55219" lon="6.13918">
        <ele>348.3</ele>
        <time>2025-06-08T09:49:39.000Z</time>
      </trkpt>
      <trkpt lat="43.55227" lon="6.13924">
        <ele>349.2</ele>
        <time>2025-06-08T09:49:51.000Z</time>
      </trkpt>
      <trkpt lat="43.55236" lon="6.13929">
        <ele>349.8</ele>
        <time>2025-06-08T09:50:02.000Z</time>
      </trkpt>
      <trkpt lat="43.55244" lon="6.13935">
        <ele>350.2</ele>
        <time>2025-06-08T09:50:12.000Z</time>
      </trkpt>
      <trkpt lat="43.55253" lon="6.1394">
        <ele>350.3</ele>
        <time>2025-06-08T09:50:23.000Z</time>
      </trkpt>
      <trkpt lat="43.55262" lon="6.13944">
        <ele>350.7</ele>
        <time>2025-06-08T09:50:33.000Z</time>
      </trkpt>
      <trkpt lat="43.55271" lon="6.13943">
        <ele>351.4</ele>
        <time>2025-06-08T09:50:46.000Z</time>
      </trkpt>
      <trkpt lat="43.55279" lon="6.13935">
        <ele>351.4</ele>
        <time>2025-06-08T09:50:56.000Z</time>
      </trkpt>
      <trkpt lat="43.55287" lon="6.13927">
        <ele>350.9</ele>
        <time>2025-06-08T09:51:06.000Z</time>
      </trkpt>
      <trkpt lat="43.55288" lon="6.13915">
        <ele>349.4</ele>
        <time>2025-06-08T09:51:21.000Z</time>
      </trkpt>
      <trkpt lat="43.55289" lon="6.13902">
        <ele>349.6</ele>
        <time>2025-06-08T09:51:32.000Z</time>
      </trkpt>
      <trkpt lat="43.55292" lon="6.1389">
        <ele>350.8</ele>
        <time>2025-06-08T09:51:46.000Z</time>
      </trkpt>
      <trkpt lat="43.5529" lon="6.13876">
        <ele>352.5</ele>
        <time>2025-06-08T09:52:01.000Z</time>
      </trkpt>
      <trkpt lat="43.5529" lon="6.1387">
        <ele>352.9</ele>
        <time>2025-06-08T09:52:14.000Z</time>
      </trkpt>
      <trkpt lat="43.5529" lon="6.1387">
        <ele>353</ele>
        <time>2025-06-08T09:52:15.000Z</time>
      </trkpt>
      <trkpt lat="43.55294" lon="6.13859">
        <ele>357.2</ele>
        <time>2025-06-08T11:58:42.000Z</time>
      </trkpt>
      <trkpt lat="43.55294" lon="6.13859">
        <ele>357.2</ele>
        <time>2025-06-08T11:58:43.000Z</time>
      </trkpt>
      <trkpt lat="43.55292" lon="6.13856">
        <ele>357</ele>
        <time>2025-06-08T11:59:31.000Z</time>
      </trkpt>
      <trkpt lat="43.55292" lon="6.13856">
        <ele>357</ele>
        <time>2025-06-08T11:59:32.000Z</time>
      </trkpt>
      <trkpt lat="43.55297" lon="6.13846">
        <ele>357</ele>
        <time>2025-06-08T11:59:45.000Z</time>
      </trkpt>
      <trkpt lat="43.55297" lon="6.13842">
        <ele>357</ele>
        <time>2025-06-08T11:59:53.000Z</time>
      </trkpt>
      <trkpt lat="43.55297" lon="6.13841">
        <ele>357</ele>
        <time>2025-06-08T11:59:54.000Z</time>
      </trkpt>
      <trkpt lat="43.55297" lon="6.13841">
        <ele>357</ele>
        <time>2025-06-08T11:59:55.000Z</time>
      </trkpt>
      <trkpt lat="43.55297" lon="6.13839">
        <ele>357</ele>
        <time>2025-06-08T11:59:56.000Z</time>
      </trkpt>
      <trkpt lat="43.55297" lon="6.13838">
        <ele>357</ele>
        <time>2025-06-08T11:59:57.000Z</time>
      </trkpt>
      <trkpt lat="43.55299" lon="6.13825">
        <ele>357</ele>
        <time>2025-06-08T12:00:08.000Z</time>
      </trkpt>
      <trkpt lat="43.553" lon="6.13811">
        <ele>357.1</ele>
        <time>2025-06-08T12:00:16.000Z</time>
      </trkpt>
      <trkpt lat="43.55302" lon="6.13798">
        <ele>357.3</ele>
        <time>2025-06-08T12:00:27.000Z</time>
      </trkpt>
      <trkpt lat="43.55304" lon="6.13786">
        <ele>357.5</ele>
        <time>2025-06-08T12:00:36.000Z</time>
      </trkpt>
      <trkpt lat="43.55304" lon="6.13773">
        <ele>357.9</ele>
        <time>2025-06-08T12:00:47.000Z</time>
      </trkpt>
      <trkpt lat="43.55305" lon="6.1376">
        <ele>358.2</ele>
        <time>2025-06-08T12:00:56.000Z</time>
      </trkpt>
      <trkpt lat="43.55305" lon="6.13748">
        <ele>358.4</ele>
        <time>2025-06-08T12:01:08.000Z</time>
      </trkpt>
      <trkpt lat="43.55304" lon="6.13748">
        <ele>358.5</ele>
        <time>2025-06-08T12:01:18.000Z</time>
      </trkpt>
      <trkpt lat="43.55304" lon="6.13748">
        <ele>358.5</ele>
        <time>2025-06-08T12:01:19.000Z</time>
      </trkpt>
      <trkpt lat="43.55304" lon="6.13748">
        <ele>358.5</ele>
        <time>2025-06-08T12:01:20.000Z</time>
      </trkpt>
      <trkpt lat="43.55304" lon="6.13748">
        <ele>358.6</ele>
        <time>2025-06-08T12:01:26.000Z</time>
      </trkpt>
      <trkpt lat="43.55305" lon="6.13747">
        <ele>358.6</ele>
        <time>2025-06-08T12:01:27.000Z</time>
      </trkpt>
      <trkpt lat="43.55307" lon="6.13734">
        <ele>358.6</ele>
        <time>2025-06-08T12:01:35.000Z</time>
      </trkpt>
      <trkpt lat="43.55309" lon="6.13721">
        <ele>358.9</ele>
        <time>2025-06-08T12:01:43.000Z</time>
      </trkpt>
      <trkpt lat="43.55312" lon="6.13708">
        <ele>359.2</ele>
        <time>2025-06-08T12:01:53.000Z</time>
      </trkpt>
      <trkpt lat="43.55311" lon="6.13696">
        <ele>359.1</ele>
        <time>2025-06-08T12:02:01.000Z</time>
      </trkpt>
      <trkpt lat="43.55308" lon="6.13683">
        <ele>359.3</ele>
        <time>2025-06-08T12:02:11.000Z</time>
      </trkpt>
      <trkpt lat="43.55308" lon="6.1367">
        <ele>359.1</ele>
        <time>2025-06-08T12:02:20.000Z</time>
      </trkpt>
      <trkpt lat="43.55305" lon="6.13658">
        <ele>359</ele>
        <time>2025-06-08T12:02:27.000Z</time>
      </trkpt>
      <trkpt lat="43.55302" lon="6.13646">
        <ele>358.8</ele>
        <time>2025-06-08T12:02:36.000Z</time>
      </trkpt>
      <trkpt lat="43.55297" lon="6.13635">
        <ele>358.3</ele>
        <time>2025-06-08T12:02:45.000Z</time>
      </trkpt>
      <trkpt lat="43.55294" lon="6.13623">
        <ele>357.8</ele>
        <time>2025-06-08T12:02:56.000Z</time>
      </trkpt>
      <trkpt lat="43.55291" lon="6.13619">
        <ele>357.6</ele>
        <time>2025-06-08T12:03:04.000Z</time>
      </trkpt>
      <trkpt lat="43.55291" lon="6.13619">
        <ele>357.6</ele>
        <time>2025-06-08T12:03:05.000Z</time>
      </trkpt>
      <trkpt lat="43.5529" lon="6.13618">
        <ele>357.5</ele>
        <time>2025-06-08T12:03:14.000Z</time>
      </trkpt>
      <trkpt lat="43.5529" lon="6.13618">
        <ele>357.5</ele>
        <time>2025-06-08T12:03:15.000Z</time>
      </trkpt>
      <trkpt lat="43.55287" lon="6.13605">
        <ele>357.5</ele>
        <time>2025-06-08T12:03:24.000Z</time>
      </trkpt>
      <trkpt lat="43.55287" lon="6.13591">
        <ele>357.5</ele>
        <time>2025-06-08T12:03:33.000Z</time>
      </trkpt>
      <trkpt lat="43.55285" lon="6.13579">
        <ele>357.5</ele>
        <time>2025-06-08T12:03:42.000Z</time>
      </trkpt>
      <trkpt lat="43.55285" lon="6.13566">
        <ele>357.5</ele>
        <time>2025-06-08T12:03:51.000Z</time>
      </trkpt>
      <trkpt lat="43.55285" lon="6.13553">
        <ele>357.5</ele>
        <time>2025-06-08T12:04:01.000Z</time>
      </trkpt>
      <trkpt lat="43.55283" lon="6.1354">
        <ele>357.7</ele>
        <time>2025-06-08T12:04:10.000Z</time>
      </trkpt>
      <trkpt lat="43.55281" lon="6.13527">
        <ele>358.3</ele>
        <time>2025-06-08T12:04:21.000Z</time>
      </trkpt>
      <trkpt lat="43.55278" lon="6.13513">
        <ele>358.4</ele>
        <time>2025-06-08T12:04:32.000Z</time>
      </trkpt>
      <trkpt lat="43.55278" lon="6.13501">
        <ele>358.5</ele>
        <time>2025-06-08T12:04:40.000Z</time>
      </trkpt>
      <trkpt lat="43.55277" lon="6.13487">
        <ele>358.6</ele>
        <time>2025-06-08T12:04:47.000Z</time>
      </trkpt>
      <trkpt lat="43.55279" lon="6.13474">
        <ele>358.9</ele>
        <time>2025-06-08T12:04:57.000Z</time>
      </trkpt>
      <trkpt lat="43.55274" lon="6.13462">
        <ele>359.4</ele>
        <time>2025-06-08T12:05:05.000Z</time>
      </trkpt>
      <trkpt lat="43.55272" lon="6.13448">
        <ele>360.1</ele>
        <time>2025-06-08T12:05:16.000Z</time>
      </trkpt>
      <trkpt lat="43.55276" lon="6.13435">
        <ele>360.4</ele>
        <time>2025-06-08T12:05:24.000Z</time>
      </trkpt>
      <trkpt lat="43.55276" lon="6.13422">
        <ele>361</ele>
        <time>2025-06-08T12:05:34.000Z</time>
      </trkpt>
      <trkpt lat="43.55279" lon="6.13411">
        <ele>361.6</ele>
        <time>2025-06-08T12:05:42.000Z</time>
      </trkpt>
      <trkpt lat="43.55281" lon="6.13396">
        <ele>362.1</ele>
        <time>2025-06-08T12:05:52.000Z</time>
      </trkpt>
      <trkpt lat="43.5528" lon="6.13383">
        <ele>362.5</ele>
        <time>2025-06-08T12:06:01.000Z</time>
      </trkpt>
      <trkpt lat="43.55279" lon="6.13369">
        <ele>362.7</ele>
        <time>2025-06-08T12:06:09.000Z</time>
      </trkpt>
      <trkpt lat="43.55277" lon="6.13356">
        <ele>362.9</ele>
        <time>2025-06-08T12:06:18.000Z</time>
      </trkpt>
      <trkpt lat="43.55276" lon="6.13343">
        <ele>363.4</ele>
        <time>2025-06-08T12:06:27.000Z</time>
      </trkpt>
      <trkpt lat="43.55276" lon="6.13343">
        <ele>363.6</ele>
        <time>2025-06-08T12:06:33.000Z</time>
      </trkpt>
      <trkpt lat="43.55276" lon="6.13343">
        <ele>363.6</ele>
        <time>2025-06-08T12:06:34.000Z</time>
      </trkpt>
      <trkpt lat="43.55276" lon="6.13343">
        <ele>363.6</ele>
        <time>2025-06-08T12:06:35.000Z</time>
      </trkpt>
      <trkpt lat="43.55277" lon="6.13342">
        <ele>363.8</ele>
        <time>2025-06-08T12:06:54.000Z</time>
      </trkpt>
      <trkpt lat="43.55277" lon="6.13341">
        <ele>363.8</ele>
        <time>2025-06-08T12:06:55.000Z</time>
      </trkpt>
      <trkpt lat="43.55277" lon="6.13339">
        <ele>363.8</ele>
        <time>2025-06-08T12:06:56.000Z</time>
      </trkpt>
      <trkpt lat="43.55274" lon="6.1333">
        <ele>364</ele>
        <time>2025-06-08T12:07:08.000Z</time>
      </trkpt>
      <trkpt lat="43.55274" lon="6.1333">
        <ele>364</ele>
        <time>2025-06-08T12:07:09.000Z</time>
      </trkpt>
      <trkpt lat="43.55274" lon="6.1333">
        <ele>364</ele>
        <time>2025-06-08T12:07:10.000Z</time>
      </trkpt>
      <trkpt lat="43.55273" lon="6.13329">
        <ele>364</ele>
        <time>2025-06-08T12:07:37.000Z</time>
      </trkpt>
      <trkpt lat="43.55273" lon="6.13328">
        <ele>364</ele>
        <time>2025-06-08T12:07:38.000Z</time>
      </trkpt>
      <trkpt lat="43.55272" lon="6.13315">
        <ele>364.1</ele>
        <time>2025-06-08T12:07:53.000Z</time>
      </trkpt>
      <trkpt lat="43.55269" lon="6.13303">
        <ele>364.2</ele>
        <time>2025-06-08T12:08:02.000Z</time>
      </trkpt>
      <trkpt lat="43.55266" lon="6.13291">
        <ele>364.4</ele>
        <time>2025-06-08T12:08:11.000Z</time>
      </trkpt>
      <trkpt lat="43.55259" lon="6.13283">
        <ele>364.6</ele>
        <time>2025-06-08T12:08:19.000Z</time>
      </trkpt>
      <trkpt lat="43.55251" lon="6.13276">
        <ele>364.7</ele>
        <time>2025-06-08T12:08:28.000Z</time>
      </trkpt>
      <trkpt lat="43.55246" lon="6.13265">
        <ele>364.7</ele>
        <time>2025-06-08T12:08:37.000Z</time>
      </trkpt>
      <trkpt lat="43.55246" lon="6.13253">
        <ele>364.7</ele>
        <time>2025-06-08T12:08:45.000Z</time>
      </trkpt>
      <trkpt lat="43.55252" lon="6.13242">
        <ele>364.7</ele>
        <time>2025-06-08T12:08:53.000Z</time>
      </trkpt>
      <trkpt lat="43.55258" lon="6.13232">
        <ele>364.6</ele>
        <time>2025-06-08T12:09:02.000Z</time>
      </trkpt>
      <trkpt lat="43.55266" lon="6.13225">
        <ele>364.5</ele>
        <time>2025-06-08T12:09:13.000Z</time>
      </trkpt>
      <trkpt lat="43.55275" lon="6.1322">
        <ele>364.6</ele>
        <time>2025-06-08T12:09:24.000Z</time>
      </trkpt>
      <trkpt lat="43.55281" lon="6.1321">
        <ele>364.6</ele>
        <time>2025-06-08T12:09:32.000Z</time>
      </trkpt>
      <trkpt lat="43.55284" lon="6.13198">
        <ele>364.7</ele>
        <time>2025-06-08T12:09:39.000Z</time>
      </trkpt>
      <trkpt lat="43.55291" lon="6.13187">
        <ele>364.7</ele>
        <time>2025-06-08T12:09:50.000Z</time>
      </trkpt>
      <trkpt lat="43.55295" lon="6.13176">
        <ele>364.8</ele>
        <time>2025-06-08T12:10:01.000Z</time>
      </trkpt>
      <trkpt lat="43.55297" lon="6.13163">
        <ele>365</ele>
        <time>2025-06-08T12:10:10.000Z</time>
      </trkpt>
      <trkpt lat="43.55297" lon="6.1316">
        <ele>365.2</ele>
        <time>2025-06-08T12:10:16.000Z</time>
      </trkpt>
      <trkpt lat="43.55297" lon="6.1316">
        <ele>365.2</ele>
        <time>2025-06-08T12:10:17.000Z</time>
      </trkpt>
      <trkpt lat="43.55297" lon="6.1316">
        <ele>365.1</ele>
        <time>2025-06-08T12:10:21.000Z</time>
      </trkpt>
      <trkpt lat="43.55296" lon="6.13159">
        <ele>365.2</ele>
        <time>2025-06-08T12:10:22.000Z</time>
      </trkpt>
      <trkpt lat="43.55301" lon="6.13148">
        <ele>365.4</ele>
        <time>2025-06-08T12:10:30.000Z</time>
      </trkpt>
      <trkpt lat="43.55298" lon="6.13134">
        <ele>365.5</ele>
        <time>2025-06-08T12:10:38.000Z</time>
      </trkpt>
      <trkpt lat="43.55295" lon="6.13121">
        <ele>365.5</ele>
        <time>2025-06-08T12:10:47.000Z</time>
      </trkpt>
      <trkpt lat="43.55292" lon="6.13108">
        <ele>365.4</ele>
        <time>2025-06-08T12:10:57.000Z</time>
      </trkpt>
      <trkpt lat="43.55288" lon="6.13096">
        <ele>365.4</ele>
        <time>2025-06-08T12:11:07.000Z</time>
      </trkpt>
      <trkpt lat="43.55285" lon="6.13083">
        <ele>365.3</ele>
        <time>2025-06-08T12:11:16.000Z</time>
      </trkpt>
      <trkpt lat="43.55279" lon="6.13072">
        <ele>365.3</ele>
        <time>2025-06-08T12:11:28.000Z</time>
      </trkpt>
      <trkpt lat="43.55276" lon="6.13059">
        <ele>365.2</ele>
        <time>2025-06-08T12:11:37.000Z</time>
      </trkpt>
      <trkpt lat="43.55271" lon="6.13049">
        <ele>365.1</ele>
        <time>2025-06-08T12:11:46.000Z</time>
      </trkpt>
      <trkpt lat="43.55266" lon="6.13037">
        <ele>365</ele>
        <time>2025-06-08T12:11:56.000Z</time>
      </trkpt>
      <trkpt lat="43.55263" lon="6.13024">
        <ele>364.9</ele>
        <time>2025-06-08T12:12:07.000Z</time>
      </trkpt>
      <trkpt lat="43.55258" lon="6.13013">
        <ele>364.9</ele>
        <time>2025-06-08T12:12:17.000Z</time>
      </trkpt>
      <trkpt lat="43.55256" lon="6.1301">
        <ele>364.8</ele>
        <time>2025-06-08T12:12:23.000Z</time>
      </trkpt>
      <trkpt lat="43.55256" lon="6.1301">
        <ele>364.8</ele>
        <time>2025-06-08T12:12:24.000Z</time>
      </trkpt>
      <trkpt lat="43.55256" lon="6.1301">
        <ele>364.8</ele>
        <time>2025-06-08T12:12:25.000Z</time>
      </trkpt>
      <trkpt lat="43.55256" lon="6.13009">
        <ele>364.8</ele>
        <time>2025-06-08T12:12:31.000Z</time>
      </trkpt>
      <trkpt lat="43.55256" lon="6.13007">
        <ele>364.8</ele>
        <time>2025-06-08T12:12:32.000Z</time>
      </trkpt>
      <trkpt lat="43.55256" lon="6.12994">
        <ele>364.8</ele>
        <time>2025-06-08T12:12:41.000Z</time>
      </trkpt>
      <trkpt lat="43.55255" lon="6.12981">
        <ele>364.7</ele>
        <time>2025-06-08T12:12:50.000Z</time>
      </trkpt>
      <trkpt lat="43.55256" lon="6.12967">
        <ele>364.7</ele>
        <time>2025-06-08T12:12:59.000Z</time>
      </trkpt>
      <trkpt lat="43.55258" lon="6.12954">
        <ele>364.9</ele>
        <time>2025-06-08T12:13:09.000Z</time>
      </trkpt>
      <trkpt lat="43.55259" lon="6.12944">
        <ele>365.1</ele>
        <time>2025-06-08T12:13:23.000Z</time>
      </trkpt>
      <trkpt lat="43.55259" lon="6.12944">
        <ele>365.1</ele>
        <time>2025-06-08T12:13:24.000Z</time>
      </trkpt>
      <trkpt lat="43.55259" lon="6.12944">
        <ele>365.1</ele>
        <time>2025-06-08T12:13:25.000Z</time>
      </trkpt>
      <trkpt lat="43.55259" lon="6.12944">
        <ele>365.3</ele>
        <time>2025-06-08T12:13:39.000Z</time>
      </trkpt>
      <trkpt lat="43.55259" lon="6.12944">
        <ele>365.3</ele>
        <time>2025-06-08T12:13:40.000Z</time>
      </trkpt>
      <trkpt lat="43.55259" lon="6.12943">
        <ele>365.4</ele>
        <time>2025-06-08T12:13:43.000Z</time>
      </trkpt>
      <trkpt lat="43.55259" lon="6.12943">
        <ele>365.4</ele>
        <time>2025-06-08T12:13:44.000Z</time>
      </trkpt>
      <trkpt lat="43.55259" lon="6.12943">
        <ele>365.4</ele>
        <time>2025-06-08T12:13:45.000Z</time>
      </trkpt>
      <trkpt lat="43.55259" lon="6.12943">
        <ele>365.4</ele>
        <time>2025-06-08T12:13:46.000Z</time>
      </trkpt>
      <trkpt lat="43.55259" lon="6.12943">
        <ele>365.4</ele>
        <time>2025-06-08T12:13:47.000Z</time>
      </trkpt>
      <trkpt lat="43.55259" lon="6.12943">
        <ele>365.4</ele>
        <time>2025-06-08T12:13:48.000Z</time>
      </trkpt>
      <trkpt lat="43.55259" lon="6.12943">
        <ele>365.4</ele>
        <time>2025-06-08T12:13:49.000Z</time>
      </trkpt>
      <trkpt lat="43.55259" lon="6.12943">
        <ele>365.4</ele>
        <time>2025-06-08T12:13:50.000Z</time>
      </trkpt>
      <trkpt lat="43.55259" lon="6.12944">
        <ele>365.5</ele>
        <time>2025-06-08T12:14:01.000Z</time>
      </trkpt>
      <trkpt lat="43.55259" lon="6.12944">
        <ele>365.5</ele>
        <time>2025-06-08T12:14:02.000Z</time>
      </trkpt>
      <trkpt lat="43.55259" lon="6.12944">
        <ele>365.5</ele>
        <time>2025-06-08T12:14:03.000Z</time>
      </trkpt>
      <trkpt lat="43.55259" lon="6.12944">
        <ele>365.5</ele>
        <time>2025-06-08T12:14:04.000Z</time>
      </trkpt>
      <trkpt lat="43.55259" lon="6.12944">
        <ele>365.5</ele>
        <time>2025-06-08T12:14:05.000Z</time>
      </trkpt>
      <trkpt lat="43.55258" lon="6.12944">
        <ele>365.5</ele>
        <time>2025-06-08T12:14:18.000Z</time>
      </trkpt>
      <trkpt lat="43.55258" lon="6.12944">
        <ele>365.5</ele>
        <time>2025-06-08T12:14:19.000Z</time>
      </trkpt>
      <trkpt lat="43.55258" lon="6.12944">
        <ele>365.5</ele>
        <time>2025-06-08T12:14:20.000Z</time>
      </trkpt>
      <trkpt lat="43.55258" lon="6.12944">
        <ele>365.6</ele>
        <time>2025-06-08T12:14:21.000Z</time>
      </trkpt>
      <trkpt lat="43.55258" lon="6.12944">
        <ele>365.6</ele>
        <time>2025-06-08T12:14:22.000Z</time>
      </trkpt>
      <trkpt lat="43.55258" lon="6.12944">
        <ele>365.6</ele>
        <time>2025-06-08T12:14:26.000Z</time>
      </trkpt>
      <trkpt lat="43.55257" lon="6.12943">
        <ele>365.6</ele>
        <time>2025-06-08T12:14:27.000Z</time>
      </trkpt>
      <trkpt lat="43.55255" lon="6.12942">
        <ele>365.6</ele>
        <time>2025-06-08T12:14:36.000Z</time>
      </trkpt>
      <trkpt lat="43.55255" lon="6.12942">
        <ele>365.6</ele>
        <time>2025-06-08T12:14:37.000Z</time>
      </trkpt>
      <trkpt lat="43.55254" lon="6.12942">
        <ele>365.4</ele>
        <time>2025-06-08T12:15:06.000Z</time>
      </trkpt>
      <trkpt lat="43.55253" lon="6.12943">
        <ele>365.4</ele>
        <time>2025-06-08T12:15:07.000Z</time>
      </trkpt>
      <trkpt lat="43.5525" lon="6.12942">
        <ele>365.4</ele>
        <time>2025-06-08T12:15:14.000Z</time>
      </trkpt>
      <trkpt lat="43.5525" lon="6.12942">
        <ele>365.4</ele>
        <time>2025-06-08T12:15:15.000Z</time>
      </trkpt>
      <trkpt lat="43.5525" lon="6.12942">
        <ele>365.4</ele>
        <time>2025-06-08T12:15:16.000Z</time>
      </trkpt>
      <trkpt lat="43.55249" lon="6.12941">
        <ele>365.6</ele>
        <time>2025-06-08T12:15:34.000Z</time>
      </trkpt>
      <trkpt lat="43.55248" lon="6.12942">
        <ele>365.6</ele>
        <time>2025-06-08T12:15:35.000Z</time>
      </trkpt>
      <trkpt lat="43.55244" lon="6.12953">
        <ele>366</ele>
        <time>2025-06-08T12:15:52.000Z</time>
      </trkpt>
      <trkpt lat="43.55237" lon="6.12962">
        <ele>366.5</ele>
        <time>2025-06-08T12:16:06.000Z</time>
      </trkpt>
      <trkpt lat="43.55229" lon="6.12969">
        <ele>367.3</ele>
        <time>2025-06-08T12:16:20.000Z</time>
      </trkpt>
      <trkpt lat="43.55223" lon="6.12979">
        <ele>369</ele>
        <time>2025-06-08T12:16:36.000Z</time>
      </trkpt>
      <trkpt lat="43.55218" lon="6.1299">
        <ele>371</ele>
        <time>2025-06-08T12:16:51.000Z</time>
      </trkpt>
      <trkpt lat="43.55212" lon="6.12999">
        <ele>372.5</ele>
        <time>2025-06-08T12:17:02.000Z</time>
      </trkpt>
      <trkpt lat="43.55205" lon="6.13007">
        <ele>373.8</ele>
        <time>2025-06-08T12:17:16.000Z</time>
      </trkpt>
      <trkpt lat="43.55202" lon="6.13019">
        <ele>375.2</ele>
        <time>2025-06-08T12:17:35.000Z</time>
      </trkpt>
      <trkpt lat="43.55196" lon="6.13029">
        <ele>376.5</ele>
        <time>2025-06-08T12:17:49.000Z</time>
      </trkpt>
      <trkpt lat="43.5519" lon="6.13039">
        <ele>377.2</ele>
        <time>2025-06-08T12:18:02.000Z</time>
      </trkpt>
      <trkpt lat="43.55187" lon="6.13052">
        <ele>378</ele>
        <time>2025-06-08T12:18:19.000Z</time>
      </trkpt>
      <trkpt lat="43.5518" lon="6.13061">
        <ele>378.9</ele>
        <time>2025-06-08T12:18:33.000Z</time>
      </trkpt>
      <trkpt lat="43.55177" lon="6.13072">
        <ele>379.8</ele>
        <time>2025-06-08T12:18:44.000Z</time>
      </trkpt>
      <trkpt lat="43.55172" lon="6.13083">
        <ele>380.6</ele>
        <time>2025-06-08T12:18:58.000Z</time>
      </trkpt>
      <trkpt lat="43.55167" lon="6.13094">
        <ele>381.3</ele>
        <time>2025-06-08T12:19:11.000Z</time>
      </trkpt>
      <trkpt lat="43.55164" lon="6.13106">
        <ele>381.2</ele>
        <time>2025-06-08T12:19:23.000Z</time>
      </trkpt>
      <trkpt lat="43.55156" lon="6.13115">
        <ele>381.1</ele>
        <time>2025-06-08T12:19:37.000Z</time>
      </trkpt>
      <trkpt lat="43.55151" lon="6.13126">
        <ele>381.1</ele>
        <time>2025-06-08T12:19:47.000Z</time>
      </trkpt>
      <trkpt lat="43.55146" lon="6.13137">
        <ele>381</ele>
        <time>2025-06-08T12:19:58.000Z</time>
      </trkpt>
      <trkpt lat="43.55143" lon="6.13147">
        <ele>380.9</ele>
        <time>2025-06-08T12:20:08.000Z</time>
      </trkpt>
      <trkpt lat="43.55143" lon="6.13147">
        <ele>380.8</ele>
        <time>2025-06-08T12:20:09.000Z</time>
      </trkpt>
      <trkpt lat="43.55143" lon="6.13147">
        <ele>380.8</ele>
        <time>2025-06-08T12:20:10.000Z</time>
      </trkpt>
      <trkpt lat="43.55143" lon="6.13148">
        <ele>380.8</ele>
        <time>2025-06-08T12:20:16.000Z</time>
      </trkpt>
      <trkpt lat="43.55142" lon="6.13148">
        <ele>380.8</ele>
        <time>2025-06-08T12:20:17.000Z</time>
      </trkpt>
      <trkpt lat="43.55136" lon="6.13157">
        <ele>380.6</ele>
        <time>2025-06-08T12:20:30.000Z</time>
      </trkpt>
      <trkpt lat="43.5513" lon="6.13168">
        <ele>380.5</ele>
        <time>2025-06-08T12:20:39.000Z</time>
      </trkpt>
      <trkpt lat="43.55123" lon="6.13177">
        <ele>380.6</ele>
        <time>2025-06-08T12:20:49.000Z</time>
      </trkpt>
      <trkpt lat="43.55116" lon="6.13187">
        <ele>381</ele>
        <time>2025-06-08T12:20:59.000Z</time>
      </trkpt>
      <trkpt lat="43.5511" lon="6.13197">
        <ele>381.4</ele>
        <time>2025-06-08T12:21:07.000Z</time>
      </trkpt>
      <trkpt lat="43.55103" lon="6.13204">
        <ele>381.9</ele>
        <time>2025-06-08T12:21:19.000Z</time>
      </trkpt>
      <trkpt lat="43.55096" lon="6.13213">
        <ele>382.1</ele>
        <time>2025-06-08T12:21:29.000Z</time>
      </trkpt>
      <trkpt lat="43.55088" lon="6.13219">
        <ele>382.4</ele>
        <time>2025-06-08T12:21:39.000Z</time>
      </trkpt>
      <trkpt lat="43.5508" lon="6.13226">
        <ele>382.7</ele>
        <time>2025-06-08T12:21:51.000Z</time>
      </trkpt>
      <trkpt lat="43.55073" lon="6.13236">
        <ele>382.9</ele>
        <time>2025-06-08T12:21:59.000Z</time>
      </trkpt>
      <trkpt lat="43.55065" lon="6.13244">
        <ele>383.9</ele>
        <time>2025-06-08T12:22:10.000Z</time>
      </trkpt>
      <trkpt lat="43.55057" lon="6.13248">
        <ele>384.6</ele>
        <time>2025-06-08T12:22:19.000Z</time>
      </trkpt>
      <trkpt lat="43.55052" lon="6.13259">
        <ele>385.2</ele>
        <time>2025-06-08T12:22:32.000Z</time>
      </trkpt>
      <trkpt lat="43.55046" lon="6.13269">
        <ele>385.6</ele>
        <time>2025-06-08T12:22:44.000Z</time>
      </trkpt>
      <trkpt lat="43.5504" lon="6.1328">
        <ele>385.8</ele>
        <time>2025-06-08T12:22:52.000Z</time>
      </trkpt>
      <trkpt lat="43.55033" lon="6.13288">
        <ele>385.9</ele>
        <time>2025-06-08T12:23:05.000Z</time>
      </trkpt>
      <trkpt lat="43.55027" lon="6.13298">
        <ele>386</ele>
        <time>2025-06-08T12:23:16.000Z</time>
      </trkpt>
      <trkpt lat="43.55021" lon="6.13309">
        <ele>386</ele>
        <time>2025-06-08T12:23:26.000Z</time>
      </trkpt>
      <trkpt lat="43.55015" lon="6.13319">
        <ele>386</ele>
        <time>2025-06-08T12:23:35.000Z</time>
      </trkpt>
      <trkpt lat="43.55009" lon="6.1333">
        <ele>386</ele>
        <time>2025-06-08T12:23:45.000Z</time>
      </trkpt>
      <trkpt lat="43.55004" lon="6.1334">
        <ele>386</ele>
        <time>2025-06-08T12:23:54.000Z</time>
      </trkpt>
      <trkpt lat="43.55001" lon="6.13353">
        <ele>386</ele>
        <time>2025-06-08T12:24:03.000Z</time>
      </trkpt>
      <trkpt lat="43.54996" lon="6.13365">
        <ele>385.9</ele>
        <time>2025-06-08T12:24:12.000Z</time>
      </trkpt>
      <trkpt lat="43.54992" lon="6.13377">
        <ele>385.8</ele>
        <time>2025-06-08T12:24:22.000Z</time>
      </trkpt>
      <trkpt lat="43.54986" lon="6.13386">
        <ele>385.5</ele>
        <time>2025-06-08T12:24:34.000Z</time>
      </trkpt>
      <trkpt lat="43.5498" lon="6.13396">
        <ele>385.4</ele>
        <time>2025-06-08T12:24:44.000Z</time>
      </trkpt>
      <trkpt lat="43.54971" lon="6.13403">
        <ele>385.3</ele>
        <time>2025-06-08T12:24:55.000Z</time>
      </trkpt>
      <trkpt lat="43.54962" lon="6.13405">
        <ele>385.4</ele>
        <time>2025-06-08T12:25:07.000Z</time>
      </trkpt>
      <trkpt lat="43.54962" lon="6.13404">
        <ele>385.3</ele>
        <time>2025-06-08T12:25:14.000Z</time>
      </trkpt>
      <trkpt lat="43.54962" lon="6.13404">
        <ele>385.3</ele>
        <time>2025-06-08T12:25:15.000Z</time>
      </trkpt>
      <trkpt lat="43.54962" lon="6.13405">
        <ele>385.6</ele>
        <time>2025-06-08T12:25:26.000Z</time>
      </trkpt>
      <trkpt lat="43.54962" lon="6.13405">
        <ele>385.6</ele>
        <time>2025-06-08T12:25:27.000Z</time>
      </trkpt>
      <trkpt lat="43.54962" lon="6.13405">
        <ele>385.7</ele>
        <time>2025-06-08T12:25:28.000Z</time>
      </trkpt>
      <trkpt lat="43.54962" lon="6.13407">
        <ele>385.7</ele>
        <time>2025-06-08T12:25:34.000Z</time>
      </trkpt>
      <trkpt lat="43.54962" lon="6.13407">
        <ele>385.7</ele>
        <time>2025-06-08T12:25:35.000Z</time>
      </trkpt>
      <trkpt lat="43.54962" lon="6.13407">
        <ele>385.7</ele>
        <time>2025-06-08T12:25:36.000Z</time>
      </trkpt>
      <trkpt lat="43.54961" lon="6.13407">
        <ele>385.5</ele>
        <time>2025-06-08T12:26:23.000Z</time>
      </trkpt>
      <trkpt lat="43.54961" lon="6.13407">
        <ele>385.5</ele>
        <time>2025-06-08T12:26:24.000Z</time>
      </trkpt>
      <trkpt lat="43.54961" lon="6.13407">
        <ele>385.5</ele>
        <time>2025-06-08T12:26:25.000Z</time>
      </trkpt>
      <trkpt lat="43.5496" lon="6.13407">
        <ele>385.4</ele>
        <time>2025-06-08T12:26:31.000Z</time>
      </trkpt>
      <trkpt lat="43.5496" lon="6.13407">
        <ele>385.4</ele>
        <time>2025-06-08T12:26:32.000Z</time>
      </trkpt>
      <trkpt lat="43.5496" lon="6.13407">
        <ele>385.4</ele>
        <time>2025-06-08T12:26:33.000Z</time>
      </trkpt>
      <trkpt lat="43.54959" lon="6.13407">
        <ele>385.4</ele>
        <time>2025-06-08T12:26:36.000Z</time>
      </trkpt>
      <trkpt lat="43.54958" lon="6.13407">
        <ele>385.5</ele>
        <time>2025-06-08T12:26:37.000Z</time>
      </trkpt>
      <trkpt lat="43.5495" lon="6.13413">
        <ele>385.7</ele>
        <time>2025-06-08T12:26:51.000Z</time>
      </trkpt>
      <trkpt lat="43.54941" lon="6.13415">
        <ele>386.4</ele>
        <time>2025-06-08T12:27:06.000Z</time>
      </trkpt>
      <trkpt lat="43.54931" lon="6.13417">
        <ele>387.4</ele>
        <time>2025-06-08T12:27:20.000Z</time>
      </trkpt>
      <trkpt lat="43.54921" lon="6.13419">
        <ele>388.1</ele>
        <time>2025-06-08T12:27:32.000Z</time>
      </trkpt>
      <trkpt lat="43.54912" lon="6.1342">
        <ele>389.5</ele>
        <time>2025-06-08T12:27:47.000Z</time>
      </trkpt>
      <trkpt lat="43.54903" lon="6.13424">
        <ele>390.3</ele>
        <time>2025-06-08T12:27:59.000Z</time>
      </trkpt>
      <trkpt lat="43.54893" lon="6.13424">
        <ele>391.6</ele>
        <time>2025-06-08T12:28:11.000Z</time>
      </trkpt>
      <trkpt lat="43.54884" lon="6.13428">
        <ele>393.3</ele>
        <time>2025-06-08T12:28:24.000Z</time>
      </trkpt>
      <trkpt lat="43.54875" lon="6.13431">
        <ele>394.1</ele>
        <time>2025-06-08T12:28:37.000Z</time>
      </trkpt>
      <trkpt lat="43.54868" lon="6.13439">
        <ele>394.7</ele>
        <time>2025-06-08T12:28:48.000Z</time>
      </trkpt>
      <trkpt lat="43.54868" lon="6.13439">
        <ele>394.8</ele>
        <time>2025-06-08T12:28:53.000Z</time>
      </trkpt>
      <trkpt lat="43.54868" lon="6.13439">
        <ele>394.9</ele>
        <time>2025-06-08T12:28:54.000Z</time>
      </trkpt>
      <trkpt lat="43.54868" lon="6.13439">
        <ele>394.9</ele>
        <time>2025-06-08T12:28:55.000Z</time>
      </trkpt>
      <trkpt lat="43.54868" lon="6.13439">
        <ele>395</ele>
        <time>2025-06-08T12:28:58.000Z</time>
      </trkpt>
      <trkpt lat="43.54868" lon="6.1344">
        <ele>395</ele>
        <time>2025-06-08T12:28:59.000Z</time>
      </trkpt>
      <trkpt lat="43.54868" lon="6.1344">
        <ele>395.1</ele>
        <time>2025-06-08T12:29:00.000Z</time>
      </trkpt>
      <trkpt lat="43.54868" lon="6.1344">
        <ele>395.1</ele>
        <time>2025-06-08T12:29:01.000Z</time>
      </trkpt>
      <trkpt lat="43.54868" lon="6.1344">
        <ele>395</ele>
        <time>2025-06-08T12:29:02.000Z</time>
      </trkpt>
      <trkpt lat="43.54868" lon="6.13443">
        <ele>395.1</ele>
        <time>2025-06-08T12:29:29.000Z</time>
      </trkpt>
      <trkpt lat="43.54868" lon="6.13443">
        <ele>395.1</ele>
        <time>2025-06-08T12:29:30.000Z</time>
      </trkpt>
      <trkpt lat="43.54868" lon="6.13443">
        <ele>395.1</ele>
        <time>2025-06-08T12:29:31.000Z</time>
      </trkpt>
      <trkpt lat="43.54868" lon="6.13444">
        <ele>395.1</ele>
        <time>2025-06-08T12:29:32.000Z</time>
      </trkpt>
      <trkpt lat="43.54868" lon="6.13444">
        <ele>395.1</ele>
        <time>2025-06-08T12:29:33.000Z</time>
      </trkpt>
      <trkpt lat="43.54868" lon="6.13443">
        <ele>395.1</ele>
        <time>2025-06-08T12:30:02.000Z</time>
      </trkpt>
      <trkpt lat="43.54868" lon="6.13443">
        <ele>395.1</ele>
        <time>2025-06-08T12:30:03.000Z</time>
      </trkpt>
      <trkpt lat="43.54868" lon="6.13443">
        <ele>395.2</ele>
        <time>2025-06-08T12:30:09.000Z</time>
      </trkpt>
      <trkpt lat="43.54868" lon="6.13443">
        <ele>395.2</ele>
        <time>2025-06-08T12:30:10.000Z</time>
      </trkpt>
      <trkpt lat="43.54869" lon="6.13442">
        <ele>395.2</ele>
        <time>2025-06-08T12:30:21.000Z</time>
      </trkpt>
      <trkpt lat="43.54869" lon="6.13442">
        <ele>395.2</ele>
        <time>2025-06-08T12:30:22.000Z</time>
      </trkpt>
      <trkpt lat="43.54869" lon="6.13442">
        <ele>395.2</ele>
        <time>2025-06-08T12:30:23.000Z</time>
      </trkpt>
      <trkpt lat="43.54869" lon="6.13442">
        <ele>395.2</ele>
        <time>2025-06-08T12:30:24.000Z</time>
      </trkpt>
      <trkpt lat="43.54869" lon="6.13442">
        <ele>395.2</ele>
        <time>2025-06-08T12:30:25.000Z</time>
      </trkpt>
      <trkpt lat="43.54869" lon="6.13442">
        <ele>395.2</ele>
        <time>2025-06-08T12:30:26.000Z</time>
      </trkpt>
      <trkpt lat="43.54869" lon="6.13442">
        <ele>395.2</ele>
        <time>2025-06-08T12:30:27.000Z</time>
      </trkpt>
      <trkpt lat="43.54869" lon="6.13442">
        <ele>395.2</ele>
        <time>2025-06-08T12:30:28.000Z</time>
      </trkpt>
      <trkpt lat="43.54869" lon="6.13442">
        <ele>395.3</ele>
        <time>2025-06-08T12:30:29.000Z</time>
      </trkpt>
      <trkpt lat="43.54868" lon="6.13441">
        <ele>395.3</ele>
        <time>2025-06-08T12:30:30.000Z</time>
      </trkpt>
      <trkpt lat="43.54868" lon="6.13441">
        <ele>395.3</ele>
        <time>2025-06-08T12:31:28.000Z</time>
      </trkpt>
      <trkpt lat="43.54868" lon="6.13441">
        <ele>395.3</ele>
        <time>2025-06-08T12:31:29.000Z</time>
      </trkpt>
      <trkpt lat="43.54868" lon="6.13441">
        <ele>395.3</ele>
        <time>2025-06-08T12:31:30.000Z</time>
      </trkpt>
      <trkpt lat="43.54868" lon="6.13441">
        <ele>395.3</ele>
        <time>2025-06-08T12:31:31.000Z</time>
      </trkpt>
      <trkpt lat="43.54868" lon="6.13441">
        <ele>395.3</ele>
        <time>2025-06-08T12:31:32.000Z</time>
      </trkpt>
      <trkpt lat="43.54868" lon="6.13441">
        <ele>395.3</ele>
        <time>2025-06-08T12:31:33.000Z</time>
      </trkpt>
      <trkpt lat="43.54868" lon="6.13441">
        <ele>395.2</ele>
        <time>2025-06-08T12:31:43.000Z</time>
      </trkpt>
      <trkpt lat="43.54868" lon="6.13441">
        <ele>395.2</ele>
        <time>2025-06-08T12:31:44.000Z</time>
      </trkpt>
      <trkpt lat="43.54868" lon="6.13441">
        <ele>395.2</ele>
        <time>2025-06-08T12:31:45.000Z</time>
      </trkpt>
      <trkpt lat="43.54868" lon="6.13441">
        <ele>395.2</ele>
        <time>2025-06-08T12:31:48.000Z</time>
      </trkpt>
      <trkpt lat="43.54868" lon="6.13441">
        <ele>395.1</ele>
        <time>2025-06-08T12:31:49.000Z</time>
      </trkpt>
      <trkpt lat="43.54868" lon="6.13441">
        <ele>395.2</ele>
        <time>2025-06-08T12:31:50.000Z</time>
      </trkpt>
      <trkpt lat="43.54868" lon="6.13441">
        <ele>395.1</ele>
        <time>2025-06-08T12:31:59.000Z</time>
      </trkpt>
      <trkpt lat="43.54868" lon="6.13441">
        <ele>395.1</ele>
        <time>2025-06-08T12:32:00.000Z</time>
      </trkpt>
      <trkpt lat="43.54859" lon="6.13445">
        <ele>395.1</ele>
        <time>2025-06-08T12:32:10.000Z</time>
      </trkpt>
      <trkpt lat="43.5485" lon="6.13448">
        <ele>394.8</ele>
        <time>2025-06-08T12:32:20.000Z</time>
      </trkpt>
      <trkpt lat="43.54842" lon="6.13454">
        <ele>394.6</ele>
        <time>2025-06-08T12:32:33.000Z</time>
      </trkpt>
      <trkpt lat="43.54833" lon="6.13459">
        <ele>394.4</ele>
        <time>2025-06-08T12:32:45.000Z</time>
      </trkpt>
      <trkpt lat="43.54828" lon="6.1347">
        <ele>393.9</ele>
        <time>2025-06-08T12:32:57.000Z</time>
      </trkpt>
      <trkpt lat="43.5482" lon="6.13476">
        <ele>392.9</ele>
        <time>2025-06-08T12:33:13.000Z</time>
      </trkpt>
      <trkpt lat="43.54813" lon="6.13484">
        <ele>392.9</ele>
        <time>2025-06-08T12:33:26.000Z</time>
      </trkpt>
      <trkpt lat="43.54813" lon="6.13484">
        <ele>392.9</ele>
        <time>2025-06-08T12:33:27.000Z</time>
      </trkpt>
      <trkpt lat="43.54813" lon="6.13484">
        <ele>392.9</ele>
        <time>2025-06-08T12:33:28.000Z</time>
      </trkpt>
      <trkpt lat="43.54812" lon="6.13484">
        <ele>392.9</ele>
        <time>2025-06-08T12:33:29.000Z</time>
      </trkpt>
      <trkpt lat="43.54812" lon="6.13484">
        <ele>392.8</ele>
        <time>2025-06-08T12:33:30.000Z</time>
      </trkpt>
      <trkpt lat="43.54805" lon="6.13492">
        <ele>392.2</ele>
        <time>2025-06-08T12:33:42.000Z</time>
      </trkpt>
      <trkpt lat="43.54796" lon="6.13497">
        <ele>391.6</ele>
        <time>2025-06-08T12:33:58.000Z</time>
      </trkpt>
      <trkpt lat="43.54787" lon="6.13501">
        <ele>391.2</ele>
        <time>2025-06-08T12:34:10.000Z</time>
      </trkpt>
      <trkpt lat="43.54778" lon="6.13506">
        <ele>391.1</ele>
        <time>2025-06-08T12:34:23.000Z</time>
      </trkpt>
      <trkpt lat="43.5477" lon="6.13512">
        <ele>391.1</ele>
        <time>2025-06-08T12:34:35.000Z</time>
      </trkpt>
      <trkpt lat="43.54762" lon="6.13519">
        <ele>390.9</ele>
        <time>2025-06-08T12:34:48.000Z</time>
      </trkpt>
      <trkpt lat="43.54753" lon="6.13524">
        <ele>390.8</ele>
        <time>2025-06-08T12:34:59.000Z</time>
      </trkpt>
      <trkpt lat="43.54744" lon="6.13527">
        <ele>390.7</ele>
        <time>2025-06-08T12:35:09.000Z</time>
      </trkpt>
      <trkpt lat="43.54736" lon="6.13532">
        <ele>390.6</ele>
        <time>2025-06-08T12:35:20.000Z</time>
      </trkpt>
      <trkpt lat="43.54728" lon="6.13538">
        <ele>390.2</ele>
        <time>2025-06-08T12:35:30.000Z</time>
      </trkpt>
      <trkpt lat="43.54719" lon="6.13543">
        <ele>389.8</ele>
        <time>2025-06-08T12:35:41.000Z</time>
      </trkpt>
      <trkpt lat="43.5471" lon="6.13548">
        <ele>389.2</ele>
        <time>2025-06-08T12:35:52.000Z</time>
      </trkpt>
      <trkpt lat="43.54701" lon="6.13553">
        <ele>388.9</ele>
        <time>2025-06-08T12:36:03.000Z</time>
      </trkpt>
      <trkpt lat="43.54692" lon="6.13557">
        <ele>388.8</ele>
        <time>2025-06-08T12:36:16.000Z</time>
      </trkpt>
      <trkpt lat="43.54684" lon="6.13563">
        <ele>388.8</ele>
        <time>2025-06-08T12:36:30.000Z</time>
      </trkpt>
      <trkpt lat="43.54677" lon="6.1357">
        <ele>388.7</ele>
        <time>2025-06-08T12:36:41.000Z</time>
      </trkpt>
      <trkpt lat="43.54669" lon="6.13577">
        <ele>388.7</ele>
        <time>2025-06-08T12:36:52.000Z</time>
      </trkpt>
      <trkpt lat="43.54661" lon="6.13583">
        <ele>388.9</ele>
        <time>2025-06-08T12:37:04.000Z</time>
      </trkpt>
      <trkpt lat="43.54657" lon="6.13592">
        <ele>388.8</ele>
        <time>2025-06-08T12:37:26.000Z</time>
      </trkpt>
      <trkpt lat="43.54657" lon="6.13592">
        <ele>388.8</ele>
        <time>2025-06-08T12:37:27.000Z</time>
      </trkpt>
      <trkpt lat="43.54657" lon="6.13593">
        <ele>388.5</ele>
        <time>2025-06-08T12:37:33.000Z</time>
      </trkpt>
      <trkpt lat="43.54656" lon="6.13594">
        <ele>388.5</ele>
        <time>2025-06-08T12:37:34.000Z</time>
      </trkpt>
      <trkpt lat="43.54656" lon="6.13595">
        <ele>388.5</ele>
        <time>2025-06-08T12:37:35.000Z</time>
      </trkpt>
      <trkpt lat="43.54647" lon="6.136">
        <ele>388.8</ele>
        <time>2025-06-08T12:38:02.000Z</time>
      </trkpt>
      <trkpt lat="43.54639" lon="6.13607">
        <ele>389.4</ele>
        <time>2025-06-08T12:38:13.000Z</time>
      </trkpt>
      <trkpt lat="43.54631" lon="6.13615">
        <ele>390.5</ele>
        <time>2025-06-08T12:38:25.000Z</time>
      </trkpt>
      <trkpt lat="43.54623" lon="6.13621">
        <ele>391.1</ele>
        <time>2025-06-08T12:38:37.000Z</time>
      </trkpt>
      <trkpt lat="43.54616" lon="6.1363">
        <ele>391.5</ele>
        <time>2025-06-08T12:38:51.000Z</time>
      </trkpt>
      <trkpt lat="43.54608" lon="6.13637">
        <ele>392</ele>
        <time>2025-06-08T12:39:04.000Z</time>
      </trkpt>
      <trkpt lat="43.54598" lon="6.13641">
        <ele>392</ele>
        <time>2025-06-08T12:39:17.000Z</time>
      </trkpt>
      <trkpt lat="43.5459" lon="6.13648">
        <ele>392.3</ele>
        <time>2025-06-08T12:39:31.000Z</time>
      </trkpt>
      <trkpt lat="43.54582" lon="6.13653">
        <ele>392.5</ele>
        <time>2025-06-08T12:39:40.000Z</time>
      </trkpt>
      <trkpt lat="43.54572" lon="6.13654">
        <ele>393.1</ele>
        <time>2025-06-08T12:39:51.000Z</time>
      </trkpt>
      <trkpt lat="43.54563" lon="6.13656">
        <ele>393.5</ele>
        <time>2025-06-08T12:40:03.000Z</time>
      </trkpt>
      <trkpt lat="43.54554" lon="6.13656">
        <ele>393.8</ele>
        <time>2025-06-08T12:40:13.000Z</time>
      </trkpt>
      <trkpt lat="43.54545" lon="6.13654">
        <ele>394.1</ele>
        <time>2025-06-08T12:40:29.000Z</time>
      </trkpt>
      <trkpt lat="43.54535" lon="6.13655">
        <ele>394.6</ele>
        <time>2025-06-08T12:40:42.000Z</time>
      </trkpt>
      <trkpt lat="43.54526" lon="6.13658">
        <ele>395.4</ele>
        <time>2025-06-08T12:40:51.000Z</time>
      </trkpt>
      <trkpt lat="43.54517" lon="6.13661">
        <ele>395.8</ele>
        <time>2025-06-08T12:41:12.000Z</time>
      </trkpt>
      <trkpt lat="43.54508" lon="6.13667">
        <ele>396.1</ele>
        <time>2025-06-08T12:41:24.000Z</time>
      </trkpt>
      <trkpt lat="43.54499" lon="6.13673">
        <ele>396.4</ele>
        <time>2025-06-08T12:41:36.000Z</time>
      </trkpt>
      <trkpt lat="43.54491" lon="6.1368">
        <ele>396.7</ele>
        <time>2025-06-08T12:41:49.000Z</time>
      </trkpt>
      <trkpt lat="43.54482" lon="6.13684">
        <ele>397</ele>
        <time>2025-06-08T12:42:00.000Z</time>
      </trkpt>
      <trkpt lat="43.54473" lon="6.13687">
        <ele>397.2</ele>
        <time>2025-06-08T12:42:08.000Z</time>
      </trkpt>
      <trkpt lat="43.54463" lon="6.13692">
        <ele>397.1</ele>
        <time>2025-06-08T12:42:21.000Z</time>
      </trkpt>
      <trkpt lat="43.54454" lon="6.13694">
        <ele>397</ele>
        <time>2025-06-08T12:42:35.000Z</time>
      </trkpt>
      <trkpt lat="43.54445" lon="6.1369">
        <ele>397.1</ele>
        <time>2025-06-08T12:42:52.000Z</time>
      </trkpt>
      <trkpt lat="43.54436" lon="6.13688">
        <ele>397.1</ele>
        <time>2025-06-08T12:43:08.000Z</time>
      </trkpt>
      <trkpt lat="43.54427" lon="6.13685">
        <ele>397.9</ele>
        <time>2025-06-08T12:43:23.000Z</time>
      </trkpt>
      <trkpt lat="43.54421" lon="6.13682">
        <ele>398.3</ele>
        <time>2025-06-08T12:43:36.000Z</time>
      </trkpt>
      <trkpt lat="43.54421" lon="6.13682">
        <ele>398.3</ele>
        <time>2025-06-08T12:43:37.000Z</time>
      </trkpt>
      <trkpt lat="43.54421" lon="6.13682">
        <ele>398.3</ele>
        <time>2025-06-08T12:43:38.000Z</time>
      </trkpt>
      <trkpt lat="43.54418" lon="6.13683">
        <ele>398.1</ele>
        <time>2025-06-08T12:44:48.000Z</time>
      </trkpt>
      <trkpt lat="43.54418" lon="6.13683">
        <ele>398.1</ele>
        <time>2025-06-08T12:44:49.000Z</time>
      </trkpt>
      <trkpt lat="43.54418" lon="6.13683">
        <ele>398.1</ele>
        <time>2025-06-08T12:44:50.000Z</time>
      </trkpt>
      <trkpt lat="43.54418" lon="6.13683">
        <ele>398.1</ele>
        <time>2025-06-08T12:44:51.000Z</time>
      </trkpt>
      <trkpt lat="43.54418" lon="6.13683">
        <ele>398.1</ele>
        <time>2025-06-08T12:44:52.000Z</time>
      </trkpt>
      <trkpt lat="43.54418" lon="6.13683">
        <ele>398.2</ele>
        <time>2025-06-08T12:45:12.000Z</time>
      </trkpt>
      <trkpt lat="43.54418" lon="6.13683">
        <ele>398.2</ele>
        <time>2025-06-08T12:45:13.000Z</time>
      </trkpt>
      <trkpt lat="43.54418" lon="6.13683">
        <ele>398.2</ele>
        <time>2025-06-08T12:45:14.000Z</time>
      </trkpt>
      <trkpt lat="43.54418" lon="6.13683">
        <ele>398.2</ele>
        <time>2025-06-08T12:45:15.000Z</time>
      </trkpt>
      <trkpt lat="43.54418" lon="6.13683">
        <ele>398.2</ele>
        <time>2025-06-08T12:45:16.000Z</time>
      </trkpt>
      <trkpt lat="43.54416" lon="6.13683">
        <ele>398.2</ele>
        <time>2025-06-08T12:45:38.000Z</time>
      </trkpt>
      <trkpt lat="43.54416" lon="6.13683">
        <ele>398.2</ele>
        <time>2025-06-08T12:45:39.000Z</time>
      </trkpt>
      <trkpt lat="43.54415" lon="6.13684">
        <ele>398.2</ele>
        <time>2025-06-08T12:45:40.000Z</time>
      </trkpt>
      <trkpt lat="43.54407" lon="6.13679">
        <ele>398.3</ele>
        <time>2025-06-08T12:45:53.000Z</time>
      </trkpt>
      <trkpt lat="43.54398" lon="6.13679">
        <ele>398.3</ele>
        <time>2025-06-08T12:46:04.000Z</time>
      </trkpt>
      <trkpt lat="43.54389" lon="6.13675">
        <ele>398.5</ele>
        <time>2025-06-08T12:46:16.000Z</time>
      </trkpt>
      <trkpt lat="43.54381" lon="6.13668">
        <ele>398.5</ele>
        <time>2025-06-08T12:46:29.000Z</time>
      </trkpt>
      <trkpt lat="43.54376" lon="6.13656">
        <ele>398.7</ele>
        <time>2025-06-08T12:46:42.000Z</time>
      </trkpt>
      <trkpt lat="43.54368" lon="6.13651">
        <ele>399.1</ele>
        <time>2025-06-08T12:46:52.000Z</time>
      </trkpt>
      <trkpt lat="43.54359" lon="6.13647">
        <ele>398.8</ele>
        <time>2025-06-08T12:47:00.000Z</time>
      </trkpt>
      <trkpt lat="43.54351" lon="6.13641">
        <ele>398.6</ele>
        <time>2025-06-08T12:47:11.000Z</time>
      </trkpt>
      <trkpt lat="43.54344" lon="6.13631">
        <ele>398</ele>
        <time>2025-06-08T12:47:22.000Z</time>
      </trkpt>
      <trkpt lat="43.54339" lon="6.13621">
        <ele>396.9</ele>
        <time>2025-06-08T12:47:37.000Z</time>
      </trkpt>
      <trkpt lat="43.54332" lon="6.13613">
        <ele>396.4</ele>
        <time>2025-06-08T12:47:46.000Z</time>
      </trkpt>
      <trkpt lat="43.54325" lon="6.13604">
        <ele>395.8</ele>
        <time>2025-06-08T12:48:00.000Z</time>
      </trkpt>
      <trkpt lat="43.54316" lon="6.136">
        <ele>395.3</ele>
        <time>2025-06-08T12:48:11.000Z</time>
      </trkpt>
      <trkpt lat="43.54308" lon="6.136">
        <ele>394.5</ele>
        <time>2025-06-08T12:48:26.000Z</time>
      </trkpt>
      <trkpt lat="43.54308" lon="6.136">
        <ele>394.5</ele>
        <time>2025-06-08T12:48:27.000Z</time>
      </trkpt>
      <trkpt lat="43.54309" lon="6.13601">
        <ele>394.5</ele>
        <time>2025-06-08T12:48:28.000Z</time>
      </trkpt>
      <trkpt lat="43.54309" lon="6.13601">
        <ele>394.4</ele>
        <time>2025-06-08T12:48:29.000Z</time>
      </trkpt>
      <trkpt lat="43.5431" lon="6.13602">
        <ele>394.4</ele>
        <time>2025-06-08T12:48:30.000Z</time>
      </trkpt>
      <trkpt lat="43.54317" lon="6.13611">
        <ele>394.6</ele>
        <time>2025-06-08T12:48:39.000Z</time>
      </trkpt>
      <trkpt lat="43.5432" lon="6.13613">
        <ele>394.7</ele>
        <time>2025-06-08T12:48:46.000Z</time>
      </trkpt>
      <trkpt lat="43.5432" lon="6.13613">
        <ele>394.7</ele>
        <time>2025-06-08T12:48:47.000Z</time>
      </trkpt>
      <trkpt lat="43.5432" lon="6.13613">
        <ele>394.7</ele>
        <time>2025-06-08T12:48:48.000Z</time>
      </trkpt>
      <trkpt lat="43.5432" lon="6.13613">
        <ele>394.7</ele>
        <time>2025-06-08T12:48:49.000Z</time>
      </trkpt>
      <trkpt lat="43.5432" lon="6.13613">
        <ele>394.7</ele>
        <time>2025-06-08T12:48:50.000Z</time>
      </trkpt>
      <trkpt lat="43.5432" lon="6.13613">
        <ele>394.8</ele>
        <time>2025-06-08T12:48:51.000Z</time>
      </trkpt>
      <trkpt lat="43.5432" lon="6.13613">
        <ele>394.8</ele>
        <time>2025-06-08T12:48:52.000Z</time>
      </trkpt>
      <trkpt lat="43.54321" lon="6.13613">
        <ele>394.8</ele>
        <time>2025-06-08T12:48:53.000Z</time>
      </trkpt>
      <trkpt lat="43.54322" lon="6.13613">
        <ele>394.8</ele>
        <time>2025-06-08T12:48:54.000Z</time>
      </trkpt>
      <trkpt lat="43.54322" lon="6.13613">
        <ele>394.8</ele>
        <time>2025-06-08T12:48:55.000Z</time>
      </trkpt>
      <trkpt lat="43.54323" lon="6.13614">
        <ele>394.8</ele>
        <time>2025-06-08T12:48:56.000Z</time>
      </trkpt>
      <trkpt lat="43.54324" lon="6.13614">
        <ele>394.8</ele>
        <time>2025-06-08T12:48:57.000Z</time>
      </trkpt>
      <trkpt lat="43.54324" lon="6.13613">
        <ele>394.8</ele>
        <time>2025-06-08T12:48:58.000Z</time>
      </trkpt>
      <trkpt lat="43.54323" lon="6.13612">
        <ele>394.8</ele>
        <time>2025-06-08T12:48:59.000Z</time>
      </trkpt>
      <trkpt lat="43.54323" lon="6.1361">
        <ele>394.8</ele>
        <time>2025-06-08T12:49:00.000Z</time>
      </trkpt>
      <trkpt lat="43.54314" lon="6.13604">
        <ele>394.5</ele>
        <time>2025-06-08T12:49:08.000Z</time>
      </trkpt>
      <trkpt lat="43.54305" lon="6.13603">
        <ele>393.5</ele>
        <time>2025-06-08T12:49:17.000Z</time>
      </trkpt>
      <trkpt lat="43.54295" lon="6.136">
        <ele>392.3</ele>
        <time>2025-06-08T12:49:26.000Z</time>
      </trkpt>
      <trkpt lat="43.54286" lon="6.13601">
        <ele>392.1</ele>
        <time>2025-06-08T12:49:35.000Z</time>
      </trkpt>
      <trkpt lat="43.54277" lon="6.13601">
        <ele>391.9</ele>
        <time>2025-06-08T12:49:43.000Z</time>
      </trkpt>
      <trkpt lat="43.54268" lon="6.13603">
        <ele>391.3</ele>
        <time>2025-06-08T12:49:53.000Z</time>
      </trkpt>
      <trkpt lat="43.54258" lon="6.13603">
        <ele>389.9</ele>
        <time>2025-06-08T12:50:03.000Z</time>
      </trkpt>
      <trkpt lat="43.54249" lon="6.13605">
        <ele>389.4</ele>
        <time>2025-06-08T12:50:13.000Z</time>
      </trkpt>
      <trkpt lat="43.54239" lon="6.13607">
        <ele>388.6</ele>
        <time>2025-06-08T12:50:21.000Z</time>
      </trkpt>
      <trkpt lat="43.54229" lon="6.13603">
        <ele>388.2</ele>
        <time>2025-06-08T12:50:30.000Z</time>
      </trkpt>
      <trkpt lat="43.5422" lon="6.13603">
        <ele>387.8</ele>
        <time>2025-06-08T12:50:39.000Z</time>
      </trkpt>
      <trkpt lat="43.54211" lon="6.13598">
        <ele>387.4</ele>
        <time>2025-06-08T12:50:47.000Z</time>
      </trkpt>
      <trkpt lat="43.54201" lon="6.13596">
        <ele>386.9</ele>
        <time>2025-06-08T12:50:56.000Z</time>
      </trkpt>
      <trkpt lat="43.54192" lon="6.13596">
        <ele>386.4</ele>
        <time>2025-06-08T12:51:05.000Z</time>
      </trkpt>
      <trkpt lat="43.54182" lon="6.13597">
        <ele>386.1</ele>
        <time>2025-06-08T12:51:14.000Z</time>
      </trkpt>
      <trkpt lat="43.54173" lon="6.13598">
        <ele>385.4</ele>
        <time>2025-06-08T12:51:25.000Z</time>
      </trkpt>
      <trkpt lat="43.54164" lon="6.13601">
        <ele>385.2</ele>
        <time>2025-06-08T12:51:37.000Z</time>
      </trkpt>
      <trkpt lat="43.54155" lon="6.13601">
        <ele>385.1</ele>
        <time>2025-06-08T12:51:51.000Z</time>
      </trkpt>
      <trkpt lat="43.54155" lon="6.13601">
        <ele>385.1</ele>
        <time>2025-06-08T12:51:52.000Z</time>
      </trkpt>
      <trkpt lat="43.54155" lon="6.13601">
        <ele>385.1</ele>
        <time>2025-06-08T12:51:53.000Z</time>
      </trkpt>
      <trkpt lat="43.54155" lon="6.13601">
        <ele>385.1</ele>
        <time>2025-06-08T12:51:54.000Z</time>
      </trkpt>
      <trkpt lat="43.54155" lon="6.13601">
        <ele>385</ele>
        <time>2025-06-08T12:51:55.000Z</time>
      </trkpt>
      <trkpt lat="43.54155" lon="6.13601">
        <ele>384.9</ele>
        <time>2025-06-08T12:52:01.000Z</time>
      </trkpt>
      <trkpt lat="43.54155" lon="6.13601">
        <ele>384.9</ele>
        <time>2025-06-08T12:52:02.000Z</time>
      </trkpt>
      <trkpt lat="43.54155" lon="6.13601">
        <ele>384.9</ele>
        <time>2025-06-08T12:52:03.000Z</time>
      </trkpt>
      <trkpt lat="43.54154" lon="6.13601">
        <ele>384.9</ele>
        <time>2025-06-08T12:52:08.000Z</time>
      </trkpt>
      <trkpt lat="43.54154" lon="6.13602">
        <ele>384.9</ele>
        <time>2025-06-08T12:52:09.000Z</time>
      </trkpt>
      <trkpt lat="43.54153" lon="6.13602">
        <ele>384.8</ele>
        <time>2025-06-08T12:52:10.000Z</time>
      </trkpt>
      <trkpt lat="43.5415" lon="6.13603">
        <ele>384.8</ele>
        <time>2025-06-08T12:52:18.000Z</time>
      </trkpt>
      <trkpt lat="43.5415" lon="6.13603">
        <ele>384.8</ele>
        <time>2025-06-08T12:52:19.000Z</time>
      </trkpt>
      <trkpt lat="43.5415" lon="6.13603">
        <ele>384.8</ele>
        <time>2025-06-08T12:52:20.000Z</time>
      </trkpt>
      <trkpt lat="43.54149" lon="6.13603">
        <ele>384.6</ele>
        <time>2025-06-08T12:52:27.000Z</time>
      </trkpt>
      <trkpt lat="43.54149" lon="6.13603">
        <ele>384.6</ele>
        <time>2025-06-08T12:52:28.000Z</time>
      </trkpt>
      <trkpt lat="43.54149" lon="6.13604">
        <ele>384.5</ele>
        <time>2025-06-08T12:52:29.000Z</time>
      </trkpt>
      <trkpt lat="43.54149" lon="6.13604">
        <ele>384.5</ele>
        <time>2025-06-08T12:52:30.000Z</time>
      </trkpt>
      <trkpt lat="43.54149" lon="6.13604">
        <ele>384.5</ele>
        <time>2025-06-08T12:52:31.000Z</time>
      </trkpt>
      <trkpt lat="43.54149" lon="6.13604">
        <ele>384.5</ele>
        <time>2025-06-08T12:52:32.000Z</time>
      </trkpt>
      <trkpt lat="43.54149" lon="6.13604">
        <ele>384.5</ele>
        <time>2025-06-08T12:52:33.000Z</time>
      </trkpt>
      <trkpt lat="43.54149" lon="6.13603">
        <ele>384.5</ele>
        <time>2025-06-08T12:52:34.000Z</time>
      </trkpt>
      <trkpt lat="43.5415" lon="6.13603">
        <ele>384.5</ele>
        <time>2025-06-08T12:52:35.000Z</time>
      </trkpt>
      <trkpt lat="43.54149" lon="6.13603">
        <ele>384.4</ele>
        <time>2025-06-08T12:52:49.000Z</time>
      </trkpt>
      <trkpt lat="43.54149" lon="6.13603">
        <ele>384.4</ele>
        <time>2025-06-08T12:52:50.000Z</time>
      </trkpt>
      <trkpt lat="43.54149" lon="6.13603">
        <ele>384.4</ele>
        <time>2025-06-08T12:52:51.000Z</time>
      </trkpt>
      <trkpt lat="43.54142" lon="6.13595">
        <ele>384.3</ele>
        <time>2025-06-08T12:53:07.000Z</time>
      </trkpt>
      <trkpt lat="43.54135" lon="6.13587">
        <ele>383.9</ele>
        <time>2025-06-08T12:53:19.000Z</time>
      </trkpt>
      <trkpt lat="43.54129" lon="6.13577">
        <ele>383.2</ele>
        <time>2025-06-08T12:53:30.000Z</time>
      </trkpt>
      <trkpt lat="43.54132" lon="6.13564">
        <ele>382.4</ele>
        <time>2025-06-08T12:53:41.000Z</time>
      </trkpt>
      <trkpt lat="43.54137" lon="6.13554">
        <ele>381.5</ele>
        <time>2025-06-08T12:53:50.000Z</time>
      </trkpt>
      <trkpt lat="43.54134" lon="6.13552">
        <ele>380.9</ele>
        <time>2025-06-08T12:53:57.000Z</time>
      </trkpt>
      <trkpt lat="43.54134" lon="6.13552">
        <ele>380.8</ele>
        <time>2025-06-08T12:53:58.000Z</time>
      </trkpt>
      <trkpt lat="43.54132" lon="6.13555">
        <ele>380.2</ele>
        <time>2025-06-08T12:54:16.000Z</time>
      </trkpt>
      <trkpt lat="43.54131" lon="6.13556">
        <ele>380.2</ele>
        <time>2025-06-08T12:54:17.000Z</time>
      </trkpt>
      <trkpt lat="43.5413" lon="6.13556">
        <ele>380.2</ele>
        <time>2025-06-08T12:54:18.000Z</time>
      </trkpt>
      <trkpt lat="43.54121" lon="6.13555">
        <ele>379.9</ele>
        <time>2025-06-08T12:54:33.000Z</time>
      </trkpt>
      <trkpt lat="43.54113" lon="6.13562">
        <ele>379.8</ele>
        <time>2025-06-08T12:54:47.000Z</time>
      </trkpt>
      <trkpt lat="43.54106" lon="6.13572">
        <ele>379.6</ele>
        <time>2025-06-08T12:55:00.000Z</time>
      </trkpt>
      <trkpt lat="43.54099" lon="6.13581">
        <ele>379.2</ele>
        <time>2025-06-08T12:55:16.000Z</time>
      </trkpt>
      <trkpt lat="43.54093" lon="6.1359">
        <ele>379</ele>
        <time>2025-06-08T12:55:28.000Z</time>
      </trkpt>
      <trkpt lat="43.54086" lon="6.13601">
        <ele>379.1</ele>
        <time>2025-06-08T12:55:37.000Z</time>
      </trkpt>
      <trkpt lat="43.54082" lon="6.13612">
        <ele>379.5</ele>
        <time>2025-06-08T12:55:48.000Z</time>
      </trkpt>
      <trkpt lat="43.54077" lon="6.13623">
        <ele>379.9</ele>
        <time>2025-06-08T12:55:58.000Z</time>
      </trkpt>
      <trkpt lat="43.54072" lon="6.13634">
        <ele>379.9</ele>
        <time>2025-06-08T12:56:10.000Z</time>
      </trkpt>
      <trkpt lat="43.54069" lon="6.1364">
        <ele>379.8</ele>
        <time>2025-06-08T12:56:18.000Z</time>
      </trkpt>
      <trkpt lat="43.5407" lon="6.13641">
        <ele>379.7</ele>
        <time>2025-06-08T12:56:19.000Z</time>
      </trkpt>
      <trkpt lat="43.54069" lon="6.13641">
        <ele>379.8</ele>
        <time>2025-06-08T12:56:20.000Z</time>
      </trkpt>
      <trkpt lat="43.54069" lon="6.13642">
        <ele>379.7</ele>
        <time>2025-06-08T12:56:21.000Z</time>
      </trkpt>
      <trkpt lat="43.54069" lon="6.13643">
        <ele>379.7</ele>
        <time>2025-06-08T12:56:22.000Z</time>
      </trkpt>
      <trkpt lat="43.54069" lon="6.13643">
        <ele>379.7</ele>
        <time>2025-06-08T12:56:23.000Z</time>
      </trkpt>
      <trkpt lat="43.54069" lon="6.13643">
        <ele>379.7</ele>
        <time>2025-06-08T12:56:24.000Z</time>
      </trkpt>
      <trkpt lat="43.54069" lon="6.13643">
        <ele>379.8</ele>
        <time>2025-06-08T12:56:25.000Z</time>
      </trkpt>
      <trkpt lat="43.54069" lon="6.13643">
        <ele>379.8</ele>
        <time>2025-06-08T12:56:26.000Z</time>
      </trkpt>
      <trkpt lat="43.54069" lon="6.13644">
        <ele>379.6</ele>
        <time>2025-06-08T12:56:36.000Z</time>
      </trkpt>
      <trkpt lat="43.54069" lon="6.13645">
        <ele>379.6</ele>
        <time>2025-06-08T12:56:37.000Z</time>
      </trkpt>
      <trkpt lat="43.54069" lon="6.13645">
        <ele>379.5</ele>
        <time>2025-06-08T12:56:38.000Z</time>
      </trkpt>
      <trkpt lat="43.54063" lon="6.13656">
        <ele>379.2</ele>
        <time>2025-06-08T12:56:51.000Z</time>
      </trkpt>
      <trkpt lat="43.54059" lon="6.13667">
        <ele>378.6</ele>
        <time>2025-06-08T12:57:00.000Z</time>
      </trkpt>
      <trkpt lat="43.54054" lon="6.13678">
        <ele>378.2</ele>
        <time>2025-06-08T12:57:11.000Z</time>
      </trkpt>
      <trkpt lat="43.54053" lon="6.13691">
        <ele>377.7</ele>
        <time>2025-06-08T12:57:26.000Z</time>
      </trkpt>
      <trkpt lat="43.54049" lon="6.13702">
        <ele>377.5</ele>
        <time>2025-06-08T12:57:35.000Z</time>
      </trkpt>
      <trkpt lat="43.54045" lon="6.13714">
        <ele>377.4</ele>
        <time>2025-06-08T12:57:43.000Z</time>
      </trkpt>
      <trkpt lat="43.54041" lon="6.13727">
        <ele>377.1</ele>
        <time>2025-06-08T12:57:52.000Z</time>
      </trkpt>
      <trkpt lat="43.54036" lon="6.13738">
        <ele>377.1</ele>
        <time>2025-06-08T12:58:02.000Z</time>
      </trkpt>
      <trkpt lat="43.54034" lon="6.1375">
        <ele>377.1</ele>
        <time>2025-06-08T12:58:10.000Z</time>
      </trkpt>
      <trkpt lat="43.54029" lon="6.13763">
        <ele>377.1</ele>
        <time>2025-06-08T12:58:21.000Z</time>
      </trkpt>
      <trkpt lat="43.54024" lon="6.13773">
        <ele>377.1</ele>
        <time>2025-06-08T12:58:31.000Z</time>
      </trkpt>
      <trkpt lat="43.54017" lon="6.13782">
        <ele>376.9</ele>
        <time>2025-06-08T12:58:41.000Z</time>
      </trkpt>
      <trkpt lat="43.5401" lon="6.1379">
        <ele>376.6</ele>
        <time>2025-06-08T12:58:52.000Z</time>
      </trkpt>
      <trkpt lat="43.54008" lon="6.13803">
        <ele>376.4</ele>
        <time>2025-06-08T12:59:04.000Z</time>
      </trkpt>
      <trkpt lat="43.54" lon="6.13809">
        <ele>376.5</ele>
        <time>2025-06-08T12:59:14.000Z</time>
      </trkpt>
      <trkpt lat="43.53999" lon="6.13809">
        <ele>376.4</ele>
        <time>2025-06-08T12:59:18.000Z</time>
      </trkpt>
      <trkpt lat="43.53998" lon="6.13809">
        <ele>376.4</ele>
        <time>2025-06-08T12:59:19.000Z</time>
      </trkpt>
      <trkpt lat="43.53997" lon="6.1381">
        <ele>376.4</ele>
        <time>2025-06-08T12:59:20.000Z</time>
      </trkpt>
      <trkpt lat="43.53996" lon="6.13811">
        <ele>376.4</ele>
        <time>2025-06-08T12:59:21.000Z</time>
      </trkpt>
      <trkpt lat="43.53996" lon="6.13811">
        <ele>376.4</ele>
        <time>2025-06-08T12:59:22.000Z</time>
      </trkpt>
      <trkpt lat="43.53988" lon="6.13818">
        <ele>376.4</ele>
        <time>2025-06-08T12:59:31.000Z</time>
      </trkpt>
      <trkpt lat="43.5398" lon="6.13824">
        <ele>376.4</ele>
        <time>2025-06-08T12:59:39.000Z</time>
      </trkpt>
      <trkpt lat="43.53972" lon="6.13832">
        <ele>376.4</ele>
        <time>2025-06-08T12:59:47.000Z</time>
      </trkpt>
      <trkpt lat="43.53963" lon="6.13837">
        <ele>376.4</ele>
        <time>2025-06-08T12:59:57.000Z</time>
      </trkpt>
      <trkpt lat="43.53954" lon="6.13832">
        <ele>376.2</ele>
        <time>2025-06-08T13:00:10.000Z</time>
      </trkpt>
      <trkpt lat="43.53945" lon="6.13829">
        <ele>375.6</ele>
        <time>2025-06-08T13:00:21.000Z</time>
      </trkpt>
      <trkpt lat="43.53934" lon="6.13829">
        <ele>375.2</ele>
        <time>2025-06-08T13:00:31.000Z</time>
      </trkpt>
      <trkpt lat="43.53925" lon="6.13828">
        <ele>375</ele>
        <time>2025-06-08T13:00:39.000Z</time>
      </trkpt>
      <trkpt lat="43.53916" lon="6.13826">
        <ele>375</ele>
        <time>2025-06-08T13:00:49.000Z</time>
      </trkpt>
      <trkpt lat="43.53907" lon="6.13822">
        <ele>375</ele>
        <time>2025-06-08T13:00:55.000Z</time>
      </trkpt>
      <trkpt lat="43.53898" lon="6.13826">
        <ele>375.2</ele>
        <time>2025-06-08T13:01:05.000Z</time>
      </trkpt>
      <trkpt lat="43.53889" lon="6.13829">
        <ele>375.2</ele>
        <time>2025-06-08T13:01:14.000Z</time>
      </trkpt>
      <trkpt lat="43.53881" lon="6.13834">
        <ele>375.1</ele>
        <time>2025-06-08T13:01:23.000Z</time>
      </trkpt>
      <trkpt lat="43.53872" lon="6.13837">
        <ele>375</ele>
        <time>2025-06-08T13:01:32.000Z</time>
      </trkpt>
      <trkpt lat="43.53863" lon="6.13841">
        <ele>375</ele>
        <time>2025-06-08T13:01:41.000Z</time>
      </trkpt>
      <trkpt lat="43.53854" lon="6.13846">
        <ele>374.9</ele>
        <time>2025-06-08T13:01:49.000Z</time>
      </trkpt>
      <trkpt lat="43.53845" lon="6.1385">
        <ele>375.1</ele>
        <time>2025-06-08T13:01:58.000Z</time>
      </trkpt>
      <trkpt lat="43.53843" lon="6.13852">
        <ele>375.1</ele>
        <time>2025-06-08T13:02:04.000Z</time>
      </trkpt>
      <trkpt lat="43.53845" lon="6.13856">
        <ele>375.1</ele>
        <time>2025-06-08T13:02:05.000Z</time>
      </trkpt>
      <trkpt lat="43.53845" lon="6.13856">
        <ele>375.1</ele>
        <time>2025-06-08T13:02:06.000Z</time>
      </trkpt>
      <trkpt lat="43.53842" lon="6.13855">
        <ele>375.1</ele>
        <time>2025-06-08T13:02:19.000Z</time>
      </trkpt>
      <trkpt lat="43.53842" lon="6.13856">
        <ele>375.1</ele>
        <time>2025-06-08T13:02:20.000Z</time>
      </trkpt>
      <trkpt lat="43.53833" lon="6.13863">
        <ele>375.2</ele>
        <time>2025-06-08T13:02:38.000Z</time>
      </trkpt>
      <trkpt lat="43.53827" lon="6.13873">
        <ele>375.2</ele>
        <time>2025-06-08T13:02:47.000Z</time>
      </trkpt>
      <trkpt lat="43.53822" lon="6.13885">
        <ele>375.3</ele>
        <time>2025-06-08T13:02:57.000Z</time>
      </trkpt>
      <trkpt lat="43.53815" lon="6.13895">
        <ele>375.3</ele>
        <time>2025-06-08T13:03:07.000Z</time>
      </trkpt>
      <trkpt lat="43.53808" lon="6.13903">
        <ele>375.3</ele>
        <time>2025-06-08T13:03:17.000Z</time>
      </trkpt>
      <trkpt lat="43.53801" lon="6.13912">
        <ele>375.1</ele>
        <time>2025-06-08T13:03:27.000Z</time>
      </trkpt>
      <trkpt lat="43.53793" lon="6.13919">
        <ele>374.8</ele>
        <time>2025-06-08T13:03:38.000Z</time>
      </trkpt>
      <trkpt lat="43.53784" lon="6.13925">
        <ele>374</ele>
        <time>2025-06-08T13:03:47.000Z</time>
      </trkpt>
      <trkpt lat="43.53776" lon="6.1393">
        <ele>373.2</ele>
        <time>2025-06-08T13:03:58.000Z</time>
      </trkpt>
      <trkpt lat="43.53767" lon="6.13935">
        <ele>372.6</ele>
        <time>2025-06-08T13:04:08.000Z</time>
      </trkpt>
      <trkpt lat="43.53758" lon="6.13938">
        <ele>372.3</ele>
        <time>2025-06-08T13:04:17.000Z</time>
      </trkpt>
      <trkpt lat="43.53748" lon="6.13943">
        <ele>372.1</ele>
        <time>2025-06-08T13:04:25.000Z</time>
      </trkpt>
      <trkpt lat="43.53742" lon="6.13952">
        <ele>371.5</ele>
        <time>2025-06-08T13:04:36.000Z</time>
      </trkpt>
      <trkpt lat="43.53732" lon="6.13955">
        <ele>370.9</ele>
        <time>2025-06-08T13:04:46.000Z</time>
      </trkpt>
      <trkpt lat="43.53725" lon="6.13963">
        <ele>369.9</ele>
        <time>2025-06-08T13:04:58.000Z</time>
      </trkpt>
      <trkpt lat="43.5372" lon="6.13974">
        <ele>369.3</ele>
        <time>2025-06-08T13:05:09.000Z</time>
      </trkpt>
      <trkpt lat="43.53719" lon="6.13986">
        <ele>368.7</ele>
        <time>2025-06-08T13:05:19.000Z</time>
      </trkpt>
      <trkpt lat="43.53719" lon="6.13987">
        <ele>368.6</ele>
        <time>2025-06-08T13:05:23.000Z</time>
      </trkpt>
      <trkpt lat="43.53719" lon="6.13987">
        <ele>368.5</ele>
        <time>2025-06-08T13:05:24.000Z</time>
      </trkpt>
      <trkpt lat="43.53719" lon="6.13987">
        <ele>368.5</ele>
        <time>2025-06-08T13:05:25.000Z</time>
      </trkpt>
      <trkpt lat="43.53719" lon="6.1399">
        <ele>368.4</ele>
        <time>2025-06-08T13:05:29.000Z</time>
      </trkpt>
      <trkpt lat="43.53718" lon="6.1399">
        <ele>368.3</ele>
        <time>2025-06-08T13:05:30.000Z</time>
      </trkpt>
      <trkpt lat="43.53718" lon="6.1399">
        <ele>368.3</ele>
        <time>2025-06-08T13:05:31.000Z</time>
      </trkpt>
      <trkpt lat="43.53718" lon="6.13991">
        <ele>368.2</ele>
        <time>2025-06-08T13:05:36.000Z</time>
      </trkpt>
      <trkpt lat="43.53718" lon="6.13991">
        <ele>368.2</ele>
        <time>2025-06-08T13:05:37.000Z</time>
      </trkpt>
      <trkpt lat="43.53718" lon="6.13991">
        <ele>368.2</ele>
        <time>2025-06-08T13:05:38.000Z</time>
      </trkpt>
      <trkpt lat="43.53718" lon="6.13991">
        <ele>368.2</ele>
        <time>2025-06-08T13:05:39.000Z</time>
      </trkpt>
      <trkpt lat="43.53718" lon="6.13991">
        <ele>368.2</ele>
        <time>2025-06-08T13:05:40.000Z</time>
      </trkpt>
      <trkpt lat="43.53718" lon="6.13991">
        <ele>368.3</ele>
        <time>2025-06-08T13:05:41.000Z</time>
      </trkpt>
      <trkpt lat="43.53718" lon="6.13991">
        <ele>368.3</ele>
        <time>2025-06-08T13:05:42.000Z</time>
      </trkpt>
      <trkpt lat="43.53718" lon="6.13991">
        <ele>368.3</ele>
        <time>2025-06-08T13:05:43.000Z</time>
      </trkpt>
      <trkpt lat="43.53715" lon="6.13993">
        <ele>368.3</ele>
        <time>2025-06-08T13:06:07.000Z</time>
      </trkpt>
      <trkpt lat="43.53714" lon="6.13994">
        <ele>368.3</ele>
        <time>2025-06-08T13:06:08.000Z</time>
      </trkpt>
      <trkpt lat="43.53715" lon="6.13998">
        <ele>368.2</ele>
        <time>2025-06-08T13:06:13.000Z</time>
      </trkpt>
      <trkpt lat="43.53715" lon="6.13998">
        <ele>368.2</ele>
        <time>2025-06-08T13:06:14.000Z</time>
      </trkpt>
      <trkpt lat="43.53715" lon="6.13998">
        <ele>368.2</ele>
        <time>2025-06-08T13:06:15.000Z</time>
      </trkpt>
      <trkpt lat="43.53715" lon="6.14002">
        <ele>368.2</ele>
        <time>2025-06-08T13:06:22.000Z</time>
      </trkpt>
      <trkpt lat="43.53715" lon="6.14004">
        <ele>368.2</ele>
        <time>2025-06-08T13:06:23.000Z</time>
      </trkpt>
      <trkpt lat="43.53711" lon="6.14017">
        <ele>368.1</ele>
        <time>2025-06-08T13:06:31.000Z</time>
      </trkpt>
      <trkpt lat="43.53707" lon="6.14028">
        <ele>368</ele>
        <time>2025-06-08T13:06:41.000Z</time>
      </trkpt>
      <trkpt lat="43.53703" lon="6.1404">
        <ele>367.5</ele>
        <time>2025-06-08T13:06:53.000Z</time>
      </trkpt>
      <trkpt lat="43.53697" lon="6.14049">
        <ele>367.1</ele>
        <time>2025-06-08T13:07:04.000Z</time>
      </trkpt>
      <trkpt lat="43.53691" lon="6.14061">
        <ele>366.8</ele>
        <time>2025-06-08T13:07:14.000Z</time>
      </trkpt>
      <trkpt lat="43.53684" lon="6.14068">
        <ele>366.5</ele>
        <time>2025-06-08T13:07:24.000Z</time>
      </trkpt>
      <trkpt lat="43.53676" lon="6.14076">
        <ele>366.4</ele>
        <time>2025-06-08T13:07:35.000Z</time>
      </trkpt>
      <trkpt lat="43.53669" lon="6.14084">
        <ele>366.1</ele>
        <time>2025-06-08T13:07:45.000Z</time>
      </trkpt>
      <trkpt lat="43.53661" lon="6.14089">
        <ele>365.9</ele>
        <time>2025-06-08T13:07:54.000Z</time>
      </trkpt>
      <trkpt lat="43.53654" lon="6.14098">
        <ele>365.9</ele>
        <time>2025-06-08T13:08:04.000Z</time>
      </trkpt>
      <trkpt lat="43.53645" lon="6.14104">
        <ele>366</ele>
        <time>2025-06-08T13:08:17.000Z</time>
      </trkpt>
      <trkpt lat="43.53637" lon="6.14111">
        <ele>366</ele>
        <time>2025-06-08T13:08:27.000Z</time>
      </trkpt>
      <trkpt lat="43.53632" lon="6.14122">
        <ele>365.7</ele>
        <time>2025-06-08T13:08:35.000Z</time>
      </trkpt>
      <trkpt lat="43.53624" lon="6.14129">
        <ele>365.4</ele>
        <time>2025-06-08T13:08:47.000Z</time>
      </trkpt>
      <trkpt lat="43.53616" lon="6.14136">
        <ele>365.1</ele>
        <time>2025-06-08T13:08:57.000Z</time>
      </trkpt>
      <trkpt lat="43.53606" lon="6.14139">
        <ele>364.3</ele>
        <time>2025-06-08T13:09:08.000Z</time>
      </trkpt>
      <trkpt lat="43.53599" lon="6.14149">
        <ele>363.8</ele>
        <time>2025-06-08T13:09:17.000Z</time>
      </trkpt>
      <trkpt lat="43.53593" lon="6.14159">
        <ele>363.4</ele>
        <time>2025-06-08T13:09:25.000Z</time>
      </trkpt>
      <trkpt lat="43.53587" lon="6.14168">
        <ele>363.3</ele>
        <time>2025-06-08T13:09:33.000Z</time>
      </trkpt>
      <trkpt lat="43.53579" lon="6.14176">
        <ele>363.2</ele>
        <time>2025-06-08T13:09:42.000Z</time>
      </trkpt>
      <trkpt lat="43.5357" lon="6.1418">
        <ele>362.8</ele>
        <time>2025-06-08T13:09:52.000Z</time>
      </trkpt>
      <trkpt lat="43.53562" lon="6.14183">
        <ele>362.8</ele>
        <time>2025-06-08T13:10:05.000Z</time>
      </trkpt>
      <trkpt lat="43.53553" lon="6.14177">
        <ele>362.5</ele>
        <time>2025-06-08T13:10:21.000Z</time>
      </trkpt>
      <trkpt lat="43.53544" lon="6.14179">
        <ele>362.1</ele>
        <time>2025-06-08T13:10:32.000Z</time>
      </trkpt>
      <trkpt lat="43.53534" lon="6.14181">
        <ele>361.8</ele>
        <time>2025-06-08T13:10:43.000Z</time>
      </trkpt>
      <trkpt lat="43.53525" lon="6.14185">
        <ele>361.7</ele>
        <time>2025-06-08T13:10:55.000Z</time>
      </trkpt>
      <trkpt lat="43.53516" lon="6.14189">
        <ele>361.8</ele>
        <time>2025-06-08T13:11:05.000Z</time>
      </trkpt>
      <trkpt lat="43.53508" lon="6.14193">
        <ele>361.9</ele>
        <time>2025-06-08T13:11:13.000Z</time>
      </trkpt>
      <trkpt lat="43.53499" lon="6.14199">
        <ele>362</ele>
        <time>2025-06-08T13:11:24.000Z</time>
      </trkpt>
      <trkpt lat="43.53492" lon="6.14205">
        <ele>362</ele>
        <time>2025-06-08T13:11:33.000Z</time>
      </trkpt>
      <trkpt lat="43.53482" lon="6.14208">
        <ele>362.1</ele>
        <time>2025-06-08T13:11:43.000Z</time>
      </trkpt>
      <trkpt lat="43.53473" lon="6.14212">
        <ele>362.1</ele>
        <time>2025-06-08T13:11:55.000Z</time>
      </trkpt>
      <trkpt lat="43.53466" lon="6.14221">
        <ele>362.1</ele>
        <time>2025-06-08T13:12:08.000Z</time>
      </trkpt>
      <trkpt lat="43.53459" lon="6.14229">
        <ele>361.8</ele>
        <time>2025-06-08T13:12:19.000Z</time>
      </trkpt>
      <trkpt lat="43.5345" lon="6.14233">
        <ele>361.4</ele>
        <time>2025-06-08T13:12:30.000Z</time>
      </trkpt>
      <trkpt lat="43.53441" lon="6.14231">
        <ele>361.1</ele>
        <time>2025-06-08T13:12:42.000Z</time>
      </trkpt>
      <trkpt lat="43.53431" lon="6.1423">
        <ele>361</ele>
        <time>2025-06-08T13:12:54.000Z</time>
      </trkpt>
      <trkpt lat="43.53422" lon="6.14236">
        <ele>360.4</ele>
        <time>2025-06-08T13:13:10.000Z</time>
      </trkpt>
      <trkpt lat="43.53419" lon="6.14247">
        <ele>359.6</ele>
        <time>2025-06-08T13:13:21.000Z</time>
      </trkpt>
      <trkpt lat="43.53418" lon="6.1425">
        <ele>359.1</ele>
        <time>2025-06-08T13:13:27.000Z</time>
      </trkpt>
      <trkpt lat="43.53418" lon="6.1425">
        <ele>359</ele>
        <time>2025-06-08T13:13:28.000Z</time>
      </trkpt>
      <trkpt lat="43.53418" lon="6.14249">
        <ele>359</ele>
        <time>2025-06-08T13:13:29.000Z</time>
      </trkpt>
      <trkpt lat="43.53418" lon="6.14249">
        <ele>358.9</ele>
        <time>2025-06-08T13:13:30.000Z</time>
      </trkpt>
      <trkpt lat="43.53417" lon="6.14253">
        <ele>358.4</ele>
        <time>2025-06-08T13:13:41.000Z</time>
      </trkpt>
      <trkpt lat="43.53417" lon="6.14253">
        <ele>358.3</ele>
        <time>2025-06-08T13:13:42.000Z</time>
      </trkpt>
      <trkpt lat="43.53419" lon="6.14257">
        <ele>357.7</ele>
        <time>2025-06-08T13:14:14.000Z</time>
      </trkpt>
      <trkpt lat="43.53419" lon="6.14256">
        <ele>357.7</ele>
        <time>2025-06-08T13:14:15.000Z</time>
      </trkpt>
      <trkpt lat="43.53416" lon="6.14249">
        <ele>357.6</ele>
        <time>2025-06-08T13:14:24.000Z</time>
      </trkpt>
      <trkpt lat="43.53416" lon="6.14249">
        <ele>357.6</ele>
        <time>2025-06-08T13:14:25.000Z</time>
      </trkpt>
      <trkpt lat="43.53414" lon="6.1425">
        <ele>357.6</ele>
        <time>2025-06-08T13:14:28.000Z</time>
      </trkpt>
      <trkpt lat="43.53414" lon="6.14249">
        <ele>357.6</ele>
        <time>2025-06-08T13:14:29.000Z</time>
      </trkpt>
      <trkpt lat="43.53413" lon="6.14249">
        <ele>357.5</ele>
        <time>2025-06-08T13:14:30.000Z</time>
      </trkpt>
      <trkpt lat="43.53404" lon="6.14249">
        <ele>357.2</ele>
        <time>2025-06-08T13:14:40.000Z</time>
      </trkpt>
      <trkpt lat="43.53395" lon="6.14244">
        <ele>355.9</ele>
        <time>2025-06-08T13:14:52.000Z</time>
      </trkpt>
      <trkpt lat="43.53395" lon="6.14244">
        <ele>355.2</ele>
        <time>2025-06-08T13:14:56.000Z</time>
      </trkpt>
      <trkpt lat="43.53395" lon="6.14243">
        <ele>355.1</ele>
        <time>2025-06-08T13:14:57.000Z</time>
      </trkpt>
      <trkpt lat="43.53394" lon="6.14242">
        <ele>355.3</ele>
        <time>2025-06-08T13:15:18.000Z</time>
      </trkpt>
      <trkpt lat="43.53394" lon="6.14242">
        <ele>355.2</ele>
        <time>2025-06-08T13:15:19.000Z</time>
      </trkpt>
      <trkpt lat="43.53394" lon="6.14242">
        <ele>355.2</ele>
        <time>2025-06-08T13:15:20.000Z</time>
      </trkpt>
      <trkpt lat="43.5339" lon="6.14229">
        <ele>354.7</ele>
        <time>2025-06-08T13:15:36.000Z</time>
      </trkpt>
      <trkpt lat="43.53382" lon="6.14224">
        <ele>353.7</ele>
        <time>2025-06-08T13:15:45.000Z</time>
      </trkpt>
      <trkpt lat="43.53376" lon="6.14226">
        <ele>352.5</ele>
        <time>2025-06-08T13:15:56.000Z</time>
      </trkpt>
      <trkpt lat="43.53376" lon="6.14226">
        <ele>352.5</ele>
        <time>2025-06-08T13:15:57.000Z</time>
      </trkpt>
      <trkpt lat="43.53374" lon="6.14225">
        <ele>352</ele>
        <time>2025-06-08T13:16:03.000Z</time>
      </trkpt>
      <trkpt lat="43.53374" lon="6.14225">
        <ele>351.9</ele>
        <time>2025-06-08T13:16:04.000Z</time>
      </trkpt>
      <trkpt lat="43.53374" lon="6.14224">
        <ele>351.9</ele>
        <time>2025-06-08T13:16:05.000Z</time>
      </trkpt>
      <trkpt lat="43.53374" lon="6.14224">
        <ele>351.9</ele>
        <time>2025-06-08T13:16:06.000Z</time>
      </trkpt>
      <trkpt lat="43.53374" lon="6.14224">
        <ele>351.9</ele>
        <time>2025-06-08T13:16:07.000Z</time>
      </trkpt>
      <trkpt lat="43.53373" lon="6.14223">
        <ele>351.8</ele>
        <time>2025-06-08T13:16:11.000Z</time>
      </trkpt>
      <trkpt lat="43.53373" lon="6.14223">
        <ele>351.8</ele>
        <time>2025-06-08T13:16:12.000Z</time>
      </trkpt>
      <trkpt lat="43.53364" lon="6.14224">
        <ele>351.6</ele>
        <time>2025-06-08T13:16:19.000Z</time>
      </trkpt>
      <trkpt lat="43.53367" lon="6.14236">
        <ele>351.4</ele>
        <time>2025-06-08T13:16:27.000Z</time>
      </trkpt>
      <trkpt lat="43.53373" lon="6.14246">
        <ele>350.9</ele>
        <time>2025-06-08T13:16:38.000Z</time>
      </trkpt>
      <trkpt lat="43.53378" lon="6.14257">
        <ele>350.2</ele>
        <time>2025-06-08T13:16:46.000Z</time>
      </trkpt>
      <trkpt lat="43.53382" lon="6.14268">
        <ele>350</ele>
        <time>2025-06-08T13:16:54.000Z</time>
      </trkpt>
      <trkpt lat="43.53385" lon="6.1428">
        <ele>349.7</ele>
        <time>2025-06-08T13:17:03.000Z</time>
      </trkpt>
      <trkpt lat="43.5339" lon="6.14291">
        <ele>349.1</ele>
        <time>2025-06-08T13:17:13.000Z</time>
      </trkpt>
      <trkpt lat="43.53396" lon="6.14301">
        <ele>348.4</ele>
        <time>2025-06-08T13:17:23.000Z</time>
      </trkpt>
      <trkpt lat="43.5339" lon="6.14291">
        <ele>346.7</ele>
        <time>2025-06-08T13:17:53.000Z</time>
      </trkpt>
      <trkpt lat="43.53382" lon="6.14296">
        <ele>345.9</ele>
        <time>2025-06-08T13:18:01.000Z</time>
      </trkpt>
      <trkpt lat="43.53381" lon="6.14308">
        <ele>343.8</ele>
        <time>2025-06-08T13:18:13.000Z</time>
      </trkpt>
      <trkpt lat="43.53374" lon="6.14318">
        <ele>342.6</ele>
        <time>2025-06-08T13:18:22.000Z</time>
      </trkpt>
      <trkpt lat="43.53367" lon="6.14328">
        <ele>341.8</ele>
        <time>2025-06-08T13:18:30.000Z</time>
      </trkpt>
      <trkpt lat="43.53365" lon="6.14332">
        <ele>340.6</ele>
        <time>2025-06-08T13:18:41.000Z</time>
      </trkpt>
      <trkpt lat="43.53365" lon="6.14332">
        <ele>340.5</ele>
        <time>2025-06-08T13:18:42.000Z</time>
      </trkpt>
      <trkpt lat="43.53363" lon="6.14334">
        <ele>340.1</ele>
        <time>2025-06-08T13:18:49.000Z</time>
      </trkpt>
      <trkpt lat="43.53363" lon="6.14335">
        <ele>340.1</ele>
        <time>2025-06-08T13:18:50.000Z</time>
      </trkpt>
      <trkpt lat="43.53358" lon="6.14346">
        <ele>339.5</ele>
        <time>2025-06-08T13:18:59.000Z</time>
      </trkpt>
      <trkpt lat="43.53352" lon="6.14356">
        <ele>337.9</ele>
        <time>2025-06-08T13:19:10.000Z</time>
      </trkpt>
      <trkpt lat="43.53344" lon="6.14362">
        <ele>336</ele>
        <time>2025-06-08T13:19:21.000Z</time>
      </trkpt>
      <trkpt lat="43.53339" lon="6.1436">
        <ele>335.4</ele>
        <time>2025-06-08T13:19:36.000Z</time>
      </trkpt>
      <trkpt lat="43.53339" lon="6.1436">
        <ele>335.4</ele>
        <time>2025-06-08T13:19:37.000Z</time>
      </trkpt>
      <trkpt lat="43.53339" lon="6.14362">
        <ele>335.4</ele>
        <time>2025-06-08T13:19:41.000Z</time>
      </trkpt>
      <trkpt lat="43.5334" lon="6.14362">
        <ele>335.4</ele>
        <time>2025-06-08T13:19:42.000Z</time>
      </trkpt>
      <trkpt lat="43.5334" lon="6.14362">
        <ele>335.4</ele>
        <time>2025-06-08T13:19:43.000Z</time>
      </trkpt>
      <trkpt lat="43.5334" lon="6.14362">
        <ele>335.4</ele>
        <time>2025-06-08T13:19:44.000Z</time>
      </trkpt>
      <trkpt lat="43.5334" lon="6.14362">
        <ele>335.4</ele>
        <time>2025-06-08T13:19:45.000Z</time>
      </trkpt>
      <trkpt lat="43.5334" lon="6.14363">
        <ele>335.4</ele>
        <time>2025-06-08T13:19:48.000Z</time>
      </trkpt>
      <trkpt lat="43.5334" lon="6.14363">
        <ele>335.4</ele>
        <time>2025-06-08T13:19:49.000Z</time>
      </trkpt>
      <trkpt lat="43.53341" lon="6.14363">
        <ele>335.4</ele>
        <time>2025-06-08T13:19:50.000Z</time>
      </trkpt>
      <trkpt lat="43.5335" lon="6.14364">
        <ele>335.5</ele>
        <time>2025-06-08T13:20:07.000Z</time>
      </trkpt>
      <trkpt lat="43.53356" lon="6.14354">
        <ele>335.9</ele>
        <time>2025-06-08T13:20:16.000Z</time>
      </trkpt>
      <trkpt lat="43.53357" lon="6.14349">
        <ele>336.7</ele>
        <time>2025-06-08T13:20:26.000Z</time>
      </trkpt>
      <trkpt lat="43.53357" lon="6.14349">
        <ele>336.7</ele>
        <time>2025-06-08T13:20:27.000Z</time>
      </trkpt>
      <trkpt lat="43.53357" lon="6.14349">
        <ele>336.8</ele>
        <time>2025-06-08T13:20:28.000Z</time>
      </trkpt>
      <trkpt lat="43.53357" lon="6.14349">
        <ele>336.9</ele>
        <time>2025-06-08T13:20:29.000Z</time>
      </trkpt>
      <trkpt lat="43.53357" lon="6.14349">
        <ele>337</ele>
        <time>2025-06-08T13:20:30.000Z</time>
      </trkpt>
      <trkpt lat="43.53357" lon="6.14349">
        <ele>337</ele>
        <time>2025-06-08T13:20:31.000Z</time>
      </trkpt>
      <trkpt lat="43.53357" lon="6.14349">
        <ele>337.1</ele>
        <time>2025-06-08T13:20:32.000Z</time>
      </trkpt>
      <trkpt lat="43.53357" lon="6.14349">
        <ele>337.1</ele>
        <time>2025-06-08T13:20:33.000Z</time>
      </trkpt>
      <trkpt lat="43.53357" lon="6.14348">
        <ele>337.4</ele>
        <time>2025-06-08T13:20:51.000Z</time>
      </trkpt>
      <trkpt lat="43.53357" lon="6.14348">
        <ele>337.4</ele>
        <time>2025-06-08T13:20:52.000Z</time>
      </trkpt>
      <trkpt lat="43.53357" lon="6.14348">
        <ele>337.4</ele>
        <time>2025-06-08T13:20:53.000Z</time>
      </trkpt>
      <trkpt lat="43.53357" lon="6.14348">
        <ele>337.4</ele>
        <time>2025-06-08T13:20:54.000Z</time>
      </trkpt>
      <trkpt lat="43.53357" lon="6.14348">
        <ele>337.4</ele>
        <time>2025-06-08T13:20:55.000Z</time>
      </trkpt>
      <trkpt lat="43.53357" lon="6.14348">
        <ele>337.4</ele>
        <time>2025-06-08T13:20:59.000Z</time>
      </trkpt>
      <trkpt lat="43.53357" lon="6.14348">
        <ele>337.4</ele>
        <time>2025-06-08T13:21:00.000Z</time>
      </trkpt>
      <trkpt lat="43.53357" lon="6.14348">
        <ele>337.4</ele>
        <time>2025-06-08T13:21:01.000Z</time>
      </trkpt>
      <trkpt lat="43.53357" lon="6.14348">
        <ele>337.4</ele>
        <time>2025-06-08T13:21:02.000Z</time>
      </trkpt>
      <trkpt lat="43.53357" lon="6.14348">
        <ele>337.3</ele>
        <time>2025-06-08T13:21:03.000Z</time>
      </trkpt>
      <trkpt lat="43.53357" lon="6.14348">
        <ele>337.3</ele>
        <time>2025-06-08T13:21:07.000Z</time>
      </trkpt>
      <trkpt lat="43.53357" lon="6.14348">
        <ele>337.3</ele>
        <time>2025-06-08T13:21:08.000Z</time>
      </trkpt>
      <trkpt lat="43.53357" lon="6.14348">
        <ele>337.2</ele>
        <time>2025-06-08T13:21:16.000Z</time>
      </trkpt>
      <trkpt lat="43.53357" lon="6.14348">
        <ele>337.2</ele>
        <time>2025-06-08T13:21:17.000Z</time>
      </trkpt>
      <trkpt lat="43.53357" lon="6.14348">
        <ele>337.1</ele>
        <time>2025-06-08T13:21:24.000Z</time>
      </trkpt>
      <trkpt lat="43.53357" lon="6.14348">
        <ele>337.1</ele>
        <time>2025-06-08T13:21:25.000Z</time>
      </trkpt>
      <trkpt lat="43.53357" lon="6.14348">
        <ele>337.1</ele>
        <time>2025-06-08T13:21:26.000Z</time>
      </trkpt>
      <trkpt lat="43.53357" lon="6.14348">
        <ele>337.1</ele>
        <time>2025-06-08T13:21:29.000Z</time>
      </trkpt>
      <trkpt lat="43.53357" lon="6.14348">
        <ele>337.1</ele>
        <time>2025-06-08T13:21:30.000Z</time>
      </trkpt>
      <trkpt lat="43.53357" lon="6.14348">
        <ele>337.1</ele>
        <time>2025-06-08T13:21:33.000Z</time>
      </trkpt>
      <trkpt lat="43.53358" lon="6.14348">
        <ele>337.1</ele>
        <time>2025-06-08T13:21:34.000Z</time>
      </trkpt>
      <trkpt lat="43.53358" lon="6.14348">
        <ele>337.1</ele>
        <time>2025-06-08T13:21:35.000Z</time>
      </trkpt>
      <trkpt lat="43.5335" lon="6.14356">
        <ele>337</ele>
        <time>2025-06-08T13:21:44.000Z</time>
      </trkpt>
      <trkpt lat="43.53342" lon="6.14362">
        <ele>335.8</ele>
        <time>2025-06-08T13:21:52.000Z</time>
      </trkpt>
      <trkpt lat="43.53334" lon="6.14372">
        <ele>334.6</ele>
        <time>2025-06-08T13:22:00.000Z</time>
      </trkpt>
      <trkpt lat="43.53329" lon="6.14384">
        <ele>334</ele>
        <time>2025-06-08T13:22:08.000Z</time>
      </trkpt>
      <trkpt lat="43.53323" lon="6.14394">
        <ele>333.4</ele>
        <time>2025-06-08T13:22:15.000Z</time>
      </trkpt>
      <trkpt lat="43.53318" lon="6.14404">
        <ele>332.3</ele>
        <time>2025-06-08T13:22:23.000Z</time>
      </trkpt>
      <trkpt lat="43.53314" lon="6.14415">
        <ele>331.8</ele>
        <time>2025-06-08T13:22:33.000Z</time>
      </trkpt>
      <trkpt lat="43.53313" lon="6.14416">
        <ele>331.7</ele>
        <time>2025-06-08T13:22:41.000Z</time>
      </trkpt>
      <trkpt lat="43.53313" lon="6.14416">
        <ele>331.7</ele>
        <time>2025-06-08T13:22:42.000Z</time>
      </trkpt>
      <trkpt lat="43.53313" lon="6.14416">
        <ele>331.5</ele>
        <time>2025-06-08T13:22:46.000Z</time>
      </trkpt>
      <trkpt lat="43.53313" lon="6.14417">
        <ele>331.5</ele>
        <time>2025-06-08T13:22:47.000Z</time>
      </trkpt>
      <trkpt lat="43.53306" lon="6.14426">
        <ele>331.3</ele>
        <time>2025-06-08T13:22:55.000Z</time>
      </trkpt>
      <trkpt lat="43.53303" lon="6.14438">
        <ele>331.1</ele>
        <time>2025-06-08T13:23:02.000Z</time>
      </trkpt>
      <trkpt lat="43.53299" lon="6.1445">
        <ele>330.6</ele>
        <time>2025-06-08T13:23:09.000Z</time>
      </trkpt>
      <trkpt lat="43.53296" lon="6.14463">
        <ele>330.1</ele>
        <time>2025-06-08T13:23:17.000Z</time>
      </trkpt>
      <trkpt lat="43.53295" lon="6.14478">
        <ele>329.5</ele>
        <time>2025-06-08T13:23:25.000Z</time>
      </trkpt>
      <trkpt lat="43.5329" lon="6.14489">
        <ele>328.9</ele>
        <time>2025-06-08T13:23:34.000Z</time>
      </trkpt>
      <trkpt lat="43.53287" lon="6.14491">
        <ele>328.5</ele>
        <time>2025-06-08T13:23:46.000Z</time>
      </trkpt>
      <trkpt lat="43.53287" lon="6.14491">
        <ele>328.5</ele>
        <time>2025-06-08T13:23:47.000Z</time>
      </trkpt>
      <trkpt lat="43.53287" lon="6.14491">
        <ele>328.5</ele>
        <time>2025-06-08T13:23:48.000Z</time>
      </trkpt>
      <trkpt lat="43.53286" lon="6.14493">
        <ele>328.4</ele>
        <time>2025-06-08T13:23:52.000Z</time>
      </trkpt>
      <trkpt lat="43.53286" lon="6.14493">
        <ele>328.4</ele>
        <time>2025-06-08T13:23:53.000Z</time>
      </trkpt>
      <trkpt lat="43.53284" lon="6.14497">
        <ele>328.4</ele>
        <time>2025-06-08T13:24:01.000Z</time>
      </trkpt>
      <trkpt lat="43.53284" lon="6.14497">
        <ele>328.4</ele>
        <time>2025-06-08T13:24:02.000Z</time>
      </trkpt>
      <trkpt lat="43.53284" lon="6.14499">
        <ele>328.6</ele>
        <time>2025-06-08T13:24:33.000Z</time>
      </trkpt>
      <trkpt lat="43.53283" lon="6.14499">
        <ele>328.6</ele>
        <time>2025-06-08T13:24:34.000Z</time>
      </trkpt>
      <trkpt lat="43.53282" lon="6.145">
        <ele>328.7</ele>
        <time>2025-06-08T13:24:35.000Z</time>
      </trkpt>
      <trkpt lat="43.53274" lon="6.14505">
        <ele>328.7</ele>
        <time>2025-06-08T13:24:43.000Z</time>
      </trkpt>
      <trkpt lat="43.53265" lon="6.14512">
        <ele>328.8</ele>
        <time>2025-06-08T13:24:51.000Z</time>
      </trkpt>
      <trkpt lat="43.53257" lon="6.14516">
        <ele>328.9</ele>
        <time>2025-06-08T13:25:00.000Z</time>
      </trkpt>
      <trkpt lat="43.53252" lon="6.14527">
        <ele>329.3</ele>
        <time>2025-06-08T13:25:08.000Z</time>
      </trkpt>
      <trkpt lat="43.53251" lon="6.14528">
        <ele>329.7</ele>
        <time>2025-06-08T13:25:14.000Z</time>
      </trkpt>
      <trkpt lat="43.53251" lon="6.14528">
        <ele>329.8</ele>
        <time>2025-06-08T13:25:15.000Z</time>
      </trkpt>
      <trkpt lat="43.53252" lon="6.14528">
        <ele>329.8</ele>
        <time>2025-06-08T13:25:16.000Z</time>
      </trkpt>
      <trkpt lat="43.5325" lon="6.14529">
        <ele>329.9</ele>
        <time>2025-06-08T13:25:24.000Z</time>
      </trkpt>
      <trkpt lat="43.53249" lon="6.14529">
        <ele>330</ele>
        <time>2025-06-08T13:25:25.000Z</time>
      </trkpt>
      <trkpt lat="43.53242" lon="6.1454">
        <ele>330.1</ele>
        <time>2025-06-08T13:25:32.000Z</time>
      </trkpt>
      <trkpt lat="43.53235" lon="6.14548">
        <ele>330.3</ele>
        <time>2025-06-08T13:25:39.000Z</time>
      </trkpt>
      <trkpt lat="43.53227" lon="6.14555">
        <ele>330.7</ele>
        <time>2025-06-08T13:25:48.000Z</time>
      </trkpt>
      <trkpt lat="43.53231" lon="6.14543">
        <ele>331</ele>
        <time>2025-06-08T13:26:10.000Z</time>
      </trkpt>
      <trkpt lat="43.53232" lon="6.14543">
        <ele>330.9</ele>
        <time>2025-06-08T13:26:17.000Z</time>
      </trkpt>
      <trkpt lat="43.53232" lon="6.14543">
        <ele>331</ele>
        <time>2025-06-08T13:26:18.000Z</time>
      </trkpt>
      <trkpt lat="43.53232" lon="6.14543">
        <ele>331</ele>
        <time>2025-06-08T13:26:19.000Z</time>
      </trkpt>
      <trkpt lat="43.53232" lon="6.14542">
        <ele>331</ele>
        <time>2025-06-08T13:26:20.000Z</time>
      </trkpt>
      <trkpt lat="43.5323" lon="6.1453">
        <ele>330.8</ele>
        <time>2025-06-08T13:26:36.000Z</time>
      </trkpt>
      <trkpt lat="43.53224" lon="6.1452">
        <ele>330.6</ele>
        <time>2025-06-08T13:26:43.000Z</time>
      </trkpt>
      <trkpt lat="43.53216" lon="6.14513">
        <ele>330</ele>
        <time>2025-06-08T13:26:57.000Z</time>
      </trkpt>
      <trkpt lat="43.53212" lon="6.14512">
        <ele>329.7</ele>
        <time>2025-06-08T13:27:07.000Z</time>
      </trkpt>
      <trkpt lat="43.53212" lon="6.14512">
        <ele>329.7</ele>
        <time>2025-06-08T13:27:08.000Z</time>
      </trkpt>
      <trkpt lat="43.53212" lon="6.14512">
        <ele>329.7</ele>
        <time>2025-06-08T13:27:09.000Z</time>
      </trkpt>
      <trkpt lat="43.53212" lon="6.14512">
        <ele>329.6</ele>
        <time>2025-06-08T13:27:10.000Z</time>
      </trkpt>
      <trkpt lat="43.53211" lon="6.14513">
        <ele>329.6</ele>
        <time>2025-06-08T13:27:11.000Z</time>
      </trkpt>
      <trkpt lat="43.53211" lon="6.14513">
        <ele>329.6</ele>
        <time>2025-06-08T13:27:12.000Z</time>
      </trkpt>
      <trkpt lat="43.53211" lon="6.14514">
        <ele>329.6</ele>
        <time>2025-06-08T13:27:13.000Z</time>
      </trkpt>
      <trkpt lat="43.53212" lon="6.14514">
        <ele>329.7</ele>
        <time>2025-06-08T13:27:19.000Z</time>
      </trkpt>
      <trkpt lat="43.53212" lon="6.14514">
        <ele>329.6</ele>
        <time>2025-06-08T13:27:20.000Z</time>
      </trkpt>
      <trkpt lat="43.53212" lon="6.14514">
        <ele>329.6</ele>
        <time>2025-06-08T13:27:21.000Z</time>
      </trkpt>
      <trkpt lat="43.53212" lon="6.14514">
        <ele>329.6</ele>
        <time>2025-06-08T13:27:22.000Z</time>
      </trkpt>
      <trkpt lat="43.53212" lon="6.14514">
        <ele>329.6</ele>
        <time>2025-06-08T13:27:23.000Z</time>
      </trkpt>
      <trkpt lat="43.53212" lon="6.14514">
        <ele>329.7</ele>
        <time>2025-06-08T13:27:31.000Z</time>
      </trkpt>
      <trkpt lat="43.53212" lon="6.14514">
        <ele>329.7</ele>
        <time>2025-06-08T13:27:32.000Z</time>
      </trkpt>
      <trkpt lat="43.53211" lon="6.14514">
        <ele>329.7</ele>
        <time>2025-06-08T13:27:33.000Z</time>
      </trkpt>
      <trkpt lat="43.53202" lon="6.14511">
        <ele>329.7</ele>
        <time>2025-06-08T13:27:42.000Z</time>
      </trkpt>
      <trkpt lat="43.53193" lon="6.14508">
        <ele>329.7</ele>
        <time>2025-06-08T13:27:51.000Z</time>
      </trkpt>
      <trkpt lat="43.53183" lon="6.14508">
        <ele>329.7</ele>
        <time>2025-06-08T13:28:00.000Z</time>
      </trkpt>
      <trkpt lat="43.53174" lon="6.1451">
        <ele>329.8</ele>
        <time>2025-06-08T13:28:08.000Z</time>
      </trkpt>
      <trkpt lat="43.53165" lon="6.14516">
        <ele>329.8</ele>
        <time>2025-06-08T13:28:16.000Z</time>
      </trkpt>
      <trkpt lat="43.53157" lon="6.14524">
        <ele>329.8</ele>
        <time>2025-06-08T13:28:23.000Z</time>
      </trkpt>
      <trkpt lat="43.53148" lon="6.14526">
        <ele>329.8</ele>
        <time>2025-06-08T13:28:31.000Z</time>
      </trkpt>
      <trkpt lat="43.53138" lon="6.1453">
        <ele>329.7</ele>
        <time>2025-06-08T13:28:39.000Z</time>
      </trkpt>
      <trkpt lat="43.53129" lon="6.14536">
        <ele>329.6</ele>
        <time>2025-06-08T13:28:47.000Z</time>
      </trkpt>
      <trkpt lat="43.53119" lon="6.14539">
        <ele>329.5</ele>
        <time>2025-06-08T13:28:55.000Z</time>
      </trkpt>
      <trkpt lat="43.5311" lon="6.14542">
        <ele>329.3</ele>
        <time>2025-06-08T13:29:04.000Z</time>
      </trkpt>
      <trkpt lat="43.53101" lon="6.14543">
        <ele>329.1</ele>
        <time>2025-06-08T13:29:14.000Z</time>
      </trkpt>
      <trkpt lat="43.53096" lon="6.14545">
        <ele>329.2</ele>
        <time>2025-06-08T13:29:27.000Z</time>
      </trkpt>
      <trkpt lat="43.53096" lon="6.14545">
        <ele>329.2</ele>
        <time>2025-06-08T13:29:28.000Z</time>
      </trkpt>
      <trkpt lat="43.53096" lon="6.14545">
        <ele>329.2</ele>
        <time>2025-06-08T13:29:29.000Z</time>
      </trkpt>
      <trkpt lat="43.53095" lon="6.14545">
        <ele>329.2</ele>
        <time>2025-06-08T13:29:30.000Z</time>
      </trkpt>
      <trkpt lat="43.53086" lon="6.14548">
        <ele>329.1</ele>
        <time>2025-06-08T13:29:39.000Z</time>
      </trkpt>
      <trkpt lat="43.53077" lon="6.14551">
        <ele>329</ele>
        <time>2025-06-08T13:29:52.000Z</time>
      </trkpt>
      <trkpt lat="43.53067" lon="6.14555">
        <ele>328.9</ele>
        <time>2025-06-08T13:30:03.000Z</time>
      </trkpt>
      <trkpt lat="43.53059" lon="6.1456">
        <ele>328.7</ele>
        <time>2025-06-08T13:30:12.000Z</time>
      </trkpt>
      <trkpt lat="43.53049" lon="6.14563">
        <ele>328.6</ele>
        <time>2025-06-08T13:30:21.000Z</time>
      </trkpt>
      <trkpt lat="43.5304" lon="6.14568">
        <ele>328.8</ele>
        <time>2025-06-08T13:30:30.000Z</time>
      </trkpt>
      <trkpt lat="43.53039" lon="6.14568">
        <ele>328.9</ele>
        <time>2025-06-08T13:30:34.000Z</time>
      </trkpt>
      <trkpt lat="43.53039" lon="6.14568">
        <ele>328.9</ele>
        <time>2025-06-08T13:30:35.000Z</time>
      </trkpt>
      <trkpt lat="43.53039" lon="6.14568">
        <ele>328.9</ele>
        <time>2025-06-08T13:30:36.000Z</time>
      </trkpt>
      <trkpt lat="43.53039" lon="6.14568">
        <ele>329.1</ele>
        <time>2025-06-08T13:30:43.000Z</time>
      </trkpt>
      <trkpt lat="43.53039" lon="6.14568">
        <ele>329.1</ele>
        <time>2025-06-08T13:30:44.000Z</time>
      </trkpt>
      <trkpt lat="43.53039" lon="6.14568">
        <ele>329.1</ele>
        <time>2025-06-08T13:30:45.000Z</time>
      </trkpt>
      <trkpt lat="43.53039" lon="6.14568">
        <ele>329.1</ele>
        <time>2025-06-08T13:30:46.000Z</time>
      </trkpt>
      <trkpt lat="43.53039" lon="6.14568">
        <ele>329.1</ele>
        <time>2025-06-08T13:30:47.000Z</time>
      </trkpt>
      <trkpt lat="43.53039" lon="6.14568">
        <ele>329.1</ele>
        <time>2025-06-08T13:30:48.000Z</time>
      </trkpt>
      <trkpt lat="43.53039" lon="6.14568">
        <ele>329.2</ele>
        <time>2025-06-08T13:30:52.000Z</time>
      </trkpt>
      <trkpt lat="43.53039" lon="6.14569">
        <ele>329.2</ele>
        <time>2025-06-08T13:30:53.000Z</time>
      </trkpt>
      <trkpt lat="43.53029" lon="6.14572">
        <ele>329.2</ele>
        <time>2025-06-08T13:31:05.000Z</time>
      </trkpt>
      <trkpt lat="43.53022" lon="6.14578">
        <ele>329.1</ele>
        <time>2025-06-08T13:31:15.000Z</time>
      </trkpt>
      <trkpt lat="43.53012" lon="6.14576">
        <ele>328.8</ele>
        <time>2025-06-08T13:31:25.000Z</time>
      </trkpt>
      <trkpt lat="43.53003" lon="6.1458">
        <ele>328.8</ele>
        <time>2025-06-08T13:31:34.000Z</time>
      </trkpt>
      <trkpt lat="43.52994" lon="6.14586">
        <ele>328.7</ele>
        <time>2025-06-08T13:31:41.000Z</time>
      </trkpt>
      <trkpt lat="43.52992" lon="6.14588">
        <ele>328.6</ele>
        <time>2025-06-08T13:31:49.000Z</time>
      </trkpt>
      <trkpt lat="43.52992" lon="6.14588">
        <ele>328.6</ele>
        <time>2025-06-08T13:31:50.000Z</time>
      </trkpt>
      <trkpt lat="43.52993" lon="6.1459">
        <ele>328.4</ele>
        <time>2025-06-08T13:32:09.000Z</time>
      </trkpt>
      <trkpt lat="43.52992" lon="6.14591">
        <ele>328.4</ele>
        <time>2025-06-08T13:32:10.000Z</time>
      </trkpt>
      <trkpt lat="43.52992" lon="6.14591">
        <ele>328.4</ele>
        <time>2025-06-08T13:32:14.000Z</time>
      </trkpt>
      <trkpt lat="43.52992" lon="6.14591">
        <ele>328.4</ele>
        <time>2025-06-08T13:32:15.000Z</time>
      </trkpt>
      <trkpt lat="43.52992" lon="6.14591">
        <ele>328.4</ele>
        <time>2025-06-08T13:32:16.000Z</time>
      </trkpt>
      <trkpt lat="43.52991" lon="6.14591">
        <ele>328.4</ele>
        <time>2025-06-08T13:32:41.000Z</time>
      </trkpt>
      <trkpt lat="43.52991" lon="6.14591">
        <ele>328.4</ele>
        <time>2025-06-08T13:32:42.000Z</time>
      </trkpt>
      <trkpt lat="43.52991" lon="6.14591">
        <ele>328.4</ele>
        <time>2025-06-08T13:32:43.000Z</time>
      </trkpt>
      <trkpt lat="43.52991" lon="6.14591">
        <ele>328.4</ele>
        <time>2025-06-08T13:32:44.000Z</time>
      </trkpt>
      <trkpt lat="43.52991" lon="6.14591">
        <ele>328.4</ele>
        <time>2025-06-08T13:32:45.000Z</time>
      </trkpt>
      <trkpt lat="43.52992" lon="6.14593">
        <ele>328.3</ele>
        <time>2025-06-08T13:32:49.000Z</time>
      </trkpt>
      <trkpt lat="43.52992" lon="6.14595">
        <ele>328.3</ele>
        <time>2025-06-08T13:32:50.000Z</time>
      </trkpt>
      <trkpt lat="43.52993" lon="6.14608">
        <ele>328.4</ele>
        <time>2025-06-08T13:33:02.000Z</time>
      </trkpt>
      <trkpt lat="43.52992" lon="6.14621">
        <ele>328.4</ele>
        <time>2025-06-08T13:33:17.000Z</time>
      </trkpt>
      <trkpt lat="43.52993" lon="6.14634">
        <ele>328.5</ele>
        <time>2025-06-08T13:33:32.000Z</time>
      </trkpt>
      <trkpt lat="43.52993" lon="6.14647">
        <ele>328.6</ele>
        <time>2025-06-08T13:33:40.000Z</time>
      </trkpt>
      <trkpt lat="43.52994" lon="6.1466">
        <ele>329</ele>
        <time>2025-06-08T13:33:51.000Z</time>
      </trkpt>
      <trkpt lat="43.52996" lon="6.14674">
        <ele>329.4</ele>
        <time>2025-06-08T13:34:02.000Z</time>
      </trkpt>
      <trkpt lat="43.52998" lon="6.14686">
        <ele>329.3</ele>
        <time>2025-06-08T13:34:12.000Z</time>
      </trkpt>
      <trkpt lat="43.52999" lon="6.14699">
        <ele>329.3</ele>
        <time>2025-06-08T13:34:25.000Z</time>
      </trkpt>
      <trkpt lat="43.53001" lon="6.14712">
        <ele>329.2</ele>
        <time>2025-06-08T13:34:34.000Z</time>
      </trkpt>
      <trkpt lat="43.53004" lon="6.14725">
        <ele>329.1</ele>
        <time>2025-06-08T13:34:46.000Z</time>
      </trkpt>
      <trkpt lat="43.53005" lon="6.14737">
        <ele>329</ele>
        <time>2025-06-08T13:34:58.000Z</time>
      </trkpt>
      <trkpt lat="43.53006" lon="6.1475">
        <ele>328.8</ele>
        <time>2025-06-08T13:35:10.000Z</time>
      </trkpt>
      <trkpt lat="43.53004" lon="6.14763">
        <ele>328.5</ele>
        <time>2025-06-08T13:35:21.000Z</time>
      </trkpt>
      <trkpt lat="43.53" lon="6.14774">
        <ele>328.3</ele>
        <time>2025-06-08T13:35:31.000Z</time>
      </trkpt>
      <trkpt lat="43.52994" lon="6.14785">
        <ele>328.2</ele>
        <time>2025-06-08T13:35:42.000Z</time>
      </trkpt>
      <trkpt lat="43.52993" lon="6.14798">
        <ele>328.1</ele>
        <time>2025-06-08T13:35:53.000Z</time>
      </trkpt>
      <trkpt lat="43.52994" lon="6.14811">
        <ele>327.8</ele>
        <time>2025-06-08T13:36:02.000Z</time>
      </trkpt>
      <trkpt lat="43.52991" lon="6.14823">
        <ele>327.7</ele>
        <time>2025-06-08T13:36:21.000Z</time>
      </trkpt>
      <trkpt lat="43.52986" lon="6.14834">
        <ele>327.5</ele>
        <time>2025-06-08T13:36:31.000Z</time>
      </trkpt>
      <trkpt lat="43.52984" lon="6.14836">
        <ele>327.5</ele>
        <time>2025-06-08T13:36:39.000Z</time>
      </trkpt>
      <trkpt lat="43.52984" lon="6.14836">
        <ele>327.4</ele>
        <time>2025-06-08T13:36:40.000Z</time>
      </trkpt>
      <trkpt lat="43.52985" lon="6.14838">
        <ele>327.7</ele>
        <time>2025-06-08T13:36:57.000Z</time>
      </trkpt>
      <trkpt lat="43.52985" lon="6.14838">
        <ele>327.7</ele>
        <time>2025-06-08T13:36:58.000Z</time>
      </trkpt>
      <trkpt lat="43.52985" lon="6.14838">
        <ele>327.7</ele>
        <time>2025-06-08T13:36:59.000Z</time>
      </trkpt>
      <trkpt lat="43.52985" lon="6.14838">
        <ele>327.7</ele>
        <time>2025-06-08T13:37:00.000Z</time>
      </trkpt>
      <trkpt lat="43.52985" lon="6.14838">
        <ele>327.8</ele>
        <time>2025-06-08T13:37:09.000Z</time>
      </trkpt>
      <trkpt lat="43.52985" lon="6.14839">
        <ele>327.8</ele>
        <time>2025-06-08T13:37:10.000Z</time>
      </trkpt>
      <trkpt lat="43.52986" lon="6.14839">
        <ele>327.8</ele>
        <time>2025-06-08T13:37:11.000Z</time>
      </trkpt>
      <trkpt lat="43.52986" lon="6.14839">
        <ele>327.8</ele>
        <time>2025-06-08T13:37:14.000Z</time>
      </trkpt>
      <trkpt lat="43.52986" lon="6.14839">
        <ele>327.8</ele>
        <time>2025-06-08T13:37:15.000Z</time>
      </trkpt>
      <trkpt lat="43.52986" lon="6.14839">
        <ele>327.8</ele>
        <time>2025-06-08T13:37:46.000Z</time>
      </trkpt>
      <trkpt lat="43.52986" lon="6.14839">
        <ele>327.8</ele>
        <time>2025-06-08T13:37:47.000Z</time>
      </trkpt>
      <trkpt lat="43.52986" lon="6.14839">
        <ele>327.8</ele>
        <time>2025-06-08T13:37:48.000Z</time>
      </trkpt>
      <trkpt lat="43.52989" lon="6.14841">
        <ele>328.1</ele>
        <time>2025-06-08T13:37:56.000Z</time>
      </trkpt>
      <trkpt lat="43.52989" lon="6.1484">
        <ele>328.1</ele>
        <time>2025-06-08T13:37:57.000Z</time>
      </trkpt>
      <trkpt lat="43.52989" lon="6.1484">
        <ele>328</ele>
        <time>2025-06-08T13:37:58.000Z</time>
      </trkpt>
      <trkpt lat="43.52989" lon="6.1484">
        <ele>328</ele>
        <time>2025-06-08T13:37:59.000Z</time>
      </trkpt>
      <trkpt lat="43.52989" lon="6.1484">
        <ele>328</ele>
        <time>2025-06-08T13:38:00.000Z</time>
      </trkpt>
      <trkpt lat="43.52989" lon="6.1484">
        <ele>328</ele>
        <time>2025-06-08T13:38:01.000Z</time>
      </trkpt>
      <trkpt lat="43.52989" lon="6.1484">
        <ele>328</ele>
        <time>2025-06-08T13:38:02.000Z</time>
      </trkpt>
      <trkpt lat="43.52989" lon="6.1484">
        <ele>328</ele>
        <time>2025-06-08T13:38:03.000Z</time>
      </trkpt>
      <trkpt lat="43.52991" lon="6.14842">
        <ele>328.1</ele>
        <time>2025-06-08T13:38:06.000Z</time>
      </trkpt>
      <trkpt lat="43.52991" lon="6.14842">
        <ele>328.1</ele>
        <time>2025-06-08T13:38:07.000Z</time>
      </trkpt>
      <trkpt lat="43.52997" lon="6.14852">
        <ele>328.3</ele>
        <time>2025-06-08T13:38:18.000Z</time>
      </trkpt>
      <trkpt lat="43.53005" lon="6.1486">
        <ele>328</ele>
        <time>2025-06-08T13:38:30.000Z</time>
      </trkpt>
      <trkpt lat="43.53013" lon="6.14867">
        <ele>327.8</ele>
        <time>2025-06-08T13:38:43.000Z</time>
      </trkpt>
    </trkseg>
  </trk>
</gpx>